<?xml version="1.0" encoding="UTF-8" standalone="no" ?>
<gpx xmlns="http://www.topografix.com/GPX/1/1" xmlns:xsi="http://www.w3.org/2001/XMLSchema-instance" xsi:schemaLocation="http://www.topografix.com/GPX/1/1 http://www.topografix.com/GPX/1/1/gpx.xsd" version="1.1" creator="VisuGPX - https://www.visugpx.com">
  <metadata>
    <name>TET_E-10-EUS-NO_20241226</name>
    <desc><![CDATA[

]]></desc>
  </metadata>
  <trk>
    <name><![CDATA[TET_E-10-EUS-NO_20241226]]></name>
    <extensions>
      <line xmlns="http://www.topografix.com/GPX/gpx_style/0/2">
        <color>008800</color>
        <width>4</width>
      </line>
    </extensions>
    <trkseg>
      <trkpt lat="43.3521" lon="-3.07241">
        <ele>4.7</ele>
        <time>2023-07-14T15:27:57.000+02:00</time>
      </trkpt>
      <trkpt lat="43.35277" lon="-3.07383">
        <ele>5.4</ele>
        <time>2023-07-14T15:28:16.000+02:00</time>
      </trkpt>
      <trkpt lat="43.35316" lon="-3.07416">
        <ele>4.3</ele>
        <time>2023-07-14T15:28:23.000+02:00</time>
      </trkpt>
      <trkpt lat="43.35304" lon="-3.07467">
        <ele>2.6</ele>
        <time>2023-07-14T15:28:29.000+02:00</time>
      </trkpt>
      <trkpt lat="43.35268" lon="-3.07452">
        <ele>2.5</ele>
        <time>2023-07-14T15:28:35.000+02:00</time>
      </trkpt>
      <trkpt lat="43.35216" lon="-3.07278">
        <ele>0.3</ele>
        <time>2023-07-14T15:28:56.000+02:00</time>
      </trkpt>
      <trkpt lat="43.35054" lon="-3.06934">
        <ele>5.1</ele>
        <time>2023-07-14T15:29:41.000+02:00</time>
      </trkpt>
      <trkpt lat="43.34971" lon="-3.06971">
        <ele>3.9</ele>
        <time>2023-07-14T15:29:54.000+02:00</time>
      </trkpt>
      <trkpt lat="43.34941" lon="-3.07039">
        <ele>5.9</ele>
        <time>2023-07-14T15:30:03.000+02:00</time>
      </trkpt>
      <trkpt lat="43.34859" lon="-3.07078">
        <ele>6</ele>
        <time>2023-07-14T15:30:16.000+02:00</time>
      </trkpt>
      <trkpt lat="43.34853" lon="-3.07104">
        <ele>4.6</ele>
        <time>2023-07-14T15:30:20.000+02:00</time>
      </trkpt>
      <trkpt lat="43.35067" lon="-3.07529">
        <ele>8.4</ele>
        <time>2023-07-14T15:31:17.000+02:00</time>
      </trkpt>
      <trkpt lat="43.35229" lon="-3.07749">
        <ele>3.5</ele>
        <time>2023-07-14T15:31:52.000+02:00</time>
      </trkpt>
      <trkpt lat="43.35256" lon="-3.07754">
        <ele>3.1</ele>
        <time>2023-07-14T15:31:56.000+02:00</time>
      </trkpt>
      <trkpt lat="43.35202" lon="-3.07848">
        <ele>12.5</ele>
        <time>2023-07-14T15:32:09.000+02:00</time>
      </trkpt>
      <trkpt lat="43.35231" lon="-3.08039">
        <ele>2.6</ele>
        <time>2023-07-14T15:32:31.000+02:00</time>
      </trkpt>
      <trkpt lat="43.35181" lon="-3.08099">
        <ele>10.7</ele>
        <time>2023-07-14T15:32:41.000+02:00</time>
      </trkpt>
      <trkpt lat="43.35182" lon="-3.0816">
        <ele>7.3</ele>
        <time>2023-07-14T15:32:48.000+02:00</time>
      </trkpt>
      <trkpt lat="43.34676" lon="-3.08355">
        <ele>45.3</ele>
        <time>2023-07-14T15:34:08.000+02:00</time>
      </trkpt>
      <trkpt lat="43.34524" lon="-3.08363">
        <ele>49</ele>
        <time>2023-07-14T15:34:31.000+02:00</time>
      </trkpt>
      <trkpt lat="43.34289" lon="-3.08304">
        <ele>56.3</ele>
        <time>2023-07-14T15:35:08.000+02:00</time>
      </trkpt>
      <trkpt lat="43.3407" lon="-3.08316">
        <ele>63.9</ele>
        <time>2023-07-14T15:35:41.000+02:00</time>
      </trkpt>
      <trkpt lat="43.34078" lon="-3.08351">
        <ele>64.1</ele>
        <time>2023-07-14T15:35:45.000+02:00</time>
      </trkpt>
      <trkpt lat="43.34167" lon="-3.08405">
        <ele>68.1</ele>
        <time>2023-07-14T15:36:00.000+02:00</time>
      </trkpt>
      <trkpt lat="43.3441" lon="-3.08525">
        <ele>77.3</ele>
        <time>2023-07-14T15:36:40.000+02:00</time>
      </trkpt>
      <trkpt lat="43.34475" lon="-3.08531">
        <ele>74.8</ele>
        <time>2023-07-14T15:36:50.000+02:00</time>
      </trkpt>
      <trkpt lat="43.34618" lon="-3.08948">
        <ele>101.9</ele>
        <time>2023-07-14T15:37:41.000+02:00</time>
      </trkpt>
      <trkpt lat="43.34737" lon="-3.09021">
        <ele>99.2</ele>
        <time>2023-07-14T15:38:01.000+02:00</time>
      </trkpt>
      <trkpt lat="43.34681" lon="-3.09056">
        <ele>97</ele>
        <time>2023-07-14T15:38:10.000+02:00</time>
      </trkpt>
      <trkpt lat="43.34526" lon="-3.08912">
        <ele>91.9</ele>
        <time>2023-07-14T15:38:39.000+02:00</time>
      </trkpt>
      <trkpt lat="43.34405" lon="-3.08935">
        <ele>79</ele>
        <time>2023-07-14T15:38:57.000+02:00</time>
      </trkpt>
      <trkpt lat="43.34252" lon="-3.08892">
        <ele>66.4</ele>
        <time>2023-07-14T15:39:21.000+02:00</time>
      </trkpt>
      <trkpt lat="43.34232" lon="-3.08935">
        <ele>56.9</ele>
        <time>2023-07-14T15:39:27.000+02:00</time>
      </trkpt>
      <trkpt lat="43.34263" lon="-3.08991">
        <ele>50</ele>
        <time>2023-07-14T15:39:35.000+02:00</time>
      </trkpt>
      <trkpt lat="43.34165" lon="-3.08986">
        <ele>40.5</ele>
        <time>2023-07-14T15:39:50.000+02:00</time>
      </trkpt>
      <trkpt lat="43.34128" lon="-3.0911">
        <ele>32.5</ele>
        <time>2023-07-14T15:40:05.000+02:00</time>
      </trkpt>
      <trkpt lat="43.34137" lon="-3.09161">
        <ele>32.2</ele>
        <time>2023-07-14T15:40:10.000+02:00</time>
      </trkpt>
      <trkpt lat="43.34111" lon="-3.09207">
        <ele>28.4</ele>
        <time>2023-07-14T15:40:17.000+02:00</time>
      </trkpt>
      <trkpt lat="43.34045" lon="-3.09141">
        <ele>29.1</ele>
        <time>2023-07-14T15:40:29.000+02:00</time>
      </trkpt>
      <trkpt lat="43.34" lon="-3.09049">
        <ele>33.6</ele>
        <time>2023-07-14T15:40:42.000+02:00</time>
      </trkpt>
      <trkpt lat="43.33956" lon="-3.09106">
        <ele>23.8</ele>
        <time>2023-07-14T15:40:51.000+02:00</time>
      </trkpt>
      <trkpt lat="43.33888" lon="-3.09119">
        <ele>28.1</ele>
        <time>2023-07-14T15:41:01.000+02:00</time>
      </trkpt>
      <trkpt lat="43.33816" lon="-3.08845">
        <ele>36</ele>
        <time>2023-07-14T15:41:34.000+02:00</time>
      </trkpt>
      <trkpt lat="43.33721" lon="-3.08717">
        <ele>51.1</ele>
        <time>2023-07-14T15:41:54.000+02:00</time>
      </trkpt>
      <trkpt lat="43.33478" lon="-3.08658">
        <ele>80.9</ele>
        <time>2023-07-14T15:42:32.000+02:00</time>
      </trkpt>
      <trkpt lat="43.33302" lon="-3.08755">
        <ele>99.6</ele>
        <time>2023-07-14T15:43:01.000+02:00</time>
      </trkpt>
      <trkpt lat="43.33133" lon="-3.08786">
        <ele>110.7</ele>
        <time>2023-07-14T15:43:27.000+02:00</time>
      </trkpt>
      <trkpt lat="43.32981" lon="-3.08912">
        <ele>141.2</ele>
        <time>2023-07-14T15:43:54.000+02:00</time>
      </trkpt>
      <trkpt lat="43.32918" lon="-3.08866">
        <ele>146.7</ele>
        <time>2023-07-14T15:44:05.000+02:00</time>
      </trkpt>
      <trkpt lat="43.3288" lon="-3.08932">
        <ele>151.3</ele>
        <time>2023-07-14T15:44:14.000+02:00</time>
      </trkpt>
      <trkpt lat="43.32787" lon="-3.08873">
        <ele>160.1</ele>
        <time>2023-07-14T15:44:30.000+02:00</time>
      </trkpt>
      <trkpt lat="43.32667" lon="-3.08911">
        <ele>152.8</ele>
        <time>2023-07-14T15:44:49.000+02:00</time>
      </trkpt>
      <trkpt lat="43.32623" lon="-3.08968">
        <ele>149.1</ele>
        <time>2023-07-14T15:44:58.000+02:00</time>
      </trkpt>
      <trkpt lat="43.32554" lon="-3.08982">
        <ele>142.4</ele>
        <time>2023-07-14T15:45:09.000+02:00</time>
      </trkpt>
      <trkpt lat="43.32486" lon="-3.09103">
        <ele>127.3</ele>
        <time>2023-07-14T15:45:26.000+02:00</time>
      </trkpt>
      <trkpt lat="43.3244" lon="-3.08975">
        <ele>118.3</ele>
        <time>2023-07-14T15:45:41.000+02:00</time>
      </trkpt>
      <trkpt lat="43.32266" lon="-3.09015">
        <ele>101.5</ele>
        <time>2023-07-14T15:46:08.000+02:00</time>
      </trkpt>
      <trkpt lat="43.32194" lon="-3.09166">
        <ele>100.1</ele>
        <time>2023-07-14T15:46:29.000+02:00</time>
      </trkpt>
      <trkpt lat="43.32056" lon="-3.09242">
        <ele>88.9</ele>
        <time>2023-07-14T15:46:51.000+02:00</time>
      </trkpt>
      <trkpt lat="43.31868" lon="-3.09254">
        <ele>86</ele>
        <time>2023-07-14T15:47:20.000+02:00</time>
      </trkpt>
      <trkpt lat="43.31872" lon="-3.09132">
        <ele>82.4</ele>
        <time>2023-07-14T15:47:34.000+02:00</time>
      </trkpt>
      <trkpt lat="43.31812" lon="-3.09126">
        <ele>75.9</ele>
        <time>2023-07-14T15:47:43.000+02:00</time>
      </trkpt>
      <trkpt lat="43.31786" lon="-3.0915">
        <ele>72.7</ele>
        <time>2023-07-14T15:47:48.000+02:00</time>
      </trkpt>
      <trkpt lat="43.31779" lon="-3.09253">
        <ele>77.1</ele>
        <time>2023-07-14T15:47:59.000+02:00</time>
      </trkpt>
      <trkpt lat="43.3181" lon="-3.09416">
        <ele>85.9</ele>
        <time>2023-07-14T15:48:18.000+02:00</time>
      </trkpt>
      <trkpt lat="43.31743" lon="-3.0923">
        <ele>72.1</ele>
        <time>2023-07-14T15:48:41.000+02:00</time>
      </trkpt>
      <trkpt lat="43.31646" lon="-3.09149">
        <ele>62.9</ele>
        <time>2023-07-14T15:48:58.000+02:00</time>
      </trkpt>
      <trkpt lat="43.31472" lon="-3.09227">
        <ele>51.5</ele>
        <time>2023-07-14T15:49:26.000+02:00</time>
      </trkpt>
      <trkpt lat="43.31372" lon="-3.09162">
        <ele>63.1</ele>
        <time>2023-07-14T15:49:43.000+02:00</time>
      </trkpt>
      <trkpt lat="43.31376" lon="-3.09266">
        <ele>57.7</ele>
        <time>2023-07-14T15:49:55.000+02:00</time>
      </trkpt>
      <trkpt lat="43.31335" lon="-3.0929">
        <ele>59.8</ele>
        <time>2023-07-14T15:50:02.000+02:00</time>
      </trkpt>
      <trkpt lat="43.31357" lon="-3.09528">
        <ele>57.2</ele>
        <time>2023-07-14T15:50:28.000+02:00</time>
      </trkpt>
      <trkpt lat="43.31267" lon="-3.09748">
        <ele>45.5</ele>
        <time>2023-07-14T15:50:56.000+02:00</time>
      </trkpt>
      <trkpt lat="43.31178" lon="-3.09734">
        <ele>53.5</ele>
        <time>2023-07-14T15:51:10.000+02:00</time>
      </trkpt>
      <trkpt lat="43.3119" lon="-3.09832">
        <ele>58.8</ele>
        <time>2023-07-14T15:51:21.000+02:00</time>
      </trkpt>
      <trkpt lat="43.31162" lon="-3.09938">
        <ele>66</ele>
        <time>2023-07-14T15:51:33.000+02:00</time>
      </trkpt>
      <trkpt lat="43.31167" lon="-3.101">
        <ele>73.8</ele>
        <time>2023-07-14T15:51:51.000+02:00</time>
      </trkpt>
      <trkpt lat="43.31139" lon="-3.10134">
        <ele>84.3</ele>
        <time>2023-07-14T15:51:57.000+02:00</time>
      </trkpt>
      <trkpt lat="43.31122" lon="-3.10234">
        <ele>90</ele>
        <time>2023-07-14T15:52:09.000+02:00</time>
      </trkpt>
      <trkpt lat="43.3107" lon="-3.10253">
        <ele>95.4</ele>
        <time>2023-07-14T15:52:17.000+02:00</time>
      </trkpt>
      <trkpt lat="43.30995" lon="-3.10389">
        <ele>85.3</ele>
        <time>2023-07-14T15:52:36.000+02:00</time>
      </trkpt>
      <trkpt lat="43.31015" lon="-3.10424">
        <ele>84.4</ele>
        <time>2023-07-14T15:52:41.000+02:00</time>
      </trkpt>
      <trkpt lat="43.31096" lon="-3.10451">
        <ele>89</ele>
        <time>2023-07-14T15:52:53.000+02:00</time>
      </trkpt>
      <trkpt lat="43.31205" lon="-3.10437">
        <ele>84.9</ele>
        <time>2023-07-14T15:53:10.000+02:00</time>
      </trkpt>
      <trkpt lat="43.31308" lon="-3.10551">
        <ele>74.7</ele>
        <time>2023-07-14T15:53:30.000+02:00</time>
      </trkpt>
      <trkpt lat="43.3133" lon="-3.10621">
        <ele>76.8</ele>
        <time>2023-07-14T15:53:39.000+02:00</time>
      </trkpt>
      <trkpt lat="43.31213" lon="-3.10771">
        <ele>92.4</ele>
        <time>2023-07-14T15:54:03.000+02:00</time>
      </trkpt>
      <trkpt lat="43.31276" lon="-3.10766">
        <ele>71.9</ele>
        <time>2023-07-14T15:54:13.000+02:00</time>
      </trkpt>
      <trkpt lat="43.31357" lon="-3.10851">
        <ele>71.6</ele>
        <time>2023-07-14T15:54:29.000+02:00</time>
      </trkpt>
      <trkpt lat="43.31395" lon="-3.10852">
        <ele>66.5</ele>
        <time>2023-07-14T15:54:34.000+02:00</time>
      </trkpt>
      <trkpt lat="43.3147" lon="-3.11028">
        <ele>72.9</ele>
        <time>2023-07-14T15:54:57.000+02:00</time>
      </trkpt>
      <trkpt lat="43.31507" lon="-3.11058">
        <ele>67.3</ele>
        <time>2023-07-14T15:55:04.000+02:00</time>
      </trkpt>
      <trkpt lat="43.31569" lon="-3.11186">
        <ele>67.9</ele>
        <time>2023-07-14T15:55:21.000+02:00</time>
      </trkpt>
      <trkpt lat="43.31749" lon="-3.11292">
        <ele>62.9</ele>
        <time>2023-07-14T15:55:51.000+02:00</time>
      </trkpt>
      <trkpt lat="43.31754" lon="-3.11324">
        <ele>63.9</ele>
        <time>2023-07-14T15:55:54.000+02:00</time>
      </trkpt>
      <trkpt lat="43.31713" lon="-3.1136">
        <ele>64.8</ele>
        <time>2023-07-14T15:56:02.000+02:00</time>
      </trkpt>
      <trkpt lat="43.31762" lon="-3.11395">
        <ele>57.3</ele>
        <time>2023-07-14T15:56:10.000+02:00</time>
      </trkpt>
      <trkpt lat="43.31815" lon="-3.11348">
        <ele>48.9</ele>
        <time>2023-07-14T15:56:20.000+02:00</time>
      </trkpt>
      <trkpt lat="43.31867" lon="-3.11397">
        <ele>41.6</ele>
        <time>2023-07-14T15:56:29.000+02:00</time>
      </trkpt>
      <trkpt lat="43.31923" lon="-3.11388">
        <ele>36</ele>
        <time>2023-07-14T15:56:38.000+02:00</time>
      </trkpt>
      <trkpt lat="43.31925" lon="-3.11622">
        <ele>27.2</ele>
        <time>2023-07-14T15:57:04.000+02:00</time>
      </trkpt>
      <trkpt lat="43.32096" lon="-3.11958">
        <ele>1.6</ele>
        <time>2023-07-14T15:57:49.000+02:00</time>
      </trkpt>
      <trkpt lat="43.31959" lon="-3.12247">
        <ele>4.5</ele>
        <time>2023-07-14T15:58:28.000+02:00</time>
      </trkpt>
      <trkpt lat="43.31848" lon="-3.12401">
        <ele>10.6</ele>
        <time>2023-07-14T15:58:52.000+02:00</time>
      </trkpt>
      <trkpt lat="43.31814" lon="-3.12518">
        <ele>16.7</ele>
        <time>2023-07-14T15:59:06.000+02:00</time>
      </trkpt>
      <trkpt lat="43.31821" lon="-3.12601">
        <ele>14.5</ele>
        <time>2023-07-14T15:59:15.000+02:00</time>
      </trkpt>
      <trkpt lat="43.31873" lon="-3.12691">
        <ele>17.8</ele>
        <time>2023-07-14T15:59:28.000+02:00</time>
      </trkpt>
      <trkpt lat="43.31836" lon="-3.12732">
        <ele>18.8</ele>
        <time>2023-07-14T15:59:35.000+02:00</time>
      </trkpt>
      <trkpt lat="43.31895" lon="-3.12894">
        <ele>24.4</ele>
        <time>2023-07-14T15:59:55.000+02:00</time>
      </trkpt>
      <trkpt lat="43.31859" lon="-3.1297">
        <ele>33.4</ele>
        <time>2023-07-14T16:00:06.000+02:00</time>
      </trkpt>
      <trkpt lat="43.31934" lon="-3.13177">
        <ele>57.4</ele>
        <time>2023-07-14T16:00:31.000+02:00</time>
      </trkpt>
      <trkpt lat="43.31841" lon="-3.13087">
        <ele>61</ele>
        <time>2023-07-14T16:00:49.000+02:00</time>
      </trkpt>
      <trkpt lat="43.31764" lon="-3.13089">
        <ele>65.9</ele>
        <time>2023-07-14T16:01:01.000+02:00</time>
      </trkpt>
      <trkpt lat="43.31756" lon="-3.13318">
        <ele>76.2</ele>
        <time>2023-07-14T16:01:26.000+02:00</time>
      </trkpt>
      <trkpt lat="43.31607" lon="-3.13731">
        <ele>92.4</ele>
        <time>2023-07-14T16:02:17.000+02:00</time>
      </trkpt>
      <trkpt lat="43.31538" lon="-3.13854">
        <ele>112.8</ele>
        <time>2023-07-14T16:02:34.000+02:00</time>
      </trkpt>
      <trkpt lat="43.31534" lon="-3.13669">
        <ele>137.5</ele>
        <time>2023-07-14T16:02:55.000+02:00</time>
      </trkpt>
      <trkpt lat="43.3155" lon="-3.13629">
        <ele>133.4</ele>
        <time>2023-07-14T16:03:00.000+02:00</time>
      </trkpt>
      <trkpt lat="43.31533" lon="-3.1358">
        <ele>151</ele>
        <time>2023-07-14T16:03:06.000+02:00</time>
      </trkpt>
      <trkpt lat="43.31549" lon="-3.13532">
        <ele>148.4</ele>
        <time>2023-07-14T16:03:12.000+02:00</time>
      </trkpt>
      <trkpt lat="43.31545" lon="-3.1343">
        <ele>148.3</ele>
        <time>2023-07-14T16:03:23.000+02:00</time>
      </trkpt>
      <trkpt lat="43.3153" lon="-3.13423">
        <ele>155.1</ele>
        <time>2023-07-14T16:03:26.000+02:00</time>
      </trkpt>
      <trkpt lat="43.31468" lon="-3.13717">
        <ele>165.4</ele>
        <time>2023-07-14T16:04:00.000+02:00</time>
      </trkpt>
      <trkpt lat="43.31414" lon="-3.13776">
        <ele>174.3</ele>
        <time>2023-07-14T16:04:10.000+02:00</time>
      </trkpt>
      <trkpt lat="43.31318" lon="-3.13809">
        <ele>199.1</ele>
        <time>2023-07-14T16:04:25.000+02:00</time>
      </trkpt>
      <trkpt lat="43.31342" lon="-3.13894">
        <ele>186.4</ele>
        <time>2023-07-14T16:04:36.000+02:00</time>
      </trkpt>
      <trkpt lat="43.31306" lon="-3.13938">
        <ele>208.8</ele>
        <time>2023-07-14T16:04:43.000+02:00</time>
      </trkpt>
      <trkpt lat="43.31324" lon="-3.13992">
        <ele>201.6</ele>
        <time>2023-07-14T16:04:49.000+02:00</time>
      </trkpt>
      <trkpt lat="43.31163" lon="-3.14304">
        <ele>226.5</ele>
        <time>2023-07-14T16:05:32.000+02:00</time>
      </trkpt>
      <trkpt lat="43.31197" lon="-3.1438">
        <ele>234</ele>
        <time>2023-07-14T16:05:42.000+02:00</time>
      </trkpt>
      <trkpt lat="43.31349" lon="-3.14388">
        <ele>246.7</ele>
        <time>2023-07-14T16:06:05.000+02:00</time>
      </trkpt>
      <trkpt lat="43.31373" lon="-3.14416">
        <ele>250.3</ele>
        <time>2023-07-14T16:06:10.000+02:00</time>
      </trkpt>
      <trkpt lat="43.31382" lon="-3.14476">
        <ele>256.8</ele>
        <time>2023-07-14T16:06:17.000+02:00</time>
      </trkpt>
      <trkpt lat="43.31348" lon="-3.1463">
        <ele>267.3</ele>
        <time>2023-07-14T16:06:35.000+02:00</time>
      </trkpt>
      <trkpt lat="43.31314" lon="-3.14582">
        <ele>279.6</ele>
        <time>2023-07-14T16:06:42.000+02:00</time>
      </trkpt>
      <trkpt lat="43.31312" lon="-3.1449">
        <ele>287.6</ele>
        <time>2023-07-14T16:06:52.000+02:00</time>
      </trkpt>
      <trkpt lat="43.31279" lon="-3.14519">
        <ele>293.5</ele>
        <time>2023-07-14T16:06:58.000+02:00</time>
      </trkpt>
      <trkpt lat="43.31284" lon="-3.14582">
        <ele>298.4</ele>
        <time>2023-07-14T16:07:05.000+02:00</time>
      </trkpt>
      <trkpt lat="43.31329" lon="-3.14717">
        <ele>302.8</ele>
        <time>2023-07-14T16:07:22.000+02:00</time>
      </trkpt>
      <trkpt lat="43.31331" lon="-3.14802">
        <ele>318.8</ele>
        <time>2023-07-14T16:07:31.000+02:00</time>
      </trkpt>
      <trkpt lat="43.31429" lon="-3.14879">
        <ele>322.5</ele>
        <time>2023-07-14T16:07:48.000+02:00</time>
      </trkpt>
      <trkpt lat="43.31508" lon="-3.14989">
        <ele>335.8</ele>
        <time>2023-07-14T16:08:06.000+02:00</time>
      </trkpt>
      <trkpt lat="43.31492" lon="-3.1501">
        <ele>339</ele>
        <time>2023-07-14T16:08:09.000+02:00</time>
      </trkpt>
      <trkpt lat="43.31406" lon="-3.14936">
        <ele>343.9</ele>
        <time>2023-07-14T16:08:25.000+02:00</time>
      </trkpt>
      <trkpt lat="43.31438" lon="-3.15089">
        <ele>358.8</ele>
        <time>2023-07-14T16:08:42.000+02:00</time>
      </trkpt>
      <trkpt lat="43.31358" lon="-3.14992">
        <ele>370.3</ele>
        <time>2023-07-14T16:08:59.000+02:00</time>
      </trkpt>
      <trkpt lat="43.31302" lon="-3.14963">
        <ele>377.9</ele>
        <time>2023-07-14T16:09:08.000+02:00</time>
      </trkpt>
      <trkpt lat="43.31343" lon="-3.15104">
        <ele>389.7</ele>
        <time>2023-07-14T16:09:25.000+02:00</time>
      </trkpt>
      <trkpt lat="43.31311" lon="-3.1517">
        <ele>395.7</ele>
        <time>2023-07-14T16:09:33.000+02:00</time>
      </trkpt>
      <trkpt lat="43.31308" lon="-3.15106">
        <ele>402</ele>
        <time>2023-07-14T16:09:40.000+02:00</time>
      </trkpt>
      <trkpt lat="43.31202" lon="-3.15023">
        <ele>415.7</ele>
        <time>2023-07-14T16:09:59.000+02:00</time>
      </trkpt>
      <trkpt lat="43.31143" lon="-3.14915">
        <ele>426.2</ele>
        <time>2023-07-14T16:10:14.000+02:00</time>
      </trkpt>
      <trkpt lat="43.30913" lon="-3.14797">
        <ele>457.9</ele>
        <time>2023-07-14T16:10:52.000+02:00</time>
      </trkpt>
      <trkpt lat="43.30877" lon="-3.14723">
        <ele>462.2</ele>
        <time>2023-07-14T16:11:02.000+02:00</time>
      </trkpt>
      <trkpt lat="43.30728" lon="-3.14596">
        <ele>486.7</ele>
        <time>2023-07-14T16:11:28.000+02:00</time>
      </trkpt>
      <trkpt lat="43.30709" lon="-3.14522">
        <ele>489.9</ele>
        <time>2023-07-14T16:11:37.000+02:00</time>
      </trkpt>
      <trkpt lat="43.30658" lon="-3.14477">
        <ele>497.8</ele>
        <time>2023-07-14T16:11:46.000+02:00</time>
      </trkpt>
      <trkpt lat="43.30602" lon="-3.14484">
        <ele>504.8</ele>
        <time>2023-07-14T16:11:55.000+02:00</time>
      </trkpt>
      <trkpt lat="43.30448" lon="-3.14603">
        <ele>523.3</ele>
        <time>2023-07-14T16:12:22.000+02:00</time>
      </trkpt>
      <trkpt lat="43.30286" lon="-3.14792">
        <ele>547.3</ele>
        <time>2023-07-14T16:12:54.000+02:00</time>
      </trkpt>
      <trkpt lat="43.30245" lon="-3.14779">
        <ele>551.3</ele>
        <time>2023-07-14T16:13:01.000+02:00</time>
      </trkpt>
      <trkpt lat="43.30228" lon="-3.14811">
        <ele>551.5</ele>
        <time>2023-07-14T16:13:05.000+02:00</time>
      </trkpt>
      <trkpt lat="43.30273" lon="-3.14934">
        <ele>549</ele>
        <time>2023-07-14T16:13:21.000+02:00</time>
      </trkpt>
      <trkpt lat="43.30353" lon="-3.15003">
        <ele>548.4</ele>
        <time>2023-07-14T16:13:35.000+02:00</time>
      </trkpt>
      <trkpt lat="43.30422" lon="-3.1525">
        <ele>538</ele>
        <time>2023-07-14T16:14:04.000+02:00</time>
      </trkpt>
      <trkpt lat="43.30344" lon="-3.15423">
        <ele>529.3</ele>
        <time>2023-07-14T16:14:27.000+02:00</time>
      </trkpt>
      <trkpt lat="43.30226" lon="-3.15372">
        <ele>509.1</ele>
        <time>2023-07-14T16:14:46.000+02:00</time>
      </trkpt>
      <trkpt lat="43.30115" lon="-3.15471">
        <ele>506.9</ele>
        <time>2023-07-14T16:15:06.000+02:00</time>
      </trkpt>
      <trkpt lat="43.30092" lon="-3.15601">
        <ele>508.9</ele>
        <time>2023-07-14T16:15:21.000+02:00</time>
      </trkpt>
      <trkpt lat="43.29977" lon="-3.15583">
        <ele>504.9</ele>
        <time>2023-07-14T16:15:39.000+02:00</time>
      </trkpt>
      <trkpt lat="43.29951" lon="-3.15624">
        <ele>503.3</ele>
        <time>2023-07-14T16:15:45.000+02:00</time>
      </trkpt>
      <trkpt lat="43.3009" lon="-3.1592">
        <ele>492.6</ele>
        <time>2023-07-14T16:16:24.000+02:00</time>
      </trkpt>
      <trkpt lat="43.30063" lon="-3.16083">
        <ele>480.5</ele>
        <time>2023-07-14T16:16:43.000+02:00</time>
      </trkpt>
      <trkpt lat="43.29985" lon="-3.16124">
        <ele>469.4</ele>
        <time>2023-07-14T16:16:55.000+02:00</time>
      </trkpt>
      <trkpt lat="43.2997" lon="-3.16167">
        <ele>467</ele>
        <time>2023-07-14T16:17:01.000+02:00</time>
      </trkpt>
      <trkpt lat="43.30008" lon="-3.16347">
        <ele>451.2</ele>
        <time>2023-07-14T16:17:22.000+02:00</time>
      </trkpt>
      <trkpt lat="43.3007" lon="-3.1643">
        <ele>442.1</ele>
        <time>2023-07-14T16:17:35.000+02:00</time>
      </trkpt>
      <trkpt lat="43.30026" lon="-3.16458">
        <ele>436.9</ele>
        <time>2023-07-14T16:17:42.000+02:00</time>
      </trkpt>
      <trkpt lat="43.29991" lon="-3.16615">
        <ele>421.8</ele>
        <time>2023-07-14T16:18:01.000+02:00</time>
      </trkpt>
      <trkpt lat="43.29915" lon="-3.16703">
        <ele>406.8</ele>
        <time>2023-07-14T16:18:16.000+02:00</time>
      </trkpt>
      <trkpt lat="43.29955" lon="-3.16846">
        <ele>397</ele>
        <time>2023-07-14T16:18:33.000+02:00</time>
      </trkpt>
      <trkpt lat="43.29935" lon="-3.16902">
        <ele>387</ele>
        <time>2023-07-14T16:18:40.000+02:00</time>
      </trkpt>
      <trkpt lat="43.29947" lon="-3.16985">
        <ele>377.8</ele>
        <time>2023-07-14T16:18:49.000+02:00</time>
      </trkpt>
      <trkpt lat="43.2997" lon="-3.17055">
        <ele>371.1</ele>
        <time>2023-07-14T16:18:58.000+02:00</time>
      </trkpt>
      <trkpt lat="43.29999" lon="-3.17061">
        <ele>371.4</ele>
        <time>2023-07-14T16:19:02.000+02:00</time>
      </trkpt>
      <trkpt lat="43.30062" lon="-3.17169">
        <ele>378.9</ele>
        <time>2023-07-14T16:19:17.000+02:00</time>
      </trkpt>
      <trkpt lat="43.30072" lon="-3.17324">
        <ele>387.6</ele>
        <time>2023-07-14T16:19:35.000+02:00</time>
      </trkpt>
      <trkpt lat="43.3002" lon="-3.17378">
        <ele>396.4</ele>
        <time>2023-07-14T16:19:45.000+02:00</time>
      </trkpt>
      <trkpt lat="43.30008" lon="-3.17426">
        <ele>397.8</ele>
        <time>2023-07-14T16:19:50.000+02:00</time>
      </trkpt>
      <trkpt lat="43.2999" lon="-3.17829">
        <ele>409.1</ele>
        <time>2023-07-14T16:20:35.000+02:00</time>
      </trkpt>
      <trkpt lat="43.30015" lon="-3.1792">
        <ele>411.9</ele>
        <time>2023-07-14T16:20:46.000+02:00</time>
      </trkpt>
      <trkpt lat="43.30129" lon="-3.18006">
        <ele>406.1</ele>
        <time>2023-07-14T16:21:06.000+02:00</time>
      </trkpt>
      <trkpt lat="43.29902" lon="-3.18278">
        <ele>401.1</ele>
        <time>2023-07-14T16:21:52.000+02:00</time>
      </trkpt>
      <trkpt lat="43.29869" lon="-3.18428">
        <ele>404.1</ele>
        <time>2023-07-14T16:22:09.000+02:00</time>
      </trkpt>
      <trkpt lat="43.29899" lon="-3.18545">
        <ele>407.8</ele>
        <time>2023-07-14T16:22:23.000+02:00</time>
      </trkpt>
      <trkpt lat="43.29862" lon="-3.18707">
        <ele>416.2</ele>
        <time>2023-07-14T16:22:42.000+02:00</time>
      </trkpt>
      <trkpt lat="43.29919" lon="-3.1884">
        <ele>428.3</ele>
        <time>2023-07-14T16:22:59.000+02:00</time>
      </trkpt>
      <trkpt lat="43.29882" lon="-3.19007">
        <ele>443.2</ele>
        <time>2023-07-14T16:23:19.000+02:00</time>
      </trkpt>
      <trkpt lat="43.29893" lon="-3.19079">
        <ele>449.3</ele>
        <time>2023-07-14T16:23:27.000+02:00</time>
      </trkpt>
      <trkpt lat="43.30015" lon="-3.19373">
        <ele>477.3</ele>
        <time>2023-07-14T16:24:04.000+02:00</time>
      </trkpt>
      <trkpt lat="43.30014" lon="-3.19377">
        <ele>476.5</ele>
        <time>2023-07-14T16:24:05.000+02:00</time>
      </trkpt>
      <trkpt lat="43.29997" lon="-3.19385">
        <ele>475.5</ele>
        <time>2023-07-14T16:24:08.000+02:00</time>
      </trkpt>
      <trkpt lat="43.29968" lon="-3.19381">
        <ele>479.5</ele>
        <time>2023-07-14T16:24:12.000+02:00</time>
      </trkpt>
      <trkpt lat="43.29949" lon="-3.19382">
        <ele>481.3</ele>
        <time>2023-07-14T16:24:15.000+02:00</time>
      </trkpt>
      <trkpt lat="43.29933" lon="-3.19393">
        <ele>481</ele>
        <time>2023-07-14T16:24:18.000+02:00</time>
      </trkpt>
      <trkpt lat="43.29911" lon="-3.19399">
        <ele>482.3</ele>
        <time>2023-07-14T16:24:21.000+02:00</time>
      </trkpt>
      <trkpt lat="43.29888" lon="-3.19395">
        <ele>486</ele>
        <time>2023-07-14T16:24:25.000+02:00</time>
      </trkpt>
      <trkpt lat="43.29851" lon="-3.19398">
        <ele>490.5</ele>
        <time>2023-07-14T16:24:30.000+02:00</time>
      </trkpt>
      <trkpt lat="43.29838" lon="-3.19407">
        <ele>491.8</ele>
        <time>2023-07-14T16:24:32.000+02:00</time>
      </trkpt>
      <trkpt lat="43.29825" lon="-3.19432">
        <ele>492.5</ele>
        <time>2023-07-14T16:24:36.000+02:00</time>
      </trkpt>
      <trkpt lat="43.2981" lon="-3.19516">
        <ele>488.5</ele>
        <time>2023-07-14T16:24:46.000+02:00</time>
      </trkpt>
      <trkpt lat="43.29796" lon="-3.19576">
        <ele>487</ele>
        <time>2023-07-14T16:24:53.000+02:00</time>
      </trkpt>
      <trkpt lat="43.29771" lon="-3.19655">
        <ele>486</ele>
        <time>2023-07-14T16:25:02.000+02:00</time>
      </trkpt>
      <trkpt lat="43.29755" lon="-3.19699">
        <ele>484.8</ele>
        <time>2023-07-14T16:25:08.000+02:00</time>
      </trkpt>
      <trkpt lat="43.29749" lon="-3.19731">
        <ele>480</ele>
        <time>2023-07-14T16:25:11.000+02:00</time>
      </trkpt>
      <trkpt lat="43.29742" lon="-3.19742">
        <ele>479.5</ele>
        <time>2023-07-14T16:25:13.000+02:00</time>
      </trkpt>
      <trkpt lat="43.29734" lon="-3.19749">
        <ele>480</ele>
        <time>2023-07-14T16:25:14.000+02:00</time>
      </trkpt>
      <trkpt lat="43.29721" lon="-3.19756">
        <ele>481.3</ele>
        <time>2023-07-14T16:25:16.000+02:00</time>
      </trkpt>
      <trkpt lat="43.29663" lon="-3.1977">
        <ele>492</ele>
        <time>2023-07-14T16:25:25.000+02:00</time>
      </trkpt>
      <trkpt lat="43.29652" lon="-3.19772">
        <ele>493.3</ele>
        <time>2023-07-14T16:25:27.000+02:00</time>
      </trkpt>
      <trkpt lat="43.29643" lon="-3.19782">
        <ele>491.5</ele>
        <time>2023-07-14T16:25:29.000+02:00</time>
      </trkpt>
      <trkpt lat="43.29619" lon="-3.19815">
        <ele>485.3</ele>
        <time>2023-07-14T16:25:34.000+02:00</time>
      </trkpt>
      <trkpt lat="43.29608" lon="-3.19826">
        <ele>484.5</ele>
        <time>2023-07-14T16:25:36.000+02:00</time>
      </trkpt>
      <trkpt lat="43.29595" lon="-3.19834">
        <ele>486</ele>
        <time>2023-07-14T16:25:38.000+02:00</time>
      </trkpt>
      <trkpt lat="43.29579" lon="-3.1984">
        <ele>488.3</ele>
        <time>2023-07-14T16:25:41.000+02:00</time>
      </trkpt>
      <trkpt lat="43.2955" lon="-3.1984">
        <ele>491.5</ele>
        <time>2023-07-14T16:25:45.000+02:00</time>
      </trkpt>
      <trkpt lat="43.29506" lon="-3.1985">
        <ele>494.3</ele>
        <time>2023-07-14T16:25:52.000+02:00</time>
      </trkpt>
      <trkpt lat="43.29411" lon="-3.19873">
        <ele>496</ele>
        <time>2023-07-14T16:26:07.000+02:00</time>
      </trkpt>
      <trkpt lat="43.29346" lon="-3.19886">
        <ele>499.3</ele>
        <time>2023-07-14T16:26:17.000+02:00</time>
      </trkpt>
      <trkpt lat="43.29292" lon="-3.19893">
        <ele>500.3</ele>
        <time>2023-07-14T16:26:25.000+02:00</time>
      </trkpt>
      <trkpt lat="43.29282" lon="-3.199">
        <ele>500.3</ele>
        <time>2023-07-14T16:26:27.000+02:00</time>
      </trkpt>
      <trkpt lat="43.29277" lon="-3.19904">
        <ele>500.3</ele>
        <time>2023-07-14T16:26:28.000+02:00</time>
      </trkpt>
      <trkpt lat="43.29269" lon="-3.19921">
        <ele>500</ele>
        <time>2023-07-14T16:26:30.000+02:00</time>
      </trkpt>
      <trkpt lat="43.29257" lon="-3.19959">
        <ele>498.3</ele>
        <time>2023-07-14T16:26:35.000+02:00</time>
      </trkpt>
      <trkpt lat="43.29251" lon="-3.19988">
        <ele>497.3</ele>
        <time>2023-07-14T16:26:38.000+02:00</time>
      </trkpt>
      <trkpt lat="43.29248" lon="-3.20003">
        <ele>497</ele>
        <time>2023-07-14T16:26:40.000+02:00</time>
      </trkpt>
      <trkpt lat="43.29243" lon="-3.2002">
        <ele>497.3</ele>
        <time>2023-07-14T16:26:42.000+02:00</time>
      </trkpt>
      <trkpt lat="43.29219" lon="-3.20041">
        <ele>499.5</ele>
        <time>2023-07-14T16:26:46.000+02:00</time>
      </trkpt>
      <trkpt lat="43.29203" lon="-3.20057">
        <ele>502.3</ele>
        <time>2023-07-14T16:26:49.000+02:00</time>
      </trkpt>
      <trkpt lat="43.29199" lon="-3.20067">
        <ele>503.5</ele>
        <time>2023-07-14T16:26:50.000+02:00</time>
      </trkpt>
      <trkpt lat="43.292" lon="-3.20082">
        <ele>504.5</ele>
        <time>2023-07-14T16:26:52.000+02:00</time>
      </trkpt>
      <trkpt lat="43.29195" lon="-3.201">
        <ele>507.8</ele>
        <time>2023-07-14T16:26:54.000+02:00</time>
      </trkpt>
      <trkpt lat="43.29193" lon="-3.20104">
        <ele>508.5</ele>
        <time>2023-07-14T16:26:55.000+02:00</time>
      </trkpt>
      <trkpt lat="43.29187" lon="-3.20114">
        <ele>511.3</ele>
        <time>2023-07-14T16:26:56.000+02:00</time>
      </trkpt>
      <trkpt lat="43.29168" lon="-3.2016">
        <ele>522.3</ele>
        <time>2023-07-14T16:27:02.000+02:00</time>
      </trkpt>
      <trkpt lat="43.29154" lon="-3.20198">
        <ele>531.3</ele>
        <time>2023-07-14T16:27:07.000+02:00</time>
      </trkpt>
      <trkpt lat="43.2913" lon="-3.20264">
        <ele>548.5</ele>
        <time>2023-07-14T16:27:15.000+02:00</time>
      </trkpt>
      <trkpt lat="43.29112" lon="-3.20304">
        <ele>560.3</ele>
        <time>2023-07-14T16:27:20.000+02:00</time>
      </trkpt>
      <trkpt lat="43.29102" lon="-3.20332">
        <ele>568</ele>
        <time>2023-07-14T16:27:24.000+02:00</time>
      </trkpt>
      <trkpt lat="43.29098" lon="-3.20343">
        <ele>570.5</ele>
        <time>2023-07-14T16:27:25.000+02:00</time>
      </trkpt>
      <trkpt lat="43.29094" lon="-3.20366">
        <ele>574.3</ele>
        <time>2023-07-14T16:27:28.000+02:00</time>
      </trkpt>
      <trkpt lat="43.29086" lon="-3.20388">
        <ele>578.8</ele>
        <time>2023-07-14T16:27:30.000+02:00</time>
      </trkpt>
      <trkpt lat="43.2908" lon="-3.20394">
        <ele>580.5</ele>
        <time>2023-07-14T16:27:32.000+02:00</time>
      </trkpt>
      <trkpt lat="43.29066" lon="-3.20418">
        <ele>586</ele>
        <time>2023-07-14T16:27:35.000+02:00</time>
      </trkpt>
      <trkpt lat="43.29057" lon="-3.20437">
        <ele>589.8</ele>
        <time>2023-07-14T16:27:37.000+02:00</time>
      </trkpt>
      <trkpt lat="43.29049" lon="-3.20455">
        <ele>593</ele>
        <time>2023-07-14T16:27:40.000+02:00</time>
      </trkpt>
      <trkpt lat="43.29047" lon="-3.20465">
        <ele>594.8</ele>
        <time>2023-07-14T16:27:41.000+02:00</time>
      </trkpt>
      <trkpt lat="43.29041" lon="-3.20481">
        <ele>597.8</ele>
        <time>2023-07-14T16:27:43.000+02:00</time>
      </trkpt>
      <trkpt lat="43.29036" lon="-3.2049">
        <ele>599.8</ele>
        <time>2023-07-14T16:27:44.000+02:00</time>
      </trkpt>
      <trkpt lat="43.29029" lon="-3.20502">
        <ele>602.3</ele>
        <time>2023-07-14T16:27:46.000+02:00</time>
      </trkpt>
      <trkpt lat="43.2902" lon="-3.20514">
        <ele>603.3</ele>
        <time>2023-07-14T16:27:48.000+02:00</time>
      </trkpt>
      <trkpt lat="43.29011" lon="-3.20521">
        <ele>604.8</ele>
        <time>2023-07-14T16:27:50.000+02:00</time>
      </trkpt>
      <trkpt lat="43.29002" lon="-3.20529">
        <ele>606</ele>
        <time>2023-07-14T16:27:51.000+02:00</time>
      </trkpt>
      <trkpt lat="43.28988" lon="-3.20535">
        <ele>609</ele>
        <time>2023-07-14T16:27:53.000+02:00</time>
      </trkpt>
      <trkpt lat="43.28955" lon="-3.20557">
        <ele>616.8</ele>
        <time>2023-07-14T16:27:59.000+02:00</time>
      </trkpt>
      <trkpt lat="43.28925" lon="-3.20574">
        <ele>625.8</ele>
        <time>2023-07-14T16:28:04.000+02:00</time>
      </trkpt>
      <trkpt lat="43.28892" lon="-3.20593">
        <ele>631.3</ele>
        <time>2023-07-14T16:28:09.000+02:00</time>
      </trkpt>
      <trkpt lat="43.28856" lon="-3.20608">
        <ele>634.8</ele>
        <time>2023-07-14T16:28:15.000+02:00</time>
      </trkpt>
      <trkpt lat="43.28847" lon="-3.2061">
        <ele>635.8</ele>
        <time>2023-07-14T16:28:17.000+02:00</time>
      </trkpt>
      <trkpt lat="43.28836" lon="-3.2061">
        <ele>637.3</ele>
        <time>2023-07-14T16:28:18.000+02:00</time>
      </trkpt>
      <trkpt lat="43.28817" lon="-3.20613">
        <ele>638</ele>
        <time>2023-07-14T16:28:21.000+02:00</time>
      </trkpt>
      <trkpt lat="43.28744" lon="-3.20639">
        <ele>640</ele>
        <time>2023-07-14T16:28:33.000+02:00</time>
      </trkpt>
      <trkpt lat="43.28723" lon="-3.20645">
        <ele>639.3</ele>
        <time>2023-07-14T16:28:36.000+02:00</time>
      </trkpt>
      <trkpt lat="43.28709" lon="-3.20653">
        <ele>639.3</ele>
        <time>2023-07-14T16:28:38.000+02:00</time>
      </trkpt>
      <trkpt lat="43.28691" lon="-3.20662">
        <ele>639.5</ele>
        <time>2023-07-14T16:28:41.000+02:00</time>
      </trkpt>
      <trkpt lat="43.28684" lon="-3.20668">
        <ele>639.5</ele>
        <time>2023-07-14T16:28:43.000+02:00</time>
      </trkpt>
      <trkpt lat="43.28675" lon="-3.20675">
        <ele>638</ele>
        <time>2023-07-14T16:28:44.000+02:00</time>
      </trkpt>
      <trkpt lat="43.28641" lon="-3.20697">
        <ele>635.3</ele>
        <time>2023-07-14T16:28:50.000+02:00</time>
      </trkpt>
      <trkpt lat="43.28621" lon="-3.20713">
        <ele>635.8</ele>
        <time>2023-07-14T16:28:53.000+02:00</time>
      </trkpt>
      <trkpt lat="43.28596" lon="-3.20736">
        <ele>639.5</ele>
        <time>2023-07-14T16:28:58.000+02:00</time>
      </trkpt>
      <trkpt lat="43.28576" lon="-3.20754">
        <ele>644.3</ele>
        <time>2023-07-14T16:29:02.000+02:00</time>
      </trkpt>
      <trkpt lat="43.28574" lon="-3.20756">
        <ele>644.3</ele>
        <time>2023-07-14T16:29:02.000+02:00</time>
      </trkpt>
      <trkpt lat="43.28559" lon="-3.20774">
        <ele>645.5</ele>
        <time>2023-07-14T16:29:05.000+02:00</time>
      </trkpt>
      <trkpt lat="43.28546" lon="-3.20785">
        <ele>648.5</ele>
        <time>2023-07-14T16:29:07.000+02:00</time>
      </trkpt>
      <trkpt lat="43.28509" lon="-3.20814">
        <ele>660.5</ele>
        <time>2023-07-14T16:29:14.000+02:00</time>
      </trkpt>
      <trkpt lat="43.2849" lon="-3.20833">
        <ele>667.5</ele>
        <time>2023-07-14T16:29:17.000+02:00</time>
      </trkpt>
      <trkpt lat="43.28447" lon="-3.20881">
        <ele>678.5</ele>
        <time>2023-07-14T16:29:26.000+02:00</time>
      </trkpt>
      <trkpt lat="43.28428" lon="-3.20895">
        <ele>686</ele>
        <time>2023-07-14T16:29:29.000+02:00</time>
      </trkpt>
      <trkpt lat="43.28421" lon="-3.20901">
        <ele>689</ele>
        <time>2023-07-14T16:29:30.000+02:00</time>
      </trkpt>
      <trkpt lat="43.28409" lon="-3.20917">
        <ele>692.3</ele>
        <time>2023-07-14T16:29:33.000+02:00</time>
      </trkpt>
      <trkpt lat="43.28406" lon="-3.20928">
        <ele>693.3</ele>
        <time>2023-07-14T16:29:34.000+02:00</time>
      </trkpt>
      <trkpt lat="43.28405" lon="-3.20942">
        <ele>694</ele>
        <time>2023-07-14T16:29:36.000+02:00</time>
      </trkpt>
      <trkpt lat="43.28406" lon="-3.20963">
        <ele>694.3</ele>
        <time>2023-07-14T16:29:38.000+02:00</time>
      </trkpt>
      <trkpt lat="43.28404" lon="-3.20983">
        <ele>695.3</ele>
        <time>2023-07-14T16:29:40.000+02:00</time>
      </trkpt>
      <trkpt lat="43.28399" lon="-3.21015">
        <ele>697.3</ele>
        <time>2023-07-14T16:29:44.000+02:00</time>
      </trkpt>
      <trkpt lat="43.2839" lon="-3.21041">
        <ele>699</ele>
        <time>2023-07-14T16:29:47.000+02:00</time>
      </trkpt>
      <trkpt lat="43.28388" lon="-3.21058">
        <ele>699.8</ele>
        <time>2023-07-14T16:29:49.000+02:00</time>
      </trkpt>
      <trkpt lat="43.28387" lon="-3.2107">
        <ele>700</ele>
        <time>2023-07-14T16:29:51.000+02:00</time>
      </trkpt>
      <trkpt lat="43.28387" lon="-3.21101">
        <ele>698.8</ele>
        <time>2023-07-14T16:29:54.000+02:00</time>
      </trkpt>
      <trkpt lat="43.28388" lon="-3.21123">
        <ele>697.3</ele>
        <time>2023-07-14T16:29:56.000+02:00</time>
      </trkpt>
      <trkpt lat="43.2839" lon="-3.21146">
        <ele>695.5</ele>
        <time>2023-07-14T16:29:59.000+02:00</time>
      </trkpt>
      <trkpt lat="43.28394" lon="-3.21176">
        <ele>692.8</ele>
        <time>2023-07-14T16:30:02.000+02:00</time>
      </trkpt>
      <trkpt lat="43.28399" lon="-3.21199">
        <ele>690</ele>
        <time>2023-07-14T16:30:05.000+02:00</time>
      </trkpt>
      <trkpt lat="43.28412" lon="-3.21232">
        <ele>687.3</ele>
        <time>2023-07-14T16:30:09.000+02:00</time>
      </trkpt>
      <trkpt lat="43.28446" lon="-3.21314">
        <ele>676</ele>
        <time>2023-07-14T16:30:20.000+02:00</time>
      </trkpt>
      <trkpt lat="43.28453" lon="-3.21335">
        <ele>674.3</ele>
        <time>2023-07-14T16:30:22.000+02:00</time>
      </trkpt>
      <trkpt lat="43.28474" lon="-3.21378">
        <ele>671.5</ele>
        <time>2023-07-14T16:30:28.000+02:00</time>
      </trkpt>
      <trkpt lat="43.28487" lon="-3.21399">
        <ele>671.5</ele>
        <time>2023-07-14T16:30:31.000+02:00</time>
      </trkpt>
      <trkpt lat="43.28499" lon="-3.21415">
        <ele>672.8</ele>
        <time>2023-07-14T16:30:34.000+02:00</time>
      </trkpt>
      <trkpt lat="43.2852" lon="-3.21438">
        <ele>668</ele>
        <time>2023-07-14T16:30:38.000+02:00</time>
      </trkpt>
      <trkpt lat="43.28528" lon="-3.21448">
        <ele>666.5</ele>
        <time>2023-07-14T16:30:39.000+02:00</time>
      </trkpt>
      <trkpt lat="43.28534" lon="-3.21457">
        <ele>665.8</ele>
        <time>2023-07-14T16:30:41.000+02:00</time>
      </trkpt>
      <trkpt lat="43.28539" lon="-3.21471">
        <ele>665</ele>
        <time>2023-07-14T16:30:43.000+02:00</time>
      </trkpt>
      <trkpt lat="43.28541" lon="-3.21473">
        <ele>665</ele>
        <time>2023-07-14T16:30:43.000+02:00</time>
      </trkpt>
      <trkpt lat="43.28546" lon="-3.21479">
        <ele>665.3</ele>
        <time>2023-07-14T16:30:44.000+02:00</time>
      </trkpt>
      <trkpt lat="43.28554" lon="-3.21484">
        <ele>666</ele>
        <time>2023-07-14T16:30:45.000+02:00</time>
      </trkpt>
      <trkpt lat="43.28569" lon="-3.21492">
        <ele>668</ele>
        <time>2023-07-14T16:30:48.000+02:00</time>
      </trkpt>
      <trkpt lat="43.28584" lon="-3.21498">
        <ele>670.8</ele>
        <time>2023-07-14T16:30:50.000+02:00</time>
      </trkpt>
      <trkpt lat="43.28599" lon="-3.21502">
        <ele>668.5</ele>
        <time>2023-07-14T16:30:52.000+02:00</time>
      </trkpt>
      <trkpt lat="43.28602" lon="-3.21504">
        <ele>667.8</ele>
        <time>2023-07-14T16:30:53.000+02:00</time>
      </trkpt>
      <trkpt lat="43.28599" lon="-3.21502">
        <ele>668.5</ele>
        <time>2023-07-14T16:30:54.000+02:00</time>
      </trkpt>
      <trkpt lat="43.28591" lon="-3.21508">
        <ele>670.8</ele>
        <time>2023-07-14T16:30:55.000+02:00</time>
      </trkpt>
      <trkpt lat="43.2858" lon="-3.21507">
        <ele>671.5</ele>
        <time>2023-07-14T16:30:57.000+02:00</time>
      </trkpt>
      <trkpt lat="43.28536" lon="-3.21493">
        <ele>663.5</ele>
        <time>2023-07-14T16:31:03.000+02:00</time>
      </trkpt>
      <trkpt lat="43.28527" lon="-3.21488">
        <ele>662.5</ele>
        <time>2023-07-14T16:31:05.000+02:00</time>
      </trkpt>
      <trkpt lat="43.2852" lon="-3.21483">
        <ele>662.3</ele>
        <time>2023-07-14T16:31:06.000+02:00</time>
      </trkpt>
      <trkpt lat="43.28501" lon="-3.21462">
        <ele>664.3</ele>
        <time>2023-07-14T16:31:10.000+02:00</time>
      </trkpt>
      <trkpt lat="43.28478" lon="-3.21445">
        <ele>661.3</ele>
        <time>2023-07-14T16:31:14.000+02:00</time>
      </trkpt>
      <trkpt lat="43.28437" lon="-3.21416">
        <ele>656.3</ele>
        <time>2023-07-14T16:31:21.000+02:00</time>
      </trkpt>
      <trkpt lat="43.28394" lon="-3.21389">
        <ele>650.8</ele>
        <time>2023-07-14T16:31:28.000+02:00</time>
      </trkpt>
      <trkpt lat="43.28359" lon="-3.2136">
        <ele>648.5</ele>
        <time>2023-07-14T16:31:34.000+02:00</time>
      </trkpt>
      <trkpt lat="43.28332" lon="-3.21326">
        <ele>650.5</ele>
        <time>2023-07-14T16:31:40.000+02:00</time>
      </trkpt>
      <trkpt lat="43.28317" lon="-3.21315">
        <ele>651.5</ele>
        <time>2023-07-14T16:31:43.000+02:00</time>
      </trkpt>
      <trkpt lat="43.28313" lon="-3.21314">
        <ele>651</ele>
        <time>2023-07-14T16:31:44.000+02:00</time>
      </trkpt>
      <trkpt lat="43.28292" lon="-3.21311">
        <ele>649.8</ele>
        <time>2023-07-14T16:31:47.000+02:00</time>
      </trkpt>
      <trkpt lat="43.28271" lon="-3.2131">
        <ele>647.8</ele>
        <time>2023-07-14T16:31:51.000+02:00</time>
      </trkpt>
      <trkpt lat="43.28252" lon="-3.213">
        <ele>649</ele>
        <time>2023-07-14T16:31:54.000+02:00</time>
      </trkpt>
      <trkpt lat="43.28224" lon="-3.21294">
        <ele>651.3</ele>
        <time>2023-07-14T16:31:58.000+02:00</time>
      </trkpt>
      <trkpt lat="43.28197" lon="-3.21298">
        <ele>650</ele>
        <time>2023-07-14T16:32:02.000+02:00</time>
      </trkpt>
      <trkpt lat="43.28177" lon="-3.21314">
        <ele>643.8</ele>
        <time>2023-07-14T16:32:06.000+02:00</time>
      </trkpt>
      <trkpt lat="43.28157" lon="-3.21329">
        <ele>638.5</ele>
        <time>2023-07-14T16:32:09.000+02:00</time>
      </trkpt>
      <trkpt lat="43.28147" lon="-3.21336">
        <ele>636.8</ele>
        <time>2023-07-14T16:32:11.000+02:00</time>
      </trkpt>
      <trkpt lat="43.28107" lon="-3.21343">
        <ele>638</ele>
        <time>2023-07-14T16:32:17.000+02:00</time>
      </trkpt>
      <trkpt lat="43.28081" lon="-3.21352">
        <ele>637</ele>
        <time>2023-07-14T16:32:21.000+02:00</time>
      </trkpt>
      <trkpt lat="43.28049" lon="-3.21357">
        <ele>633.5</ele>
        <time>2023-07-14T16:32:26.000+02:00</time>
      </trkpt>
      <trkpt lat="43.28031" lon="-3.21364">
        <ele>630</ele>
        <time>2023-07-14T16:32:29.000+02:00</time>
      </trkpt>
      <trkpt lat="43.2801" lon="-3.21348">
        <ele>634</ele>
        <time>2023-07-14T16:32:33.000+02:00</time>
      </trkpt>
      <trkpt lat="43.27978" lon="-3.21333">
        <ele>633.3</ele>
        <time>2023-07-14T16:32:38.000+02:00</time>
      </trkpt>
      <trkpt lat="43.27947" lon="-3.21321">
        <ele>630</ele>
        <time>2023-07-14T16:32:43.000+02:00</time>
      </trkpt>
      <trkpt lat="43.27925" lon="-3.213">
        <ele>631.5</ele>
        <time>2023-07-14T16:32:47.000+02:00</time>
      </trkpt>
      <trkpt lat="43.27903" lon="-3.2127">
        <ele>639.8</ele>
        <time>2023-07-14T16:32:52.000+02:00</time>
      </trkpt>
      <trkpt lat="43.2789" lon="-3.21271">
        <ele>640</ele>
        <time>2023-07-14T16:32:54.000+02:00</time>
      </trkpt>
      <trkpt lat="43.27879" lon="-3.21275">
        <ele>639.5</ele>
        <time>2023-07-14T16:32:55.000+02:00</time>
      </trkpt>
      <trkpt lat="43.27854" lon="-3.213">
        <ele>633.3</ele>
        <time>2023-07-14T16:33:00.000+02:00</time>
      </trkpt>
      <trkpt lat="43.27814" lon="-3.21325">
        <ele>636.5</ele>
        <time>2023-07-14T16:33:07.000+02:00</time>
      </trkpt>
      <trkpt lat="43.27788" lon="-3.21361">
        <ele>640</ele>
        <time>2023-07-14T16:33:12.000+02:00</time>
      </trkpt>
      <trkpt lat="43.27764" lon="-3.21424">
        <ele>639.3</ele>
        <time>2023-07-14T16:33:20.000+02:00</time>
      </trkpt>
      <trkpt lat="43.27736" lon="-3.21491">
        <ele>642.3</ele>
        <time>2023-07-14T16:33:29.000+02:00</time>
      </trkpt>
      <trkpt lat="43.27726" lon="-3.21545">
        <ele>635.5</ele>
        <time>2023-07-14T16:33:35.000+02:00</time>
      </trkpt>
      <trkpt lat="43.27717" lon="-3.21587">
        <ele>629</ele>
        <time>2023-07-14T16:33:40.000+02:00</time>
      </trkpt>
      <trkpt lat="43.2771" lon="-3.21593">
        <ele>627.8</ele>
        <time>2023-07-14T16:33:41.000+02:00</time>
      </trkpt>
      <trkpt lat="43.27704" lon="-3.21598">
        <ele>627</ele>
        <time>2023-07-14T16:33:42.000+02:00</time>
      </trkpt>
      <trkpt lat="43.27689" lon="-3.21595">
        <ele>628.3</ele>
        <time>2023-07-14T16:33:45.000+02:00</time>
      </trkpt>
      <trkpt lat="43.27671" lon="-3.21587">
        <ele>631.8</ele>
        <time>2023-07-14T16:33:48.000+02:00</time>
      </trkpt>
      <trkpt lat="43.27624" lon="-3.21533">
        <ele>630</ele>
        <time>2023-07-14T16:33:57.000+02:00</time>
      </trkpt>
      <trkpt lat="43.27587" lon="-3.21503">
        <ele>625</ele>
        <time>2023-07-14T16:34:03.000+02:00</time>
      </trkpt>
      <trkpt lat="43.27573" lon="-3.21491">
        <ele>627.3</ele>
        <time>2023-07-14T16:34:06.000+02:00</time>
      </trkpt>
      <trkpt lat="43.2755" lon="-3.21461">
        <ele>635</ele>
        <time>2023-07-14T16:34:11.000+02:00</time>
      </trkpt>
      <trkpt lat="43.27544" lon="-3.21456">
        <ele>636.3</ele>
        <time>2023-07-14T16:34:12.000+02:00</time>
      </trkpt>
      <trkpt lat="43.27536" lon="-3.21453">
        <ele>636.3</ele>
        <time>2023-07-14T16:34:13.000+02:00</time>
      </trkpt>
      <trkpt lat="43.27529" lon="-3.21457">
        <ele>635.3</ele>
        <time>2023-07-14T16:34:14.000+02:00</time>
      </trkpt>
      <trkpt lat="43.27518" lon="-3.21477">
        <ele>629.8</ele>
        <time>2023-07-14T16:34:17.000+02:00</time>
      </trkpt>
      <trkpt lat="43.27493" lon="-3.21519">
        <ele>621.5</ele>
        <time>2023-07-14T16:34:23.000+02:00</time>
      </trkpt>
      <trkpt lat="43.27481" lon="-3.21546">
        <ele>618.8</ele>
        <time>2023-07-14T16:34:27.000+02:00</time>
      </trkpt>
      <trkpt lat="43.27471" lon="-3.2157">
        <ele>616.3</ele>
        <time>2023-07-14T16:34:30.000+02:00</time>
      </trkpt>
      <trkpt lat="43.27469" lon="-3.21582">
        <ele>613.8</ele>
        <time>2023-07-14T16:34:31.000+02:00</time>
      </trkpt>
      <trkpt lat="43.2747" lon="-3.21596">
        <ele>610</ele>
        <time>2023-07-14T16:34:33.000+02:00</time>
      </trkpt>
      <trkpt lat="43.27469" lon="-3.21601">
        <ele>609.3</ele>
        <time>2023-07-14T16:34:34.000+02:00</time>
      </trkpt>
      <trkpt lat="43.27444" lon="-3.21651">
        <ele>607</ele>
        <time>2023-07-14T16:34:41.000+02:00</time>
      </trkpt>
      <trkpt lat="43.2744" lon="-3.21656">
        <ele>607.3</ele>
        <time>2023-07-14T16:34:42.000+02:00</time>
      </trkpt>
      <trkpt lat="43.27423" lon="-3.21667">
        <ele>611.3</ele>
        <time>2023-07-14T16:34:45.000+02:00</time>
      </trkpt>
      <trkpt lat="43.27415" lon="-3.21675">
        <ele>612.8</ele>
        <time>2023-07-14T16:34:46.000+02:00</time>
      </trkpt>
      <trkpt lat="43.27411" lon="-3.21681">
        <ele>612.3</ele>
        <time>2023-07-14T16:34:47.000+02:00</time>
      </trkpt>
      <trkpt lat="43.27408" lon="-3.2169">
        <ele>611.3</ele>
        <time>2023-07-14T16:34:48.000+02:00</time>
      </trkpt>
      <trkpt lat="43.27407" lon="-3.21702">
        <ele>609.5</ele>
        <time>2023-07-14T16:34:50.000+02:00</time>
      </trkpt>
      <trkpt lat="43.27408" lon="-3.21717">
        <ele>606.8</ele>
        <time>2023-07-14T16:34:51.000+02:00</time>
      </trkpt>
      <trkpt lat="43.27407" lon="-3.21723">
        <ele>605.8</ele>
        <time>2023-07-14T16:34:52.000+02:00</time>
      </trkpt>
      <trkpt lat="43.27403" lon="-3.21731">
        <ele>605.3</ele>
        <time>2023-07-14T16:34:53.000+02:00</time>
      </trkpt>
      <trkpt lat="43.27387" lon="-3.21753">
        <ele>603.8</ele>
        <time>2023-07-14T16:34:56.000+02:00</time>
      </trkpt>
      <trkpt lat="43.2738" lon="-3.2176">
        <ele>603</ele>
        <time>2023-07-14T16:34:58.000+02:00</time>
      </trkpt>
      <trkpt lat="43.27336" lon="-3.21794">
        <ele>601.3</ele>
        <time>2023-07-14T16:35:06.000+02:00</time>
      </trkpt>
      <trkpt lat="43.27304" lon="-3.21823">
        <ele>595.8</ele>
        <time>2023-07-14T16:35:11.000+02:00</time>
      </trkpt>
      <trkpt lat="43.27268" lon="-3.21862">
        <ele>590</ele>
        <time>2023-07-14T16:35:18.000+02:00</time>
      </trkpt>
      <trkpt lat="43.27251" lon="-3.21886">
        <ele>587.3</ele>
        <time>2023-07-14T16:35:22.000+02:00</time>
      </trkpt>
      <trkpt lat="43.2724" lon="-3.21893">
        <ele>586</ele>
        <time>2023-07-14T16:35:24.000+02:00</time>
      </trkpt>
      <trkpt lat="43.27219" lon="-3.21898">
        <ele>585.5</ele>
        <time>2023-07-14T16:35:27.000+02:00</time>
      </trkpt>
      <trkpt lat="43.27201" lon="-3.21909">
        <ele>585</ele>
        <time>2023-07-14T16:35:30.000+02:00</time>
      </trkpt>
      <trkpt lat="43.27179" lon="-3.21933">
        <ele>583</ele>
        <time>2023-07-14T16:35:34.000+02:00</time>
      </trkpt>
      <trkpt lat="43.2716" lon="-3.2198">
        <ele>577.5</ele>
        <time>2023-07-14T16:35:41.000+02:00</time>
      </trkpt>
      <trkpt lat="43.27142" lon="-3.22016">
        <ele>574</ele>
        <time>2023-07-14T16:35:45.000+02:00</time>
      </trkpt>
      <trkpt lat="43.27135" lon="-3.22026">
        <ele>573.8</ele>
        <time>2023-07-14T16:35:47.000+02:00</time>
      </trkpt>
      <trkpt lat="43.27099" lon="-3.2206">
        <ele>575.8</ele>
        <time>2023-07-14T16:35:54.000+02:00</time>
      </trkpt>
      <trkpt lat="43.27084" lon="-3.22073">
        <ele>578</ele>
        <time>2023-07-14T16:35:56.000+02:00</time>
      </trkpt>
      <trkpt lat="43.27062" lon="-3.22089">
        <ele>577.5</ele>
        <time>2023-07-14T16:36:00.000+02:00</time>
      </trkpt>
      <trkpt lat="43.27043" lon="-3.221">
        <ele>577.8</ele>
        <time>2023-07-14T16:36:03.000+02:00</time>
      </trkpt>
      <trkpt lat="43.27006" lon="-3.22112">
        <ele>577.3</ele>
        <time>2023-07-14T16:36:09.000+02:00</time>
      </trkpt>
      <trkpt lat="43.26971" lon="-3.22133">
        <ele>577</ele>
        <time>2023-07-14T16:36:15.000+02:00</time>
      </trkpt>
      <trkpt lat="43.26908" lon="-3.22156">
        <ele>572.5</ele>
        <time>2023-07-14T16:36:25.000+02:00</time>
      </trkpt>
      <trkpt lat="43.26883" lon="-3.22176">
        <ele>572.8</ele>
        <time>2023-07-14T16:36:29.000+02:00</time>
      </trkpt>
      <trkpt lat="43.26855" lon="-3.22192">
        <ele>572.5</ele>
        <time>2023-07-14T16:36:34.000+02:00</time>
      </trkpt>
      <trkpt lat="43.26818" lon="-3.22192">
        <ele>568.3</ele>
        <time>2023-07-14T16:36:39.000+02:00</time>
      </trkpt>
      <trkpt lat="43.26813" lon="-3.22193">
        <ele>568</ele>
        <time>2023-07-14T16:36:40.000+02:00</time>
      </trkpt>
      <trkpt lat="43.26775" lon="-3.22204">
        <ele>567.5</ele>
        <time>2023-07-14T16:36:46.000+02:00</time>
      </trkpt>
      <trkpt lat="43.26706" lon="-3.22217">
        <ele>567.3</ele>
        <time>2023-07-14T16:36:57.000+02:00</time>
      </trkpt>
      <trkpt lat="43.26681" lon="-3.22212">
        <ele>564.8</ele>
        <time>2023-07-14T16:37:01.000+02:00</time>
      </trkpt>
      <trkpt lat="43.26636" lon="-3.22189">
        <ele>558</ele>
        <time>2023-07-14T16:37:08.000+02:00</time>
      </trkpt>
      <trkpt lat="43.26582" lon="-3.2217">
        <ele>554.3</ele>
        <time>2023-07-14T16:37:17.000+02:00</time>
      </trkpt>
      <trkpt lat="43.26554" lon="-3.22163">
        <ele>550.8</ele>
        <time>2023-07-14T16:37:21.000+02:00</time>
      </trkpt>
      <trkpt lat="43.26531" lon="-3.22175">
        <ele>550.3</ele>
        <time>2023-07-14T16:37:25.000+02:00</time>
      </trkpt>
      <trkpt lat="43.26511" lon="-3.22185">
        <ele>548.8</ele>
        <time>2023-07-14T16:37:28.000+02:00</time>
      </trkpt>
      <trkpt lat="43.2649" lon="-3.22197">
        <ele>546.8</ele>
        <time>2023-07-14T16:37:31.000+02:00</time>
      </trkpt>
      <trkpt lat="43.26453" lon="-3.22236">
        <ele>542.5</ele>
        <time>2023-07-14T16:37:39.000+02:00</time>
      </trkpt>
      <trkpt lat="43.26441" lon="-3.22254">
        <ele>540.5</ele>
        <time>2023-07-14T16:37:41.000+02:00</time>
      </trkpt>
      <trkpt lat="43.26436" lon="-3.22264">
        <ele>539</ele>
        <time>2023-07-14T16:37:43.000+02:00</time>
      </trkpt>
      <trkpt lat="43.26433" lon="-3.22276">
        <ele>537.8</ele>
        <time>2023-07-14T16:37:44.000+02:00</time>
      </trkpt>
      <trkpt lat="43.26431" lon="-3.22291">
        <ele>536.5</ele>
        <time>2023-07-14T16:37:46.000+02:00</time>
      </trkpt>
      <trkpt lat="43.26431" lon="-3.22323">
        <ele>534.3</ele>
        <time>2023-07-14T16:37:49.000+02:00</time>
      </trkpt>
      <trkpt lat="43.26433" lon="-3.22343">
        <ele>533.3</ele>
        <time>2023-07-14T16:37:51.000+02:00</time>
      </trkpt>
      <trkpt lat="43.26434" lon="-3.22366">
        <ele>531.5</ele>
        <time>2023-07-14T16:37:54.000+02:00</time>
      </trkpt>
      <trkpt lat="43.26445" lon="-3.22401">
        <ele>531.3</ele>
        <time>2023-07-14T16:37:58.000+02:00</time>
      </trkpt>
      <trkpt lat="43.26448" lon="-3.22436">
        <ele>529</ele>
        <time>2023-07-14T16:38:02.000+02:00</time>
      </trkpt>
      <trkpt lat="43.26449" lon="-3.22472">
        <ele>525.5</ele>
        <time>2023-07-14T16:38:06.000+02:00</time>
      </trkpt>
      <trkpt lat="43.26452" lon="-3.2251">
        <ele>522.5</ele>
        <time>2023-07-14T16:38:10.000+02:00</time>
      </trkpt>
      <trkpt lat="43.26459" lon="-3.22566">
        <ele>518.3</ele>
        <time>2023-07-14T16:38:17.000+02:00</time>
      </trkpt>
      <trkpt lat="43.26464" lon="-3.2259">
        <ele>516.8</ele>
        <time>2023-07-14T16:38:19.000+02:00</time>
      </trkpt>
      <trkpt lat="43.26476" lon="-3.22621">
        <ele>515.3</ele>
        <time>2023-07-14T16:38:23.000+02:00</time>
      </trkpt>
      <trkpt lat="43.26494" lon="-3.22672">
        <ele>511.5</ele>
        <time>2023-07-14T16:38:30.000+02:00</time>
      </trkpt>
      <trkpt lat="43.26495" lon="-3.22683">
        <ele>510.3</ele>
        <time>2023-07-14T16:38:31.000+02:00</time>
      </trkpt>
      <trkpt lat="43.26494" lon="-3.22697">
        <ele>508.8</ele>
        <time>2023-07-14T16:38:33.000+02:00</time>
      </trkpt>
      <trkpt lat="43.26491" lon="-3.22709">
        <ele>507</ele>
        <time>2023-07-14T16:38:34.000+02:00</time>
      </trkpt>
      <trkpt lat="43.26479" lon="-3.22734">
        <ele>503.5</ele>
        <time>2023-07-14T16:38:37.000+02:00</time>
      </trkpt>
      <trkpt lat="43.26475" lon="-3.22746">
        <ele>501.8</ele>
        <time>2023-07-14T16:38:39.000+02:00</time>
      </trkpt>
      <trkpt lat="43.26473" lon="-3.22773">
        <ele>499.3</ele>
        <time>2023-07-14T16:38:42.000+02:00</time>
      </trkpt>
      <trkpt lat="43.26472" lon="-3.22808">
        <ele>496.3</ele>
        <time>2023-07-14T16:38:46.000+02:00</time>
      </trkpt>
      <trkpt lat="43.26473" lon="-3.22828">
        <ele>494.5</ele>
        <time>2023-07-14T16:38:48.000+02:00</time>
      </trkpt>
      <trkpt lat="43.26467" lon="-3.22836">
        <ele>494.3</ele>
        <time>2023-07-14T16:38:49.000+02:00</time>
      </trkpt>
      <trkpt lat="43.26456" lon="-3.22837">
        <ele>494.8</ele>
        <time>2023-07-14T16:38:51.000+02:00</time>
      </trkpt>
      <trkpt lat="43.26446" lon="-3.22835">
        <ele>495.3</ele>
        <time>2023-07-14T16:38:52.000+02:00</time>
      </trkpt>
      <trkpt lat="43.26437" lon="-3.22831">
        <ele>496</ele>
        <time>2023-07-14T16:38:54.000+02:00</time>
      </trkpt>
      <trkpt lat="43.2642" lon="-3.22822">
        <ele>497</ele>
        <time>2023-07-14T16:38:57.000+02:00</time>
      </trkpt>
      <trkpt lat="43.26416" lon="-3.22818">
        <ele>497</ele>
        <time>2023-07-14T16:38:58.000+02:00</time>
      </trkpt>
      <trkpt lat="43.26404" lon="-3.22801">
        <ele>496.3</ele>
        <time>2023-07-14T16:39:01.000+02:00</time>
      </trkpt>
      <trkpt lat="43.26399" lon="-3.22796">
        <ele>496</ele>
        <time>2023-07-14T16:39:02.000+02:00</time>
      </trkpt>
      <trkpt lat="43.26381" lon="-3.22784">
        <ele>494.8</ele>
        <time>2023-07-14T16:39:05.000+02:00</time>
      </trkpt>
      <trkpt lat="43.26368" lon="-3.22781">
        <ele>493.8</ele>
        <time>2023-07-14T16:39:07.000+02:00</time>
      </trkpt>
      <trkpt lat="43.2636" lon="-3.2278">
        <ele>493.3</ele>
        <time>2023-07-14T16:39:08.000+02:00</time>
      </trkpt>
      <trkpt lat="43.26349" lon="-3.22783">
        <ele>492.3</ele>
        <time>2023-07-14T16:39:10.000+02:00</time>
      </trkpt>
      <trkpt lat="43.26339" lon="-3.22788">
        <ele>491.5</ele>
        <time>2023-07-14T16:39:12.000+02:00</time>
      </trkpt>
      <trkpt lat="43.26337" lon="-3.22789">
        <ele>491.3</ele>
        <time>2023-07-14T16:39:12.000+02:00</time>
      </trkpt>
      <trkpt lat="43.26331" lon="-3.22795">
        <ele>490.8</ele>
        <time>2023-07-14T16:39:13.000+02:00</time>
      </trkpt>
      <trkpt lat="43.26322" lon="-3.22812">
        <ele>489.5</ele>
        <time>2023-07-14T16:39:15.000+02:00</time>
      </trkpt>
      <trkpt lat="43.26315" lon="-3.22822">
        <ele>488.8</ele>
        <time>2023-07-14T16:39:17.000+02:00</time>
      </trkpt>
      <trkpt lat="43.26275" lon="-3.2286">
        <ele>484</ele>
        <time>2023-07-14T16:39:24.000+02:00</time>
      </trkpt>
      <trkpt lat="43.26264" lon="-3.22868">
        <ele>482.8</ele>
        <time>2023-07-14T16:39:26.000+02:00</time>
      </trkpt>
      <trkpt lat="43.26248" lon="-3.22875">
        <ele>481.3</ele>
        <time>2023-07-14T16:39:29.000+02:00</time>
      </trkpt>
      <trkpt lat="43.26232" lon="-3.22879">
        <ele>479.3</ele>
        <time>2023-07-14T16:39:31.000+02:00</time>
      </trkpt>
      <trkpt lat="43.2623" lon="-3.22879">
        <ele>479.3</ele>
        <time>2023-07-14T16:39:32.000+02:00</time>
      </trkpt>
      <trkpt lat="43.26207" lon="-3.22887">
        <ele>476.8</ele>
        <time>2023-07-14T16:39:35.000+02:00</time>
      </trkpt>
      <trkpt lat="43.26191" lon="-3.22896">
        <ele>475.3</ele>
        <time>2023-07-14T16:39:38.000+02:00</time>
      </trkpt>
      <trkpt lat="43.26177" lon="-3.22909">
        <ele>474.3</ele>
        <time>2023-07-14T16:39:40.000+02:00</time>
      </trkpt>
      <trkpt lat="43.26157" lon="-3.22931">
        <ele>472.8</ele>
        <time>2023-07-14T16:39:44.000+02:00</time>
      </trkpt>
      <trkpt lat="43.26115" lon="-3.22995">
        <ele>465.8</ele>
        <time>2023-07-14T16:39:54.000+02:00</time>
      </trkpt>
      <trkpt lat="43.26102" lon="-3.23018">
        <ele>462</ele>
        <time>2023-07-14T16:39:57.000+02:00</time>
      </trkpt>
      <trkpt lat="43.26095" lon="-3.23024">
        <ele>460.5</ele>
        <time>2023-07-14T16:39:58.000+02:00</time>
      </trkpt>
      <trkpt lat="43.26092" lon="-3.23025">
        <ele>460.3</ele>
        <time>2023-07-14T16:39:59.000+02:00</time>
      </trkpt>
      <trkpt lat="43.26084" lon="-3.23029">
        <ele>458.8</ele>
        <time>2023-07-14T16:40:00.000+02:00</time>
      </trkpt>
      <trkpt lat="43.2607" lon="-3.23029">
        <ele>456.8</ele>
        <time>2023-07-14T16:40:02.000+02:00</time>
      </trkpt>
      <trkpt lat="43.26053" lon="-3.23023">
        <ele>455.3</ele>
        <time>2023-07-14T16:40:05.000+02:00</time>
      </trkpt>
      <trkpt lat="43.26043" lon="-3.23017">
        <ele>454.8</ele>
        <time>2023-07-14T16:40:07.000+02:00</time>
      </trkpt>
      <trkpt lat="43.2603" lon="-3.23008">
        <ele>454</ele>
        <time>2023-07-14T16:40:09.000+02:00</time>
      </trkpt>
      <trkpt lat="43.26004" lon="-3.22985">
        <ele>453</ele>
        <time>2023-07-14T16:40:14.000+02:00</time>
      </trkpt>
      <trkpt lat="43.25983" lon="-3.22963">
        <ele>454.5</ele>
        <time>2023-07-14T16:40:18.000+02:00</time>
      </trkpt>
      <trkpt lat="43.25945" lon="-3.2294">
        <ele>455.3</ele>
        <time>2023-07-14T16:40:24.000+02:00</time>
      </trkpt>
      <trkpt lat="43.25932" lon="-3.22928">
        <ele>455.8</ele>
        <time>2023-07-14T16:40:26.000+02:00</time>
      </trkpt>
      <trkpt lat="43.25902" lon="-3.22881">
        <ele>454.3</ele>
        <time>2023-07-14T16:40:33.000+02:00</time>
      </trkpt>
      <trkpt lat="43.25886" lon="-3.22862">
        <ele>453.3</ele>
        <time>2023-07-14T16:40:37.000+02:00</time>
      </trkpt>
      <trkpt lat="43.25836" lon="-3.22817">
        <ele>448.5</ele>
        <time>2023-07-14T16:40:46.000+02:00</time>
      </trkpt>
      <trkpt lat="43.25821" lon="-3.22808">
        <ele>446.8</ele>
        <time>2023-07-14T16:40:48.000+02:00</time>
      </trkpt>
      <trkpt lat="43.25807" lon="-3.22802">
        <ele>445.3</ele>
        <time>2023-07-14T16:40:50.000+02:00</time>
      </trkpt>
      <trkpt lat="43.25794" lon="-3.22801">
        <ele>444.5</ele>
        <time>2023-07-14T16:40:53.000+02:00</time>
      </trkpt>
      <trkpt lat="43.2578" lon="-3.22802">
        <ele>444</ele>
        <time>2023-07-14T16:40:55.000+02:00</time>
      </trkpt>
      <trkpt lat="43.25769" lon="-3.22806">
        <ele>444</ele>
        <time>2023-07-14T16:40:56.000+02:00</time>
      </trkpt>
      <trkpt lat="43.25733" lon="-3.22822">
        <ele>443</ele>
        <time>2023-07-14T16:41:02.000+02:00</time>
      </trkpt>
      <trkpt lat="43.25709" lon="-3.22835">
        <ele>441</ele>
        <time>2023-07-14T16:41:06.000+02:00</time>
      </trkpt>
      <trkpt lat="43.25688" lon="-3.22842">
        <ele>438.5</ele>
        <time>2023-07-14T16:41:09.000+02:00</time>
      </trkpt>
      <trkpt lat="43.25679" lon="-3.22842">
        <ele>437.3</ele>
        <time>2023-07-14T16:41:11.000+02:00</time>
      </trkpt>
      <trkpt lat="43.25668" lon="-3.2284">
        <ele>435.5</ele>
        <time>2023-07-14T16:41:12.000+02:00</time>
      </trkpt>
      <trkpt lat="43.25653" lon="-3.22833">
        <ele>432.5</ele>
        <time>2023-07-14T16:41:15.000+02:00</time>
      </trkpt>
      <trkpt lat="43.25636" lon="-3.22822">
        <ele>428.8</ele>
        <time>2023-07-14T16:41:18.000+02:00</time>
      </trkpt>
      <trkpt lat="43.25625" lon="-3.22811">
        <ele>426.5</ele>
        <time>2023-07-14T16:41:20.000+02:00</time>
      </trkpt>
      <trkpt lat="43.25614" lon="-3.22793">
        <ele>424.5</ele>
        <time>2023-07-14T16:41:22.000+02:00</time>
      </trkpt>
      <trkpt lat="43.25578" lon="-3.22729">
        <ele>418.8</ele>
        <time>2023-07-14T16:41:31.000+02:00</time>
      </trkpt>
      <trkpt lat="43.25528" lon="-3.2265">
        <ele>408.3</ele>
        <time>2023-07-14T16:41:43.000+02:00</time>
      </trkpt>
      <trkpt lat="43.25505" lon="-3.22603">
        <ele>402.8</ele>
        <time>2023-07-14T16:41:49.000+02:00</time>
      </trkpt>
      <trkpt lat="43.25496" lon="-3.22588">
        <ele>400.5</ele>
        <time>2023-07-14T16:41:52.000+02:00</time>
      </trkpt>
      <trkpt lat="43.25467" lon="-3.22553">
        <ele>395.5</ele>
        <time>2023-07-14T16:41:57.000+02:00</time>
      </trkpt>
      <trkpt lat="43.25458" lon="-3.22541">
        <ele>394.3</ele>
        <time>2023-07-14T16:41:59.000+02:00</time>
      </trkpt>
      <trkpt lat="43.25438" lon="-3.22507">
        <ele>392.3</ele>
        <time>2023-07-14T16:42:04.000+02:00</time>
      </trkpt>
      <trkpt lat="43.25437" lon="-3.22493">
        <ele>391.5</ele>
        <time>2023-07-14T16:42:06.000+02:00</time>
      </trkpt>
      <trkpt lat="43.25435" lon="-3.22481">
        <ele>390.5</ele>
        <time>2023-07-14T16:42:07.000+02:00</time>
      </trkpt>
      <trkpt lat="43.25431" lon="-3.22467">
        <ele>389.3</ele>
        <time>2023-07-14T16:42:09.000+02:00</time>
      </trkpt>
      <trkpt lat="43.25429" lon="-3.22463">
        <ele>389</ele>
        <time>2023-07-14T16:42:09.000+02:00</time>
      </trkpt>
      <trkpt lat="43.25421" lon="-3.22451">
        <ele>388</ele>
        <time>2023-07-14T16:42:11.000+02:00</time>
      </trkpt>
      <trkpt lat="43.25408" lon="-3.22436">
        <ele>386</ele>
        <time>2023-07-14T16:42:14.000+02:00</time>
      </trkpt>
      <trkpt lat="43.25392" lon="-3.22424">
        <ele>383.8</ele>
        <time>2023-07-14T16:42:17.000+02:00</time>
      </trkpt>
      <trkpt lat="43.25381" lon="-3.22419">
        <ele>382.5</ele>
        <time>2023-07-14T16:42:18.000+02:00</time>
      </trkpt>
      <trkpt lat="43.25354" lon="-3.22409">
        <ele>379.5</ele>
        <time>2023-07-14T16:42:23.000+02:00</time>
      </trkpt>
      <trkpt lat="43.25347" lon="-3.22404">
        <ele>378.8</ele>
        <time>2023-07-14T16:42:24.000+02:00</time>
      </trkpt>
      <trkpt lat="43.25339" lon="-3.22395">
        <ele>377.8</ele>
        <time>2023-07-14T16:42:25.000+02:00</time>
      </trkpt>
      <trkpt lat="43.25322" lon="-3.22368">
        <ele>373.8</ele>
        <time>2023-07-14T16:42:29.000+02:00</time>
      </trkpt>
      <trkpt lat="43.25314" lon="-3.22352">
        <ele>372.3</ele>
        <time>2023-07-14T16:42:31.000+02:00</time>
      </trkpt>
      <trkpt lat="43.25311" lon="-3.22341">
        <ele>371.8</ele>
        <time>2023-07-14T16:42:33.000+02:00</time>
      </trkpt>
      <trkpt lat="43.25311" lon="-3.22329">
        <ele>371.5</ele>
        <time>2023-07-14T16:42:34.000+02:00</time>
      </trkpt>
      <trkpt lat="43.2532" lon="-3.22287">
        <ele>371.3</ele>
        <time>2023-07-14T16:42:39.000+02:00</time>
      </trkpt>
      <trkpt lat="43.2532" lon="-3.22274">
        <ele>371</ele>
        <time>2023-07-14T16:42:40.000+02:00</time>
      </trkpt>
      <trkpt lat="43.25318" lon="-3.22262">
        <ele>370.3</ele>
        <time>2023-07-14T16:42:42.000+02:00</time>
      </trkpt>
      <trkpt lat="43.25311" lon="-3.22247">
        <ele>369.3</ele>
        <time>2023-07-14T16:42:44.000+02:00</time>
      </trkpt>
      <trkpt lat="43.25301" lon="-3.22232">
        <ele>367.8</ele>
        <time>2023-07-14T16:42:46.000+02:00</time>
      </trkpt>
      <trkpt lat="43.2529" lon="-3.22219">
        <ele>366.5</ele>
        <time>2023-07-14T16:42:48.000+02:00</time>
      </trkpt>
      <trkpt lat="43.25279" lon="-3.2221">
        <ele>365.8</ele>
        <time>2023-07-14T16:42:50.000+02:00</time>
      </trkpt>
      <trkpt lat="43.25262" lon="-3.222">
        <ele>365</ele>
        <time>2023-07-14T16:42:53.000+02:00</time>
      </trkpt>
      <trkpt lat="43.25253" lon="-3.22193">
        <ele>364.5</ele>
        <time>2023-07-14T16:42:55.000+02:00</time>
      </trkpt>
      <trkpt lat="43.25248" lon="-3.22186">
        <ele>364</ele>
        <time>2023-07-14T16:42:56.000+02:00</time>
      </trkpt>
      <trkpt lat="43.25241" lon="-3.22169">
        <ele>362.5</ele>
        <time>2023-07-14T16:42:58.000+02:00</time>
      </trkpt>
      <trkpt lat="43.25239" lon="-3.22157">
        <ele>361.3</ele>
        <time>2023-07-14T16:42:59.000+02:00</time>
      </trkpt>
      <trkpt lat="43.25238" lon="-3.22146">
        <ele>360.3</ele>
        <time>2023-07-14T16:43:00.000+02:00</time>
      </trkpt>
      <trkpt lat="43.25238" lon="-3.22133">
        <ele>359.3</ele>
        <time>2023-07-14T16:43:02.000+02:00</time>
      </trkpt>
      <trkpt lat="43.25238" lon="-3.22114">
        <ele>357.8</ele>
        <time>2023-07-14T16:43:04.000+02:00</time>
      </trkpt>
      <trkpt lat="43.25237" lon="-3.22104">
        <ele>357</ele>
        <time>2023-07-14T16:43:05.000+02:00</time>
      </trkpt>
      <trkpt lat="43.25233" lon="-3.22096">
        <ele>356</ele>
        <time>2023-07-14T16:43:06.000+02:00</time>
      </trkpt>
      <trkpt lat="43.25227" lon="-3.2209">
        <ele>354.8</ele>
        <time>2023-07-14T16:43:07.000+02:00</time>
      </trkpt>
      <trkpt lat="43.25221" lon="-3.22087">
        <ele>354</ele>
        <time>2023-07-14T16:43:08.000+02:00</time>
      </trkpt>
      <trkpt lat="43.25213" lon="-3.22088">
        <ele>353</ele>
        <time>2023-07-14T16:43:10.000+02:00</time>
      </trkpt>
      <trkpt lat="43.25205" lon="-3.22091">
        <ele>352.5</ele>
        <time>2023-07-14T16:43:11.000+02:00</time>
      </trkpt>
      <trkpt lat="43.25198" lon="-3.22098">
        <ele>352</ele>
        <time>2023-07-14T16:43:12.000+02:00</time>
      </trkpt>
      <trkpt lat="43.25192" lon="-3.22106">
        <ele>351.5</ele>
        <time>2023-07-14T16:43:13.000+02:00</time>
      </trkpt>
      <trkpt lat="43.25188" lon="-3.22114">
        <ele>351.3</ele>
        <time>2023-07-14T16:43:15.000+02:00</time>
      </trkpt>
      <trkpt lat="43.25184" lon="-3.22123">
        <ele>351.3</ele>
        <time>2023-07-14T16:43:16.000+02:00</time>
      </trkpt>
      <trkpt lat="43.2518" lon="-3.22152">
        <ele>351.5</ele>
        <time>2023-07-14T16:43:19.000+02:00</time>
      </trkpt>
      <trkpt lat="43.25178" lon="-3.2216">
        <ele>351.5</ele>
        <time>2023-07-14T16:43:20.000+02:00</time>
      </trkpt>
      <trkpt lat="43.25175" lon="-3.22165">
        <ele>351.3</ele>
        <time>2023-07-14T16:43:21.000+02:00</time>
      </trkpt>
      <trkpt lat="43.2517" lon="-3.22169">
        <ele>350.5</ele>
        <time>2023-07-14T16:43:22.000+02:00</time>
      </trkpt>
      <trkpt lat="43.25164" lon="-3.22172">
        <ele>349.8</ele>
        <time>2023-07-14T16:43:23.000+02:00</time>
      </trkpt>
      <trkpt lat="43.25154" lon="-3.22173">
        <ele>348.8</ele>
        <time>2023-07-14T16:43:25.000+02:00</time>
      </trkpt>
      <trkpt lat="43.25133" lon="-3.22173">
        <ele>346.8</ele>
        <time>2023-07-14T16:43:28.000+02:00</time>
      </trkpt>
      <trkpt lat="43.25121" lon="-3.22173">
        <ele>345.8</ele>
        <time>2023-07-14T16:43:30.000+02:00</time>
      </trkpt>
      <trkpt lat="43.25116" lon="-3.22173">
        <ele>345.5</ele>
        <time>2023-07-14T16:43:31.000+02:00</time>
      </trkpt>
      <trkpt lat="43.2511" lon="-3.22172">
        <ele>345</ele>
        <time>2023-07-14T16:43:32.000+02:00</time>
      </trkpt>
      <trkpt lat="43.251" lon="-3.22166">
        <ele>344.3</ele>
        <time>2023-07-14T16:43:33.000+02:00</time>
      </trkpt>
      <trkpt lat="43.25095" lon="-3.22163">
        <ele>343.8</ele>
        <time>2023-07-14T16:43:34.000+02:00</time>
      </trkpt>
      <trkpt lat="43.2509" lon="-3.22159">
        <ele>343.3</ele>
        <time>2023-07-14T16:43:35.000+02:00</time>
      </trkpt>
      <trkpt lat="43.25087" lon="-3.22154">
        <ele>343</ele>
        <time>2023-07-14T16:43:36.000+02:00</time>
      </trkpt>
      <trkpt lat="43.25085" lon="-3.22147">
        <ele>342.8</ele>
        <time>2023-07-14T16:43:37.000+02:00</time>
      </trkpt>
      <trkpt lat="43.25083" lon="-3.22139">
        <ele>342.5</ele>
        <time>2023-07-14T16:43:38.000+02:00</time>
      </trkpt>
      <trkpt lat="43.25084" lon="-3.22131">
        <ele>342.5</ele>
        <time>2023-07-14T16:43:39.000+02:00</time>
      </trkpt>
      <trkpt lat="43.25085" lon="-3.22126">
        <ele>342.5</ele>
        <time>2023-07-14T16:43:40.000+02:00</time>
      </trkpt>
      <trkpt lat="43.25089" lon="-3.22117">
        <ele>342.8</ele>
        <time>2023-07-14T16:43:41.000+02:00</time>
      </trkpt>
      <trkpt lat="43.25094" lon="-3.22111">
        <ele>343</ele>
        <time>2023-07-14T16:43:42.000+02:00</time>
      </trkpt>
      <trkpt lat="43.2511" lon="-3.22099">
        <ele>344</ele>
        <time>2023-07-14T16:43:45.000+02:00</time>
      </trkpt>
      <trkpt lat="43.25115" lon="-3.22092">
        <ele>344.3</ele>
        <time>2023-07-14T16:43:46.000+02:00</time>
      </trkpt>
      <trkpt lat="43.25131" lon="-3.22056">
        <ele>342.8</ele>
        <time>2023-07-14T16:43:51.000+02:00</time>
      </trkpt>
      <trkpt lat="43.25146" lon="-3.22028">
        <ele>341</ele>
        <time>2023-07-14T16:43:55.000+02:00</time>
      </trkpt>
      <trkpt lat="43.25152" lon="-3.22014">
        <ele>340.3</ele>
        <time>2023-07-14T16:43:57.000+02:00</time>
      </trkpt>
      <trkpt lat="43.25154" lon="-3.22005">
        <ele>339.5</ele>
        <time>2023-07-14T16:43:58.000+02:00</time>
      </trkpt>
      <trkpt lat="43.25154" lon="-3.21996">
        <ele>338.8</ele>
        <time>2023-07-14T16:43:59.000+02:00</time>
      </trkpt>
      <trkpt lat="43.25152" lon="-3.21989">
        <ele>338</ele>
        <time>2023-07-14T16:44:00.000+02:00</time>
      </trkpt>
      <trkpt lat="43.25148" lon="-3.21983">
        <ele>337.3</ele>
        <time>2023-07-14T16:44:01.000+02:00</time>
      </trkpt>
      <trkpt lat="43.25144" lon="-3.2198">
        <ele>336.8</ele>
        <time>2023-07-14T16:44:02.000+02:00</time>
      </trkpt>
      <trkpt lat="43.25139" lon="-3.21979">
        <ele>336.3</ele>
        <time>2023-07-14T16:44:03.000+02:00</time>
      </trkpt>
      <trkpt lat="43.25132" lon="-3.2198">
        <ele>336</ele>
        <time>2023-07-14T16:44:04.000+02:00</time>
      </trkpt>
      <trkpt lat="43.25124" lon="-3.21985">
        <ele>335.8</ele>
        <time>2023-07-14T16:44:05.000+02:00</time>
      </trkpt>
      <trkpt lat="43.25113" lon="-3.2199">
        <ele>335.3</ele>
        <time>2023-07-14T16:44:07.000+02:00</time>
      </trkpt>
      <trkpt lat="43.25096" lon="-3.21995">
        <ele>334.5</ele>
        <time>2023-07-14T16:44:10.000+02:00</time>
      </trkpt>
      <trkpt lat="43.25084" lon="-3.21996">
        <ele>333.8</ele>
        <time>2023-07-14T16:44:11.000+02:00</time>
      </trkpt>
      <trkpt lat="43.25076" lon="-3.21996">
        <ele>333.3</ele>
        <time>2023-07-14T16:44:13.000+02:00</time>
      </trkpt>
      <trkpt lat="43.25068" lon="-3.21991">
        <ele>332.5</ele>
        <time>2023-07-14T16:44:14.000+02:00</time>
      </trkpt>
      <trkpt lat="43.25057" lon="-3.21981">
        <ele>331.3</ele>
        <time>2023-07-14T16:44:16.000+02:00</time>
      </trkpt>
      <trkpt lat="43.2504" lon="-3.21959">
        <ele>329.5</ele>
        <time>2023-07-14T16:44:20.000+02:00</time>
      </trkpt>
      <trkpt lat="43.25023" lon="-3.21945">
        <ele>328.5</ele>
        <time>2023-07-14T16:44:23.000+02:00</time>
      </trkpt>
      <trkpt lat="43.25013" lon="-3.21939">
        <ele>327.8</ele>
        <time>2023-07-14T16:44:24.000+02:00</time>
      </trkpt>
      <trkpt lat="43.25003" lon="-3.21938">
        <ele>327.5</ele>
        <time>2023-07-14T16:44:26.000+02:00</time>
      </trkpt>
      <trkpt lat="43.24994" lon="-3.21939">
        <ele>326.5</ele>
        <time>2023-07-14T16:44:27.000+02:00</time>
      </trkpt>
      <trkpt lat="43.24986" lon="-3.21943">
        <ele>325.3</ele>
        <time>2023-07-14T16:44:28.000+02:00</time>
      </trkpt>
      <trkpt lat="43.24977" lon="-3.2195">
        <ele>324</ele>
        <time>2023-07-14T16:44:30.000+02:00</time>
      </trkpt>
      <trkpt lat="43.24969" lon="-3.21959">
        <ele>322.5</ele>
        <time>2023-07-14T16:44:32.000+02:00</time>
      </trkpt>
      <trkpt lat="43.24955" lon="-3.21976">
        <ele>320.5</ele>
        <time>2023-07-14T16:44:34.000+02:00</time>
      </trkpt>
      <trkpt lat="43.24946" lon="-3.21991">
        <ele>319</ele>
        <time>2023-07-14T16:44:37.000+02:00</time>
      </trkpt>
      <trkpt lat="43.24933" lon="-3.22023">
        <ele>318</ele>
        <time>2023-07-14T16:44:41.000+02:00</time>
      </trkpt>
      <trkpt lat="43.24927" lon="-3.22033">
        <ele>317.5</ele>
        <time>2023-07-14T16:44:42.000+02:00</time>
      </trkpt>
      <trkpt lat="43.24919" lon="-3.22043">
        <ele>316.8</ele>
        <time>2023-07-14T16:44:44.000+02:00</time>
      </trkpt>
      <trkpt lat="43.24909" lon="-3.22054">
        <ele>315.8</ele>
        <time>2023-07-14T16:44:46.000+02:00</time>
      </trkpt>
      <trkpt lat="43.24895" lon="-3.22065">
        <ele>314</ele>
        <time>2023-07-14T16:44:48.000+02:00</time>
      </trkpt>
      <trkpt lat="43.24877" lon="-3.22077">
        <ele>311.8</ele>
        <time>2023-07-14T16:44:51.000+02:00</time>
      </trkpt>
      <trkpt lat="43.24807" lon="-3.2213">
        <ele>303.8</ele>
        <time>2023-07-14T16:45:03.000+02:00</time>
      </trkpt>
      <trkpt lat="43.24783" lon="-3.22147">
        <ele>301</ele>
        <time>2023-07-14T16:45:08.000+02:00</time>
      </trkpt>
      <trkpt lat="43.24767" lon="-3.22161">
        <ele>299.3</ele>
        <time>2023-07-14T16:45:11.000+02:00</time>
      </trkpt>
      <trkpt lat="43.2476" lon="-3.22171">
        <ele>298.5</ele>
        <time>2023-07-14T16:45:12.000+02:00</time>
      </trkpt>
      <trkpt lat="43.24755" lon="-3.22181">
        <ele>297.8</ele>
        <time>2023-07-14T16:45:13.000+02:00</time>
      </trkpt>
      <trkpt lat="43.24751" lon="-3.22194">
        <ele>297</ele>
        <time>2023-07-14T16:45:15.000+02:00</time>
      </trkpt>
      <trkpt lat="43.24728" lon="-3.22295">
        <ele>291.3</ele>
        <time>2023-07-14T16:45:27.000+02:00</time>
      </trkpt>
      <trkpt lat="43.24718" lon="-3.22322">
        <ele>288.8</ele>
        <time>2023-07-14T16:45:30.000+02:00</time>
      </trkpt>
      <trkpt lat="43.24711" lon="-3.2233">
        <ele>287.5</ele>
        <time>2023-07-14T16:45:31.000+02:00</time>
      </trkpt>
      <trkpt lat="43.24702" lon="-3.22337">
        <ele>285.3</ele>
        <time>2023-07-14T16:45:33.000+02:00</time>
      </trkpt>
      <trkpt lat="43.24696" lon="-3.2234">
        <ele>284</ele>
        <time>2023-07-14T16:45:34.000+02:00</time>
      </trkpt>
      <trkpt lat="43.24678" lon="-3.22339">
        <ele>281</ele>
        <time>2023-07-14T16:45:37.000+02:00</time>
      </trkpt>
      <trkpt lat="43.24621" lon="-3.22318">
        <ele>273.5</ele>
        <time>2023-07-14T16:45:46.000+02:00</time>
      </trkpt>
      <trkpt lat="43.24603" lon="-3.22302">
        <ele>271.5</ele>
        <time>2023-07-14T16:45:49.000+02:00</time>
      </trkpt>
      <trkpt lat="43.24521" lon="-3.22226">
        <ele>264.3</ele>
        <time>2023-07-14T16:46:04.000+02:00</time>
      </trkpt>
      <trkpt lat="43.24516" lon="-3.22219">
        <ele>264</ele>
        <time>2023-07-14T16:46:05.000+02:00</time>
      </trkpt>
      <trkpt lat="43.24505" lon="-3.22206">
        <ele>263</ele>
        <time>2023-07-14T16:46:07.000+02:00</time>
      </trkpt>
      <trkpt lat="43.24488" lon="-3.2218">
        <ele>262.3</ele>
        <time>2023-07-14T16:46:11.000+02:00</time>
      </trkpt>
      <trkpt lat="43.24474" lon="-3.22162">
        <ele>262.3</ele>
        <time>2023-07-14T16:46:14.000+02:00</time>
      </trkpt>
      <trkpt lat="43.24456" lon="-3.22138">
        <ele>261</ele>
        <time>2023-07-14T16:46:18.000+02:00</time>
      </trkpt>
      <trkpt lat="43.24421" lon="-3.22096">
        <ele>260</ele>
        <time>2023-07-14T16:46:25.000+02:00</time>
      </trkpt>
      <trkpt lat="43.24399" lon="-3.22068">
        <ele>257.8</ele>
        <time>2023-07-14T16:46:30.000+02:00</time>
      </trkpt>
      <trkpt lat="43.24393" lon="-3.22058">
        <ele>256.8</ele>
        <time>2023-07-14T16:46:31.000+02:00</time>
      </trkpt>
      <trkpt lat="43.2439" lon="-3.22047">
        <ele>256</ele>
        <time>2023-07-14T16:46:33.000+02:00</time>
      </trkpt>
      <trkpt lat="43.24383" lon="-3.22004">
        <ele>253</ele>
        <time>2023-07-14T16:46:38.000+02:00</time>
      </trkpt>
      <trkpt lat="43.24373" lon="-3.21925">
        <ele>248.5</ele>
        <time>2023-07-14T16:46:46.000+02:00</time>
      </trkpt>
      <trkpt lat="43.24362" lon="-3.21833">
        <ele>242</ele>
        <time>2023-07-14T16:46:57.000+02:00</time>
      </trkpt>
      <trkpt lat="43.24358" lon="-3.21807">
        <ele>240</ele>
        <time>2023-07-14T16:47:00.000+02:00</time>
      </trkpt>
      <trkpt lat="43.24352" lon="-3.21782">
        <ele>238</ele>
        <time>2023-07-14T16:47:03.000+02:00</time>
      </trkpt>
      <trkpt lat="43.24347" lon="-3.21764">
        <ele>236.5</ele>
        <time>2023-07-14T16:47:05.000+02:00</time>
      </trkpt>
      <trkpt lat="43.2434" lon="-3.21748">
        <ele>235.3</ele>
        <time>2023-07-14T16:47:07.000+02:00</time>
      </trkpt>
      <trkpt lat="43.24334" lon="-3.2174">
        <ele>234.8</ele>
        <time>2023-07-14T16:47:08.000+02:00</time>
      </trkpt>
      <trkpt lat="43.24325" lon="-3.21731">
        <ele>233.5</ele>
        <time>2023-07-14T16:47:10.000+02:00</time>
      </trkpt>
      <trkpt lat="43.24306" lon="-3.21725">
        <ele>231.8</ele>
        <time>2023-07-14T16:47:13.000+02:00</time>
      </trkpt>
      <trkpt lat="43.24257" lon="-3.21721">
        <ele>228.3</ele>
        <time>2023-07-14T16:47:20.000+02:00</time>
      </trkpt>
      <trkpt lat="43.24241" lon="-3.21722">
        <ele>226.3</ele>
        <time>2023-07-14T16:47:23.000+02:00</time>
      </trkpt>
      <trkpt lat="43.2423" lon="-3.21725">
        <ele>224.5</ele>
        <time>2023-07-14T16:47:25.000+02:00</time>
      </trkpt>
      <trkpt lat="43.2422" lon="-3.21733">
        <ele>223.5</ele>
        <time>2023-07-14T16:47:26.000+02:00</time>
      </trkpt>
      <trkpt lat="43.24144" lon="-3.21821">
        <ele>216.8</ele>
        <time>2023-07-14T16:47:42.000+02:00</time>
      </trkpt>
      <trkpt lat="43.24129" lon="-3.21836">
        <ele>215</ele>
        <time>2023-07-14T16:47:44.000+02:00</time>
      </trkpt>
      <trkpt lat="43.24113" lon="-3.21848">
        <ele>212.8</ele>
        <time>2023-07-14T16:47:47.000+02:00</time>
      </trkpt>
      <trkpt lat="43.24084" lon="-3.21865">
        <ele>208.8</ele>
        <time>2023-07-14T16:47:52.000+02:00</time>
      </trkpt>
      <trkpt lat="43.24068" lon="-3.21872">
        <ele>210.8</ele>
        <time>2023-07-14T16:47:55.000+02:00</time>
      </trkpt>
      <trkpt lat="43.24059" lon="-3.21873">
        <ele>212</ele>
        <time>2023-07-14T16:47:56.000+02:00</time>
      </trkpt>
      <trkpt lat="43.24049" lon="-3.21872">
        <ele>213</ele>
        <time>2023-07-14T16:47:57.000+02:00</time>
      </trkpt>
      <trkpt lat="43.24044" lon="-3.21869">
        <ele>213.5</ele>
        <time>2023-07-14T16:47:58.000+02:00</time>
      </trkpt>
      <trkpt lat="43.24038" lon="-3.21862">
        <ele>213.8</ele>
        <time>2023-07-14T16:47:59.000+02:00</time>
      </trkpt>
      <trkpt lat="43.24033" lon="-3.21854">
        <ele>214</ele>
        <time>2023-07-14T16:48:01.000+02:00</time>
      </trkpt>
      <trkpt lat="43.24026" lon="-3.21839">
        <ele>213.8</ele>
        <time>2023-07-14T16:48:03.000+02:00</time>
      </trkpt>
      <trkpt lat="43.24016" lon="-3.21806">
        <ele>213</ele>
        <time>2023-07-14T16:48:07.000+02:00</time>
      </trkpt>
      <trkpt lat="43.24011" lon="-3.21795">
        <ele>213</ele>
        <time>2023-07-14T16:48:08.000+02:00</time>
      </trkpt>
      <trkpt lat="43.24007" lon="-3.21789">
        <ele>213.3</ele>
        <time>2023-07-14T16:48:09.000+02:00</time>
      </trkpt>
      <trkpt lat="43.24002" lon="-3.21786">
        <ele>213.5</ele>
        <time>2023-07-14T16:48:10.000+02:00</time>
      </trkpt>
      <trkpt lat="43.23994" lon="-3.21785">
        <ele>214</ele>
        <time>2023-07-14T16:48:11.000+02:00</time>
      </trkpt>
      <trkpt lat="43.23992" lon="-3.21736">
        <ele>211.8</ele>
        <time>2023-07-14T16:48:17.000+02:00</time>
      </trkpt>
      <trkpt lat="43.23992" lon="-3.21711">
        <ele>210.8</ele>
        <time>2023-07-14T16:48:19.000+02:00</time>
      </trkpt>
      <trkpt lat="43.23994" lon="-3.21683">
        <ele>209.8</ele>
        <time>2023-07-14T16:48:22.000+02:00</time>
      </trkpt>
      <trkpt lat="43.23999" lon="-3.21648">
        <ele>209</ele>
        <time>2023-07-14T16:48:26.000+02:00</time>
      </trkpt>
      <trkpt lat="43.24005" lon="-3.21623">
        <ele>208.5</ele>
        <time>2023-07-14T16:48:29.000+02:00</time>
      </trkpt>
      <trkpt lat="43.24011" lon="-3.21606">
        <ele>208.3</ele>
        <time>2023-07-14T16:48:31.000+02:00</time>
      </trkpt>
      <trkpt lat="43.23994" lon="-3.21605">
        <ele>208.8</ele>
        <time>2023-07-14T16:48:34.000+02:00</time>
      </trkpt>
      <trkpt lat="43.23985" lon="-3.21607">
        <ele>208.8</ele>
        <time>2023-07-14T16:48:35.000+02:00</time>
      </trkpt>
      <trkpt lat="43.23978" lon="-3.21611">
        <ele>208.8</ele>
        <time>2023-07-14T16:48:37.000+02:00</time>
      </trkpt>
      <trkpt lat="43.2397" lon="-3.21619">
        <ele>208.8</ele>
        <time>2023-07-14T16:48:38.000+02:00</time>
      </trkpt>
      <trkpt lat="43.2393" lon="-3.21672">
        <ele>211</ele>
        <time>2023-07-14T16:48:47.000+02:00</time>
      </trkpt>
      <trkpt lat="43.23915" lon="-3.2169">
        <ele>212.5</ele>
        <time>2023-07-14T16:48:50.000+02:00</time>
      </trkpt>
      <trkpt lat="43.23901" lon="-3.21705">
        <ele>213</ele>
        <time>2023-07-14T16:48:52.000+02:00</time>
      </trkpt>
      <trkpt lat="43.23886" lon="-3.21718">
        <ele>213.3</ele>
        <time>2023-07-14T16:48:55.000+02:00</time>
      </trkpt>
      <trkpt lat="43.23865" lon="-3.21735">
        <ele>213</ele>
        <time>2023-07-14T16:48:59.000+02:00</time>
      </trkpt>
      <trkpt lat="43.23743" lon="-3.21819">
        <ele>212.8</ele>
        <time>2023-07-14T16:49:20.000+02:00</time>
      </trkpt>
      <trkpt lat="43.23688" lon="-3.21856">
        <ele>218</ele>
        <time>2023-07-14T16:49:29.000+02:00</time>
      </trkpt>
      <trkpt lat="43.23655" lon="-3.21879">
        <ele>219.5</ele>
        <time>2023-07-14T16:49:35.000+02:00</time>
      </trkpt>
      <trkpt lat="43.23644" lon="-3.21886">
        <ele>220</ele>
        <time>2023-07-14T16:49:36.000+02:00</time>
      </trkpt>
      <trkpt lat="43.23636" lon="-3.21892">
        <ele>220</ele>
        <time>2023-07-14T16:49:38.000+02:00</time>
      </trkpt>
      <trkpt lat="43.23635" lon="-3.21904">
        <ele>219.5</ele>
        <time>2023-07-14T16:49:39.000+02:00</time>
      </trkpt>
      <trkpt lat="43.23636" lon="-3.21964">
        <ele>220.5</ele>
        <time>2023-07-14T16:49:46.000+02:00</time>
      </trkpt>
      <trkpt lat="43.23633" lon="-3.21979">
        <ele>221.3</ele>
        <time>2023-07-14T16:49:48.000+02:00</time>
      </trkpt>
      <trkpt lat="43.23626" lon="-3.21999">
        <ele>221.8</ele>
        <time>2023-07-14T16:49:50.000+02:00</time>
      </trkpt>
      <trkpt lat="43.2362" lon="-3.22009">
        <ele>222.5</ele>
        <time>2023-07-14T16:49:51.000+02:00</time>
      </trkpt>
      <trkpt lat="43.23603" lon="-3.22039">
        <ele>223.3</ele>
        <time>2023-07-14T16:49:56.000+02:00</time>
      </trkpt>
      <trkpt lat="43.236" lon="-3.22043">
        <ele>223.3</ele>
        <time>2023-07-14T16:49:56.000+02:00</time>
      </trkpt>
      <trkpt lat="43.23593" lon="-3.22053">
        <ele>223</ele>
        <time>2023-07-14T16:49:58.000+02:00</time>
      </trkpt>
      <trkpt lat="43.23584" lon="-3.2207">
        <ele>222.8</ele>
        <time>2023-07-14T16:50:00.000+02:00</time>
      </trkpt>
      <trkpt lat="43.23578" lon="-3.22086">
        <ele>223.3</ele>
        <time>2023-07-14T16:50:02.000+02:00</time>
      </trkpt>
      <trkpt lat="43.2357" lon="-3.22097">
        <ele>224</ele>
        <time>2023-07-14T16:50:04.000+02:00</time>
      </trkpt>
      <trkpt lat="43.23531" lon="-3.22131">
        <ele>227.5</ele>
        <time>2023-07-14T16:50:11.000+02:00</time>
      </trkpt>
      <trkpt lat="43.2352" lon="-3.22141">
        <ele>228.5</ele>
        <time>2023-07-14T16:50:13.000+02:00</time>
      </trkpt>
      <trkpt lat="43.23451" lon="-3.22192">
        <ele>236.8</ele>
        <time>2023-07-14T16:50:25.000+02:00</time>
      </trkpt>
      <trkpt lat="43.23431" lon="-3.22205">
        <ele>238.8</ele>
        <time>2023-07-14T16:50:28.000+02:00</time>
      </trkpt>
      <trkpt lat="43.23417" lon="-3.22214">
        <ele>240.5</ele>
        <time>2023-07-14T16:50:31.000+02:00</time>
      </trkpt>
      <trkpt lat="43.23405" lon="-3.22221">
        <ele>241</ele>
        <time>2023-07-14T16:50:33.000+02:00</time>
      </trkpt>
      <trkpt lat="43.23399" lon="-3.22223">
        <ele>241.3</ele>
        <time>2023-07-14T16:50:34.000+02:00</time>
      </trkpt>
      <trkpt lat="43.23389" lon="-3.22223">
        <ele>241.8</ele>
        <time>2023-07-14T16:50:35.000+02:00</time>
      </trkpt>
      <trkpt lat="43.23312" lon="-3.2222">
        <ele>244</ele>
        <time>2023-07-14T16:50:47.000+02:00</time>
      </trkpt>
      <trkpt lat="43.23287" lon="-3.22217">
        <ele>243.8</ele>
        <time>2023-07-14T16:50:51.000+02:00</time>
      </trkpt>
      <trkpt lat="43.23259" lon="-3.22208">
        <ele>243</ele>
        <time>2023-07-14T16:50:55.000+02:00</time>
      </trkpt>
      <trkpt lat="43.23219" lon="-3.22201">
        <ele>242.3</ele>
        <time>2023-07-14T16:51:01.000+02:00</time>
      </trkpt>
      <trkpt lat="43.2321" lon="-3.222">
        <ele>242</ele>
        <time>2023-07-14T16:51:03.000+02:00</time>
      </trkpt>
      <trkpt lat="43.23204" lon="-3.222">
        <ele>242</ele>
        <time>2023-07-14T16:51:04.000+02:00</time>
      </trkpt>
      <trkpt lat="43.232" lon="-3.22201">
        <ele>242</ele>
        <time>2023-07-14T16:51:05.000+02:00</time>
      </trkpt>
      <trkpt lat="43.23191" lon="-3.22209">
        <ele>242.3</ele>
        <time>2023-07-14T16:51:07.000+02:00</time>
      </trkpt>
      <trkpt lat="43.23117" lon="-3.22293">
        <ele>244.3</ele>
        <time>2023-07-14T16:51:22.000+02:00</time>
      </trkpt>
      <trkpt lat="43.23097" lon="-3.22323">
        <ele>245.3</ele>
        <time>2023-07-14T16:51:26.000+02:00</time>
      </trkpt>
      <trkpt lat="43.23082" lon="-3.22341">
        <ele>246.5</ele>
        <time>2023-07-14T16:51:29.000+02:00</time>
      </trkpt>
      <trkpt lat="43.23065" lon="-3.22365">
        <ele>248.5</ele>
        <time>2023-07-14T16:51:33.000+02:00</time>
      </trkpt>
      <trkpt lat="43.23033" lon="-3.22405">
        <ele>252.3</ele>
        <time>2023-07-14T16:51:39.000+02:00</time>
      </trkpt>
      <trkpt lat="43.23005" lon="-3.22429">
        <ele>254</ele>
        <time>2023-07-14T16:51:45.000+02:00</time>
      </trkpt>
      <trkpt lat="43.22993" lon="-3.22444">
        <ele>254.3</ele>
        <time>2023-07-14T16:51:47.000+02:00</time>
      </trkpt>
      <trkpt lat="43.22984" lon="-3.22457">
        <ele>254.5</ele>
        <time>2023-07-14T16:51:49.000+02:00</time>
      </trkpt>
      <trkpt lat="43.22912" lon="-3.22537">
        <ele>260.8</ele>
        <time>2023-07-14T16:52:03.000+02:00</time>
      </trkpt>
      <trkpt lat="43.22906" lon="-3.22541">
        <ele>261</ele>
        <time>2023-07-14T16:52:04.000+02:00</time>
      </trkpt>
      <trkpt lat="43.22893" lon="-3.22547">
        <ele>260.8</ele>
        <time>2023-07-14T16:52:06.000+02:00</time>
      </trkpt>
      <trkpt lat="43.2288" lon="-3.22554">
        <ele>261</ele>
        <time>2023-07-14T16:52:08.000+02:00</time>
      </trkpt>
      <trkpt lat="43.22872" lon="-3.22556">
        <ele>260.8</ele>
        <time>2023-07-14T16:52:10.000+02:00</time>
      </trkpt>
      <trkpt lat="43.22852" lon="-3.22555">
        <ele>259.8</ele>
        <time>2023-07-14T16:52:13.000+02:00</time>
      </trkpt>
      <trkpt lat="43.22841" lon="-3.22558">
        <ele>259.8</ele>
        <time>2023-07-14T16:52:14.000+02:00</time>
      </trkpt>
      <trkpt lat="43.22834" lon="-3.22563">
        <ele>260</ele>
        <time>2023-07-14T16:52:16.000+02:00</time>
      </trkpt>
      <trkpt lat="43.22816" lon="-3.22578">
        <ele>261</ele>
        <time>2023-07-14T16:52:19.000+02:00</time>
      </trkpt>
      <trkpt lat="43.22803" lon="-3.2259">
        <ele>262</ele>
        <time>2023-07-14T16:52:21.000+02:00</time>
      </trkpt>
      <trkpt lat="43.22793" lon="-3.22612">
        <ele>264.5</ele>
        <time>2023-07-14T16:52:24.000+02:00</time>
      </trkpt>
      <trkpt lat="43.22784" lon="-3.22627">
        <ele>266</ele>
        <time>2023-07-14T16:52:26.000+02:00</time>
      </trkpt>
      <trkpt lat="43.22771" lon="-3.2264">
        <ele>267</ele>
        <time>2023-07-14T16:52:29.000+02:00</time>
      </trkpt>
      <trkpt lat="43.22763" lon="-3.22655">
        <ele>268.3</ele>
        <time>2023-07-14T16:52:31.000+02:00</time>
      </trkpt>
      <trkpt lat="43.22756" lon="-3.22675">
        <ele>270.3</ele>
        <time>2023-07-14T16:52:33.000+02:00</time>
      </trkpt>
      <trkpt lat="43.22745" lon="-3.22697">
        <ele>272.5</ele>
        <time>2023-07-14T16:52:36.000+02:00</time>
      </trkpt>
      <trkpt lat="43.22743" lon="-3.22716">
        <ele>274.8</ele>
        <time>2023-07-14T16:52:38.000+02:00</time>
      </trkpt>
      <trkpt lat="43.22743" lon="-3.22771">
        <ele>281.3</ele>
        <time>2023-07-14T16:52:44.000+02:00</time>
      </trkpt>
      <trkpt lat="43.22741" lon="-3.22798">
        <ele>284.5</ele>
        <time>2023-07-14T16:52:47.000+02:00</time>
      </trkpt>
      <trkpt lat="43.22741" lon="-3.22811">
        <ele>286</ele>
        <time>2023-07-14T16:52:49.000+02:00</time>
      </trkpt>
      <trkpt lat="43.22728" lon="-3.2283">
        <ele>286.8</ele>
        <time>2023-07-14T16:52:52.000+02:00</time>
      </trkpt>
      <trkpt lat="43.22717" lon="-3.22847">
        <ele>288.5</ele>
        <time>2023-07-14T16:52:54.000+02:00</time>
      </trkpt>
      <trkpt lat="43.22709" lon="-3.22853">
        <ele>288.5</ele>
        <time>2023-07-14T16:52:56.000+02:00</time>
      </trkpt>
      <trkpt lat="43.22674" lon="-3.22871">
        <ele>286.8</ele>
        <time>2023-07-14T16:53:01.000+02:00</time>
      </trkpt>
      <trkpt lat="43.22659" lon="-3.22877">
        <ele>286.8</ele>
        <time>2023-07-14T16:53:04.000+02:00</time>
      </trkpt>
      <trkpt lat="43.22639" lon="-3.2288">
        <ele>287</ele>
        <time>2023-07-14T16:53:07.000+02:00</time>
      </trkpt>
      <trkpt lat="43.22625" lon="-3.2288">
        <ele>287</ele>
        <time>2023-07-14T16:53:09.000+02:00</time>
      </trkpt>
      <trkpt lat="43.22612" lon="-3.22882">
        <ele>287</ele>
        <time>2023-07-14T16:53:11.000+02:00</time>
      </trkpt>
      <trkpt lat="43.22601" lon="-3.22889">
        <ele>286.8</ele>
        <time>2023-07-14T16:53:13.000+02:00</time>
      </trkpt>
      <trkpt lat="43.22576" lon="-3.22925">
        <ele>285.5</ele>
        <time>2023-07-14T16:53:18.000+02:00</time>
      </trkpt>
      <trkpt lat="43.22561" lon="-3.22932">
        <ele>286.3</ele>
        <time>2023-07-14T16:53:21.000+02:00</time>
      </trkpt>
      <trkpt lat="43.2252" lon="-3.22934">
        <ele>284.3</ele>
        <time>2023-07-14T16:53:27.000+02:00</time>
      </trkpt>
      <trkpt lat="43.22502" lon="-3.22945">
        <ele>284.8</ele>
        <time>2023-07-14T16:53:30.000+02:00</time>
      </trkpt>
      <trkpt lat="43.22492" lon="-3.22958">
        <ele>286.3</ele>
        <time>2023-07-14T16:53:32.000+02:00</time>
      </trkpt>
      <trkpt lat="43.22475" lon="-3.22971">
        <ele>287</ele>
        <time>2023-07-14T16:53:35.000+02:00</time>
      </trkpt>
      <trkpt lat="43.22457" lon="-3.22975">
        <ele>286.3</ele>
        <time>2023-07-14T16:53:38.000+02:00</time>
      </trkpt>
      <trkpt lat="43.22434" lon="-3.22971">
        <ele>285</ele>
        <time>2023-07-14T16:53:42.000+02:00</time>
      </trkpt>
      <trkpt lat="43.22406" lon="-3.22978">
        <ele>285.5</ele>
        <time>2023-07-14T16:53:46.000+02:00</time>
      </trkpt>
      <trkpt lat="43.22362" lon="-3.23008">
        <ele>290.3</ele>
        <time>2023-07-14T16:53:53.000+02:00</time>
      </trkpt>
      <trkpt lat="43.22341" lon="-3.23017">
        <ele>293</ele>
        <time>2023-07-14T16:53:57.000+02:00</time>
      </trkpt>
      <trkpt lat="43.22319" lon="-3.23023">
        <ele>296.8</ele>
        <time>2023-07-14T16:54:00.000+02:00</time>
      </trkpt>
      <trkpt lat="43.22296" lon="-3.23042">
        <ele>300.3</ele>
        <time>2023-07-14T16:54:04.000+02:00</time>
      </trkpt>
      <trkpt lat="43.22261" lon="-3.23077">
        <ele>300</ele>
        <time>2023-07-14T16:54:11.000+02:00</time>
      </trkpt>
      <trkpt lat="43.22246" lon="-3.23086">
        <ele>300.5</ele>
        <time>2023-07-14T16:54:13.000+02:00</time>
      </trkpt>
      <trkpt lat="43.22223" lon="-3.2311">
        <ele>310</ele>
        <time>2023-07-14T16:54:18.000+02:00</time>
      </trkpt>
      <trkpt lat="43.22186" lon="-3.23117">
        <ele>316</ele>
        <time>2023-07-14T16:54:23.000+02:00</time>
      </trkpt>
      <trkpt lat="43.22155" lon="-3.2314">
        <ele>318.5</ele>
        <time>2023-07-14T16:54:29.000+02:00</time>
      </trkpt>
      <trkpt lat="43.22131" lon="-3.23148">
        <ele>318.8</ele>
        <time>2023-07-14T16:54:33.000+02:00</time>
      </trkpt>
      <trkpt lat="43.22119" lon="-3.23149">
        <ele>319</ele>
        <time>2023-07-14T16:54:34.000+02:00</time>
      </trkpt>
      <trkpt lat="43.22105" lon="-3.23143">
        <ele>320.5</ele>
        <time>2023-07-14T16:54:37.000+02:00</time>
      </trkpt>
      <trkpt lat="43.22096" lon="-3.23135">
        <ele>322.3</ele>
        <time>2023-07-14T16:54:38.000+02:00</time>
      </trkpt>
      <trkpt lat="43.221" lon="-3.2312">
        <ele>324.3</ele>
        <time>2023-07-14T16:54:40.000+02:00</time>
      </trkpt>
      <trkpt lat="43.22099" lon="-3.23107">
        <ele>326.8</ele>
        <time>2023-07-14T16:54:42.000+02:00</time>
      </trkpt>
      <trkpt lat="43.22086" lon="-3.23107">
        <ele>328</ele>
        <time>2023-07-14T16:54:44.000+02:00</time>
      </trkpt>
      <trkpt lat="43.22066" lon="-3.23109">
        <ele>330.8</ele>
        <time>2023-07-14T16:54:47.000+02:00</time>
      </trkpt>
      <trkpt lat="43.22046" lon="-3.23117">
        <ele>332</ele>
        <time>2023-07-14T16:54:50.000+02:00</time>
      </trkpt>
      <trkpt lat="43.22033" lon="-3.23133">
        <ele>330.8</ele>
        <time>2023-07-14T16:54:53.000+02:00</time>
      </trkpt>
      <trkpt lat="43.2202" lon="-3.23146">
        <ele>329.5</ele>
        <time>2023-07-14T16:54:55.000+02:00</time>
      </trkpt>
      <trkpt lat="43.22001" lon="-3.23141">
        <ele>333</ele>
        <time>2023-07-14T16:54:58.000+02:00</time>
      </trkpt>
      <trkpt lat="43.21973" lon="-3.23142">
        <ele>339</ele>
        <time>2023-07-14T16:55:02.000+02:00</time>
      </trkpt>
      <trkpt lat="43.21921" lon="-3.23145">
        <ele>348.8</ele>
        <time>2023-07-14T16:55:10.000+02:00</time>
      </trkpt>
      <trkpt lat="43.21861" lon="-3.23165">
        <ele>357.5</ele>
        <time>2023-07-14T16:55:19.000+02:00</time>
      </trkpt>
      <trkpt lat="43.21817" lon="-3.23189">
        <ele>363.8</ele>
        <time>2023-07-14T16:55:27.000+02:00</time>
      </trkpt>
      <trkpt lat="43.21808" lon="-3.23193">
        <ele>365.3</ele>
        <time>2023-07-14T16:55:28.000+02:00</time>
      </trkpt>
      <trkpt lat="43.2179" lon="-3.23201">
        <ele>366.8</ele>
        <time>2023-07-14T16:55:31.000+02:00</time>
      </trkpt>
      <trkpt lat="43.21771" lon="-3.23205">
        <ele>369.3</ele>
        <time>2023-07-14T16:55:34.000+02:00</time>
      </trkpt>
      <trkpt lat="43.21748" lon="-3.23206">
        <ele>373.3</ele>
        <time>2023-07-14T16:55:38.000+02:00</time>
      </trkpt>
      <trkpt lat="43.21731" lon="-3.23208">
        <ele>375.3</ele>
        <time>2023-07-14T16:55:40.000+02:00</time>
      </trkpt>
      <trkpt lat="43.21711" lon="-3.23216">
        <ele>375.5</ele>
        <time>2023-07-14T16:55:43.000+02:00</time>
      </trkpt>
      <trkpt lat="43.21687" lon="-3.23231">
        <ele>373.5</ele>
        <time>2023-07-14T16:55:47.000+02:00</time>
      </trkpt>
      <trkpt lat="43.21635" lon="-3.23267">
        <ele>378.8</ele>
        <time>2023-07-14T16:55:56.000+02:00</time>
      </trkpt>
      <trkpt lat="43.21573" lon="-3.2332">
        <ele>382.3</ele>
        <time>2023-07-14T16:56:07.000+02:00</time>
      </trkpt>
      <trkpt lat="43.2152" lon="-3.23342">
        <ele>385.8</ele>
        <time>2023-07-14T16:56:16.000+02:00</time>
      </trkpt>
      <trkpt lat="43.215" lon="-3.23344">
        <ele>388.8</ele>
        <time>2023-07-14T16:56:19.000+02:00</time>
      </trkpt>
      <trkpt lat="43.21483" lon="-3.23342">
        <ele>391.3</ele>
        <time>2023-07-14T16:56:22.000+02:00</time>
      </trkpt>
      <trkpt lat="43.21472" lon="-3.23333">
        <ele>394.3</ele>
        <time>2023-07-14T16:56:23.000+02:00</time>
      </trkpt>
      <trkpt lat="43.21456" lon="-3.23331">
        <ele>397</ele>
        <time>2023-07-14T16:56:26.000+02:00</time>
      </trkpt>
      <trkpt lat="43.21444" lon="-3.23326">
        <ele>399.5</ele>
        <time>2023-07-14T16:56:28.000+02:00</time>
      </trkpt>
      <trkpt lat="43.21428" lon="-3.23287">
        <ele>410.5</ele>
        <time>2023-07-14T16:56:33.000+02:00</time>
      </trkpt>
      <trkpt lat="43.21417" lon="-3.23292">
        <ele>409.8</ele>
        <time>2023-07-14T16:56:35.000+02:00</time>
      </trkpt>
      <trkpt lat="43.21406" lon="-3.23309">
        <ele>409</ele>
        <time>2023-07-14T16:56:37.000+02:00</time>
      </trkpt>
      <trkpt lat="43.2139" lon="-3.23324">
        <ele>409.5</ele>
        <time>2023-07-14T16:56:40.000+02:00</time>
      </trkpt>
      <trkpt lat="43.21362" lon="-3.23345">
        <ele>414</ele>
        <time>2023-07-14T16:56:45.000+02:00</time>
      </trkpt>
      <trkpt lat="43.21361" lon="-3.23358">
        <ele>413.8</ele>
        <time>2023-07-14T16:56:46.000+02:00</time>
      </trkpt>
      <trkpt lat="43.21372" lon="-3.23368">
        <ele>410.3</ele>
        <time>2023-07-14T16:56:48.000+02:00</time>
      </trkpt>
      <trkpt lat="43.2139" lon="-3.23376">
        <ele>405</ele>
        <time>2023-07-14T16:56:51.000+02:00</time>
      </trkpt>
      <trkpt lat="43.21404" lon="-3.23398">
        <ele>399.5</ele>
        <time>2023-07-14T16:56:55.000+02:00</time>
      </trkpt>
      <trkpt lat="43.21408" lon="-3.23416">
        <ele>397.5</ele>
        <time>2023-07-14T16:56:57.000+02:00</time>
      </trkpt>
      <trkpt lat="43.21393" lon="-3.23431">
        <ele>398.8</ele>
        <time>2023-07-14T16:57:00.000+02:00</time>
      </trkpt>
      <trkpt lat="43.21372" lon="-3.2343">
        <ele>404.5</ele>
        <time>2023-07-14T16:57:03.000+02:00</time>
      </trkpt>
      <trkpt lat="43.21347" lon="-3.23426">
        <ele>412.3</ele>
        <time>2023-07-14T16:57:07.000+02:00</time>
      </trkpt>
      <trkpt lat="43.21311" lon="-3.23442">
        <ele>419.3</ele>
        <time>2023-07-14T16:57:12.000+02:00</time>
      </trkpt>
      <trkpt lat="43.21297" lon="-3.23455">
        <ele>421.8</ele>
        <time>2023-07-14T16:57:15.000+02:00</time>
      </trkpt>
      <trkpt lat="43.21283" lon="-3.23468">
        <ele>424.3</ele>
        <time>2023-07-14T16:57:18.000+02:00</time>
      </trkpt>
      <trkpt lat="43.21272" lon="-3.23463">
        <ele>429.3</ele>
        <time>2023-07-14T16:57:19.000+02:00</time>
      </trkpt>
      <trkpt lat="43.21285" lon="-3.23434">
        <ele>429</ele>
        <time>2023-07-14T16:57:23.000+02:00</time>
      </trkpt>
      <trkpt lat="43.21286" lon="-3.23406">
        <ele>431.5</ele>
        <time>2023-07-14T16:57:26.000+02:00</time>
      </trkpt>
      <trkpt lat="43.21267" lon="-3.23388">
        <ele>436.5</ele>
        <time>2023-07-14T16:57:30.000+02:00</time>
      </trkpt>
      <trkpt lat="43.21249" lon="-3.2338">
        <ele>441.3</ele>
        <time>2023-07-14T16:57:33.000+02:00</time>
      </trkpt>
      <trkpt lat="43.21211" lon="-3.23352">
        <ele>453</ele>
        <time>2023-07-14T16:57:39.000+02:00</time>
      </trkpt>
      <trkpt lat="43.2119" lon="-3.23333">
        <ele>458.3</ele>
        <time>2023-07-14T16:57:43.000+02:00</time>
      </trkpt>
      <trkpt lat="43.21175" lon="-3.23322">
        <ele>463.8</ele>
        <time>2023-07-14T16:57:46.000+02:00</time>
      </trkpt>
      <trkpt lat="43.21166" lon="-3.23307">
        <ele>467</ele>
        <time>2023-07-14T16:57:48.000+02:00</time>
      </trkpt>
      <trkpt lat="43.21156" lon="-3.23308">
        <ele>471.8</ele>
        <time>2023-07-14T16:57:49.000+02:00</time>
      </trkpt>
      <trkpt lat="43.21167" lon="-3.23336">
        <ele>466</ele>
        <time>2023-07-14T16:57:53.000+02:00</time>
      </trkpt>
      <trkpt lat="43.21187" lon="-3.23365">
        <ele>463</ele>
        <time>2023-07-14T16:57:57.000+02:00</time>
      </trkpt>
      <trkpt lat="43.21201" lon="-3.23392">
        <ele>460.5</ele>
        <time>2023-07-14T16:58:01.000+02:00</time>
      </trkpt>
      <trkpt lat="43.21208" lon="-3.23414">
        <ele>459.8</ele>
        <time>2023-07-14T16:58:04.000+02:00</time>
      </trkpt>
      <trkpt lat="43.21203" lon="-3.23434">
        <ele>460</ele>
        <time>2023-07-14T16:58:06.000+02:00</time>
      </trkpt>
      <trkpt lat="43.21181" lon="-3.23458">
        <ele>466.8</ele>
        <time>2023-07-14T16:58:10.000+02:00</time>
      </trkpt>
      <trkpt lat="43.21135" lon="-3.23495">
        <ele>482.3</ele>
        <time>2023-07-14T16:58:19.000+02:00</time>
      </trkpt>
      <trkpt lat="43.21108" lon="-3.23499">
        <ele>493.3</ele>
        <time>2023-07-14T16:58:23.000+02:00</time>
      </trkpt>
      <trkpt lat="43.21076" lon="-3.23549">
        <ele>493.3</ele>
        <time>2023-07-14T16:58:30.000+02:00</time>
      </trkpt>
      <trkpt lat="43.21056" lon="-3.23575">
        <ele>495</ele>
        <time>2023-07-14T16:58:34.000+02:00</time>
      </trkpt>
      <trkpt lat="43.21002" lon="-3.23627">
        <ele>501.5</ele>
        <time>2023-07-14T16:58:44.000+02:00</time>
      </trkpt>
      <trkpt lat="43.20973" lon="-3.23638">
        <ele>508</ele>
        <time>2023-07-14T16:58:49.000+02:00</time>
      </trkpt>
      <trkpt lat="43.20936" lon="-3.23646">
        <ele>518</ele>
        <time>2023-07-14T16:58:55.000+02:00</time>
      </trkpt>
      <trkpt lat="43.20903" lon="-3.23663">
        <ele>524.8</ele>
        <time>2023-07-14T16:59:00.000+02:00</time>
      </trkpt>
      <trkpt lat="43.20884" lon="-3.23683">
        <ele>530.8</ele>
        <time>2023-07-14T16:59:04.000+02:00</time>
      </trkpt>
      <trkpt lat="43.20872" lon="-3.23697">
        <ele>535.8</ele>
        <time>2023-07-14T16:59:06.000+02:00</time>
      </trkpt>
      <trkpt lat="43.20874" lon="-3.2373">
        <ele>531.3</ele>
        <time>2023-07-14T16:59:10.000+02:00</time>
      </trkpt>
      <trkpt lat="43.20878" lon="-3.23756">
        <ele>526.3</ele>
        <time>2023-07-14T16:59:13.000+02:00</time>
      </trkpt>
      <trkpt lat="43.20879" lon="-3.23787">
        <ele>524.8</ele>
        <time>2023-07-14T16:59:16.000+02:00</time>
      </trkpt>
      <trkpt lat="43.20864" lon="-3.23828">
        <ele>532.8</ele>
        <time>2023-07-14T16:59:21.000+02:00</time>
      </trkpt>
      <trkpt lat="43.20849" lon="-3.23864">
        <ele>538.5</ele>
        <time>2023-07-14T16:59:26.000+02:00</time>
      </trkpt>
      <trkpt lat="43.2083" lon="-3.23935">
        <ele>542.3</ele>
        <time>2023-07-14T16:59:35.000+02:00</time>
      </trkpt>
      <trkpt lat="43.2082" lon="-3.23993">
        <ele>544.5</ele>
        <time>2023-07-14T16:59:41.000+02:00</time>
      </trkpt>
      <trkpt lat="43.20811" lon="-3.24027">
        <ele>543.8</ele>
        <time>2023-07-14T16:59:45.000+02:00</time>
      </trkpt>
      <trkpt lat="43.20795" lon="-3.24058">
        <ele>546.5</ele>
        <time>2023-07-14T16:59:49.000+02:00</time>
      </trkpt>
      <trkpt lat="43.2077" lon="-3.24097">
        <ele>550.8</ele>
        <time>2023-07-14T16:59:55.000+02:00</time>
      </trkpt>
      <trkpt lat="43.20751" lon="-3.24119">
        <ele>554</ele>
        <time>2023-07-14T16:59:59.000+02:00</time>
      </trkpt>
      <trkpt lat="43.2073" lon="-3.24134">
        <ele>554.5</ele>
        <time>2023-07-14T17:00:03.000+02:00</time>
      </trkpt>
      <trkpt lat="43.20717" lon="-3.2414">
        <ele>556</ele>
        <time>2023-07-14T17:00:05.000+02:00</time>
      </trkpt>
      <trkpt lat="43.2071" lon="-3.24141">
        <ele>557.5</ele>
        <time>2023-07-14T17:00:06.000+02:00</time>
      </trkpt>
      <trkpt lat="43.20701" lon="-3.24137">
        <ele>560</ele>
        <time>2023-07-14T17:00:07.000+02:00</time>
      </trkpt>
      <trkpt lat="43.20694" lon="-3.2413">
        <ele>562</ele>
        <time>2023-07-14T17:00:08.000+02:00</time>
      </trkpt>
      <trkpt lat="43.20671" lon="-3.24085">
        <ele>568.5</ele>
        <time>2023-07-14T17:00:15.000+02:00</time>
      </trkpt>
      <trkpt lat="43.20664" lon="-3.2409">
        <ele>568.8</ele>
        <time>2023-07-14T17:00:16.000+02:00</time>
      </trkpt>
      <trkpt lat="43.20646" lon="-3.24096">
        <ele>570.5</ele>
        <time>2023-07-14T17:00:19.000+02:00</time>
      </trkpt>
      <trkpt lat="43.20633" lon="-3.24097">
        <ele>571.5</ele>
        <time>2023-07-14T17:00:21.000+02:00</time>
      </trkpt>
      <trkpt lat="43.20606" lon="-3.24092">
        <ele>573.8</ele>
        <time>2023-07-14T17:00:25.000+02:00</time>
      </trkpt>
      <trkpt lat="43.20595" lon="-3.24092">
        <ele>574.8</ele>
        <time>2023-07-14T17:00:26.000+02:00</time>
      </trkpt>
      <trkpt lat="43.20585" lon="-3.24093">
        <ele>575.8</ele>
        <time>2023-07-14T17:00:28.000+02:00</time>
      </trkpt>
      <trkpt lat="43.20562" lon="-3.24104">
        <ele>577.3</ele>
        <time>2023-07-14T17:00:32.000+02:00</time>
      </trkpt>
      <trkpt lat="43.20532" lon="-3.24113">
        <ele>578.8</ele>
        <time>2023-07-14T17:00:36.000+02:00</time>
      </trkpt>
      <trkpt lat="43.20518" lon="-3.24121">
        <ele>580</ele>
        <time>2023-07-14T17:00:39.000+02:00</time>
      </trkpt>
      <trkpt lat="43.20507" lon="-3.24131">
        <ele>581.5</ele>
        <time>2023-07-14T17:00:41.000+02:00</time>
      </trkpt>
      <trkpt lat="43.20499" lon="-3.24137">
        <ele>581.8</ele>
        <time>2023-07-14T17:00:42.000+02:00</time>
      </trkpt>
      <trkpt lat="43.20493" lon="-3.24142">
        <ele>582</ele>
        <time>2023-07-14T17:00:43.000+02:00</time>
      </trkpt>
      <trkpt lat="43.20484" lon="-3.24152">
        <ele>581.8</ele>
        <time>2023-07-14T17:00:45.000+02:00</time>
      </trkpt>
      <trkpt lat="43.20481" lon="-3.24159">
        <ele>582.3</ele>
        <time>2023-07-14T17:00:46.000+02:00</time>
      </trkpt>
      <trkpt lat="43.2048" lon="-3.24167">
        <ele>583</ele>
        <time>2023-07-14T17:00:47.000+02:00</time>
      </trkpt>
      <trkpt lat="43.20481" lon="-3.24189">
        <ele>585.5</ele>
        <time>2023-07-14T17:00:49.000+02:00</time>
      </trkpt>
      <trkpt lat="43.20482" lon="-3.24214">
        <ele>588</ele>
        <time>2023-07-14T17:00:52.000+02:00</time>
      </trkpt>
      <trkpt lat="43.20482" lon="-3.24233">
        <ele>589.8</ele>
        <time>2023-07-14T17:00:54.000+02:00</time>
      </trkpt>
      <trkpt lat="43.20483" lon="-3.24263">
        <ele>591.5</ele>
        <time>2023-07-14T17:00:57.000+02:00</time>
      </trkpt>
      <trkpt lat="43.20482" lon="-3.24277">
        <ele>591.8</ele>
        <time>2023-07-14T17:00:59.000+02:00</time>
      </trkpt>
      <trkpt lat="43.20479" lon="-3.24287">
        <ele>591.8</ele>
        <time>2023-07-14T17:01:00.000+02:00</time>
      </trkpt>
      <trkpt lat="43.20476" lon="-3.24296">
        <ele>591.8</ele>
        <time>2023-07-14T17:01:01.000+02:00</time>
      </trkpt>
      <trkpt lat="43.20469" lon="-3.24305">
        <ele>592.3</ele>
        <time>2023-07-14T17:01:03.000+02:00</time>
      </trkpt>
      <trkpt lat="43.20447" lon="-3.24329">
        <ele>594.3</ele>
        <time>2023-07-14T17:01:07.000+02:00</time>
      </trkpt>
      <trkpt lat="43.20431" lon="-3.24348">
        <ele>596.8</ele>
        <time>2023-07-14T17:01:10.000+02:00</time>
      </trkpt>
      <trkpt lat="43.20403" lon="-3.24387">
        <ele>601.3</ele>
        <time>2023-07-14T17:01:16.000+02:00</time>
      </trkpt>
      <trkpt lat="43.20401" lon="-3.24393">
        <ele>601.8</ele>
        <time>2023-07-14T17:01:17.000+02:00</time>
      </trkpt>
      <trkpt lat="43.20399" lon="-3.24402">
        <ele>603</ele>
        <time>2023-07-14T17:01:18.000+02:00</time>
      </trkpt>
      <trkpt lat="43.20399" lon="-3.24425">
        <ele>606</ele>
        <time>2023-07-14T17:01:21.000+02:00</time>
      </trkpt>
      <trkpt lat="43.20397" lon="-3.24436">
        <ele>608</ele>
        <time>2023-07-14T17:01:22.000+02:00</time>
      </trkpt>
      <trkpt lat="43.20394" lon="-3.24447">
        <ele>610.3</ele>
        <time>2023-07-14T17:01:23.000+02:00</time>
      </trkpt>
      <trkpt lat="43.20389" lon="-3.24456">
        <ele>612.3</ele>
        <time>2023-07-14T17:01:25.000+02:00</time>
      </trkpt>
      <trkpt lat="43.20382" lon="-3.24463">
        <ele>614</ele>
        <time>2023-07-14T17:01:26.000+02:00</time>
      </trkpt>
      <trkpt lat="43.20375" lon="-3.24468">
        <ele>615.5</ele>
        <time>2023-07-14T17:01:27.000+02:00</time>
      </trkpt>
      <trkpt lat="43.20367" lon="-3.2447">
        <ele>616.5</ele>
        <time>2023-07-14T17:01:28.000+02:00</time>
      </trkpt>
      <trkpt lat="43.20353" lon="-3.2447">
        <ele>617.5</ele>
        <time>2023-07-14T17:01:30.000+02:00</time>
      </trkpt>
      <trkpt lat="43.20325" lon="-3.24467">
        <ele>617.8</ele>
        <time>2023-07-14T17:01:35.000+02:00</time>
      </trkpt>
      <trkpt lat="43.20314" lon="-3.24467">
        <ele>617.3</ele>
        <time>2023-07-14T17:01:36.000+02:00</time>
      </trkpt>
      <trkpt lat="43.20306" lon="-3.24469">
        <ele>617.5</ele>
        <time>2023-07-14T17:01:38.000+02:00</time>
      </trkpt>
      <trkpt lat="43.20299" lon="-3.24475">
        <ele>618.5</ele>
        <time>2023-07-14T17:01:39.000+02:00</time>
      </trkpt>
      <trkpt lat="43.20293" lon="-3.24481">
        <ele>620</ele>
        <time>2023-07-14T17:01:40.000+02:00</time>
      </trkpt>
      <trkpt lat="43.2029" lon="-3.24486">
        <ele>621</ele>
        <time>2023-07-14T17:01:41.000+02:00</time>
      </trkpt>
      <trkpt lat="43.20287" lon="-3.24494">
        <ele>623</ele>
        <time>2023-07-14T17:01:42.000+02:00</time>
      </trkpt>
      <trkpt lat="43.20273" lon="-3.24509">
        <ele>626.5</ele>
        <time>2023-07-14T17:01:44.000+02:00</time>
      </trkpt>
      <trkpt lat="43.20241" lon="-3.24534">
        <ele>631.3</ele>
        <time>2023-07-14T17:01:50.000+02:00</time>
      </trkpt>
      <trkpt lat="43.20234" lon="-3.24543">
        <ele>632.8</ele>
        <time>2023-07-14T17:01:52.000+02:00</time>
      </trkpt>
      <trkpt lat="43.20233" lon="-3.24548">
        <ele>634</ele>
        <time>2023-07-14T17:01:53.000+02:00</time>
      </trkpt>
      <trkpt lat="43.20231" lon="-3.24558">
        <ele>636.5</ele>
        <time>2023-07-14T17:01:54.000+02:00</time>
      </trkpt>
      <trkpt lat="43.20226" lon="-3.24566">
        <ele>638.3</ele>
        <time>2023-07-14T17:01:55.000+02:00</time>
      </trkpt>
      <trkpt lat="43.2022" lon="-3.24568">
        <ele>638.3</ele>
        <time>2023-07-14T17:01:56.000+02:00</time>
      </trkpt>
      <trkpt lat="43.20215" lon="-3.24568">
        <ele>638</ele>
        <time>2023-07-14T17:01:57.000+02:00</time>
      </trkpt>
      <trkpt lat="43.202" lon="-3.24563">
        <ele>635.8</ele>
        <time>2023-07-14T17:01:59.000+02:00</time>
      </trkpt>
      <trkpt lat="43.20189" lon="-3.24562">
        <ele>634.5</ele>
        <time>2023-07-14T17:02:01.000+02:00</time>
      </trkpt>
      <trkpt lat="43.20178" lon="-3.24562">
        <ele>634</ele>
        <time>2023-07-14T17:02:03.000+02:00</time>
      </trkpt>
      <trkpt lat="43.20173" lon="-3.24564">
        <ele>634</ele>
        <time>2023-07-14T17:02:04.000+02:00</time>
      </trkpt>
      <trkpt lat="43.20163" lon="-3.24569">
        <ele>634.8</ele>
        <time>2023-07-14T17:02:05.000+02:00</time>
      </trkpt>
      <trkpt lat="43.20147" lon="-3.24582">
        <ele>637</ele>
        <time>2023-07-14T17:02:08.000+02:00</time>
      </trkpt>
      <trkpt lat="43.20143" lon="-3.24589">
        <ele>638.8</ele>
        <time>2023-07-14T17:02:09.000+02:00</time>
      </trkpt>
      <trkpt lat="43.20141" lon="-3.24596">
        <ele>641</ele>
        <time>2023-07-14T17:02:10.000+02:00</time>
      </trkpt>
      <trkpt lat="43.20141" lon="-3.24616">
        <ele>647.5</ele>
        <time>2023-07-14T17:02:12.000+02:00</time>
      </trkpt>
      <trkpt lat="43.20139" lon="-3.24624">
        <ele>649.8</ele>
        <time>2023-07-14T17:02:13.000+02:00</time>
      </trkpt>
      <trkpt lat="43.20132" lon="-3.24634">
        <ele>652.3</ele>
        <time>2023-07-14T17:02:15.000+02:00</time>
      </trkpt>
      <trkpt lat="43.20121" lon="-3.24639">
        <ele>653.5</ele>
        <time>2023-07-14T17:02:16.000+02:00</time>
      </trkpt>
      <trkpt lat="43.20107" lon="-3.24645">
        <ele>654.5</ele>
        <time>2023-07-14T17:02:19.000+02:00</time>
      </trkpt>
      <trkpt lat="43.20103" lon="-3.2465">
        <ele>655.8</ele>
        <time>2023-07-14T17:02:19.000+02:00</time>
      </trkpt>
      <trkpt lat="43.20093" lon="-3.24664">
        <ele>660.5</ele>
        <time>2023-07-14T17:02:22.000+02:00</time>
      </trkpt>
      <trkpt lat="43.20087" lon="-3.2467">
        <ele>662.8</ele>
        <time>2023-07-14T17:02:23.000+02:00</time>
      </trkpt>
      <trkpt lat="43.20063" lon="-3.2467">
        <ele>665</ele>
        <time>2023-07-14T17:02:27.000+02:00</time>
      </trkpt>
      <trkpt lat="43.20049" lon="-3.24672">
        <ele>667.3</ele>
        <time>2023-07-14T17:02:29.000+02:00</time>
      </trkpt>
      <trkpt lat="43.20035" lon="-3.24677">
        <ele>671.5</ele>
        <time>2023-07-14T17:02:31.000+02:00</time>
      </trkpt>
      <trkpt lat="43.20026" lon="-3.24678">
        <ele>672.5</ele>
        <time>2023-07-14T17:02:32.000+02:00</time>
      </trkpt>
      <trkpt lat="43.20013" lon="-3.24676">
        <ele>672.8</ele>
        <time>2023-07-14T17:02:34.000+02:00</time>
      </trkpt>
      <trkpt lat="43.19998" lon="-3.24677">
        <ele>675.5</ele>
        <time>2023-07-14T17:02:37.000+02:00</time>
      </trkpt>
      <trkpt lat="43.1999" lon="-3.24676">
        <ele>677.3</ele>
        <time>2023-07-14T17:02:38.000+02:00</time>
      </trkpt>
      <trkpt lat="43.19984" lon="-3.24672">
        <ele>676.8</ele>
        <time>2023-07-14T17:02:39.000+02:00</time>
      </trkpt>
      <trkpt lat="43.19975" lon="-3.24659">
        <ele>672.3</ele>
        <time>2023-07-14T17:02:41.000+02:00</time>
      </trkpt>
      <trkpt lat="43.1997" lon="-3.24654">
        <ele>671</ele>
        <time>2023-07-14T17:02:42.000+02:00</time>
      </trkpt>
      <trkpt lat="43.1995" lon="-3.24646">
        <ele>672</ele>
        <time>2023-07-14T17:02:45.000+02:00</time>
      </trkpt>
      <trkpt lat="43.19917" lon="-3.24629">
        <ele>671.8</ele>
        <time>2023-07-14T17:02:50.000+02:00</time>
      </trkpt>
      <trkpt lat="43.19874" lon="-3.24613">
        <ele>676.8</ele>
        <time>2023-07-14T17:02:57.000+02:00</time>
      </trkpt>
      <trkpt lat="43.19847" lon="-3.24597">
        <ele>677.8</ele>
        <time>2023-07-14T17:03:02.000+02:00</time>
      </trkpt>
      <trkpt lat="43.19837" lon="-3.24586">
        <ele>676</ele>
        <time>2023-07-14T17:03:04.000+02:00</time>
      </trkpt>
      <trkpt lat="43.1981" lon="-3.24548">
        <ele>669.5</ele>
        <time>2023-07-14T17:03:09.000+02:00</time>
      </trkpt>
      <trkpt lat="43.19796" lon="-3.24529">
        <ele>668.5</ele>
        <time>2023-07-14T17:03:12.000+02:00</time>
      </trkpt>
      <trkpt lat="43.19777" lon="-3.24506">
        <ele>669.8</ele>
        <time>2023-07-14T17:03:16.000+02:00</time>
      </trkpt>
      <trkpt lat="43.19767" lon="-3.24491">
        <ele>670</ele>
        <time>2023-07-14T17:03:19.000+02:00</time>
      </trkpt>
      <trkpt lat="43.19749" lon="-3.2445">
        <ele>667</ele>
        <time>2023-07-14T17:03:24.000+02:00</time>
      </trkpt>
      <trkpt lat="43.19741" lon="-3.24434">
        <ele>663</ele>
        <time>2023-07-14T17:03:26.000+02:00</time>
      </trkpt>
      <trkpt lat="43.19726" lon="-3.24412">
        <ele>659.3</ele>
        <time>2023-07-14T17:03:29.000+02:00</time>
      </trkpt>
      <trkpt lat="43.19719" lon="-3.24397">
        <ele>658</ele>
        <time>2023-07-14T17:03:31.000+02:00</time>
      </trkpt>
      <trkpt lat="43.19713" lon="-3.24379">
        <ele>656.3</ele>
        <time>2023-07-14T17:03:34.000+02:00</time>
      </trkpt>
      <trkpt lat="43.19707" lon="-3.24353">
        <ele>654.5</ele>
        <time>2023-07-14T17:03:37.000+02:00</time>
      </trkpt>
      <trkpt lat="43.19702" lon="-3.24341">
        <ele>654.3</ele>
        <time>2023-07-14T17:03:38.000+02:00</time>
      </trkpt>
      <trkpt lat="43.19677" lon="-3.24295">
        <ele>658.5</ele>
        <time>2023-07-14T17:03:45.000+02:00</time>
      </trkpt>
      <trkpt lat="43.19668" lon="-3.24275">
        <ele>660.3</ele>
        <time>2023-07-14T17:03:47.000+02:00</time>
      </trkpt>
      <trkpt lat="43.19664" lon="-3.24272">
        <ele>660.3</ele>
        <time>2023-07-14T17:03:48.000+02:00</time>
      </trkpt>
      <trkpt lat="43.19662" lon="-3.24271">
        <ele>659.8</ele>
        <time>2023-07-14T17:03:49.000+02:00</time>
      </trkpt>
      <trkpt lat="43.19659" lon="-3.24277">
        <ele>659.8</ele>
        <time>2023-07-14T17:03:50.000+02:00</time>
      </trkpt>
      <trkpt lat="43.19659" lon="-3.24287">
        <ele>660.5</ele>
        <time>2023-07-14T17:03:51.000+02:00</time>
      </trkpt>
      <trkpt lat="43.19659" lon="-3.24302">
        <ele>661.5</ele>
        <time>2023-07-14T17:03:53.000+02:00</time>
      </trkpt>
      <trkpt lat="43.19651" lon="-3.24336">
        <ele>662.3</ele>
        <time>2023-07-14T17:03:57.000+02:00</time>
      </trkpt>
      <trkpt lat="43.19617" lon="-3.24463">
        <ele>661.5</ele>
        <time>2023-07-14T17:04:12.000+02:00</time>
      </trkpt>
      <trkpt lat="43.19596" lon="-3.24488">
        <ele>659</ele>
        <time>2023-07-14T17:04:16.000+02:00</time>
      </trkpt>
      <trkpt lat="43.19572" lon="-3.245">
        <ele>654</ele>
        <time>2023-07-14T17:04:20.000+02:00</time>
      </trkpt>
      <trkpt lat="43.19567" lon="-3.24506">
        <ele>653.3</ele>
        <time>2023-07-14T17:04:21.000+02:00</time>
      </trkpt>
      <trkpt lat="43.19561" lon="-3.24524">
        <ele>653.3</ele>
        <time>2023-07-14T17:04:23.000+02:00</time>
      </trkpt>
      <trkpt lat="43.19552" lon="-3.24558">
        <ele>654.3</ele>
        <time>2023-07-14T17:04:27.000+02:00</time>
      </trkpt>
      <trkpt lat="43.19543" lon="-3.24595">
        <ele>656</ele>
        <time>2023-07-14T17:04:32.000+02:00</time>
      </trkpt>
      <trkpt lat="43.19529" lon="-3.24623">
        <ele>655.5</ele>
        <time>2023-07-14T17:04:36.000+02:00</time>
      </trkpt>
      <trkpt lat="43.19505" lon="-3.24657">
        <ele>653.8</ele>
        <time>2023-07-14T17:04:41.000+02:00</time>
      </trkpt>
      <trkpt lat="43.19476" lon="-3.24701">
        <ele>652.3</ele>
        <time>2023-07-14T17:04:47.000+02:00</time>
      </trkpt>
      <trkpt lat="43.1947" lon="-3.24702">
        <ele>650.8</ele>
        <time>2023-07-14T17:04:48.000+02:00</time>
      </trkpt>
      <trkpt lat="43.19463" lon="-3.24696">
        <ele>647.8</ele>
        <time>2023-07-14T17:04:49.000+02:00</time>
      </trkpt>
      <trkpt lat="43.19466" lon="-3.24684">
        <ele>646.5</ele>
        <time>2023-07-14T17:04:51.000+02:00</time>
      </trkpt>
      <trkpt lat="43.19485" lon="-3.24656">
        <ele>647.8</ele>
        <time>2023-07-14T17:04:55.000+02:00</time>
      </trkpt>
      <trkpt lat="43.19488" lon="-3.2462">
        <ele>644.5</ele>
        <time>2023-07-14T17:04:59.000+02:00</time>
      </trkpt>
      <trkpt lat="43.19495" lon="-3.24531">
        <ele>636.3</ele>
        <time>2023-07-14T17:05:09.000+02:00</time>
      </trkpt>
      <trkpt lat="43.19494" lon="-3.24474">
        <ele>630.3</ele>
        <time>2023-07-14T17:05:15.000+02:00</time>
      </trkpt>
      <trkpt lat="43.19494" lon="-3.24433">
        <ele>626.5</ele>
        <time>2023-07-14T17:05:20.000+02:00</time>
      </trkpt>
      <trkpt lat="43.19493" lon="-3.24396">
        <ele>622.8</ele>
        <time>2023-07-14T17:05:24.000+02:00</time>
      </trkpt>
      <trkpt lat="43.1949" lon="-3.24361">
        <ele>619</ele>
        <time>2023-07-14T17:05:28.000+02:00</time>
      </trkpt>
      <trkpt lat="43.19491" lon="-3.24336">
        <ele>617.3</ele>
        <time>2023-07-14T17:05:31.000+02:00</time>
      </trkpt>
      <trkpt lat="43.19467" lon="-3.24174">
        <ele>606</ele>
        <time>2023-07-14T17:05:49.000+02:00</time>
      </trkpt>
      <trkpt lat="43.19461" lon="-3.24153">
        <ele>604</ele>
        <time>2023-07-14T17:05:52.000+02:00</time>
      </trkpt>
      <trkpt lat="43.1945" lon="-3.24131">
        <ele>599.5</ele>
        <time>2023-07-14T17:05:55.000+02:00</time>
      </trkpt>
      <trkpt lat="43.19434" lon="-3.24039">
        <ele>593</ele>
        <time>2023-07-14T17:06:05.000+02:00</time>
      </trkpt>
      <trkpt lat="43.19425" lon="-3.24018">
        <ele>590.5</ele>
        <time>2023-07-14T17:06:08.000+02:00</time>
      </trkpt>
      <trkpt lat="43.19409" lon="-3.23986">
        <ele>586.5</ele>
        <time>2023-07-14T17:06:12.000+02:00</time>
      </trkpt>
      <trkpt lat="43.19402" lon="-3.23959">
        <ele>586.3</ele>
        <time>2023-07-14T17:06:15.000+02:00</time>
      </trkpt>
      <trkpt lat="43.19398" lon="-3.23949">
        <ele>585.5</ele>
        <time>2023-07-14T17:06:17.000+02:00</time>
      </trkpt>
      <trkpt lat="43.19378" lon="-3.2393">
        <ele>580.8</ele>
        <time>2023-07-14T17:06:20.000+02:00</time>
      </trkpt>
      <trkpt lat="43.1937" lon="-3.23918">
        <ele>578.8</ele>
        <time>2023-07-14T17:06:22.000+02:00</time>
      </trkpt>
      <trkpt lat="43.1936" lon="-3.23894">
        <ele>576</ele>
        <time>2023-07-14T17:06:25.000+02:00</time>
      </trkpt>
      <trkpt lat="43.19355" lon="-3.23881">
        <ele>574.8</ele>
        <time>2023-07-14T17:06:27.000+02:00</time>
      </trkpt>
      <trkpt lat="43.19347" lon="-3.23856">
        <ele>572.8</ele>
        <time>2023-07-14T17:06:30.000+02:00</time>
      </trkpt>
      <trkpt lat="43.19337" lon="-3.23857">
        <ele>569.8</ele>
        <time>2023-07-14T17:06:31.000+02:00</time>
      </trkpt>
      <trkpt lat="43.19334" lon="-3.23877">
        <ele>568.8</ele>
        <time>2023-07-14T17:06:34.000+02:00</time>
      </trkpt>
      <trkpt lat="43.19336" lon="-3.2389">
        <ele>569</ele>
        <time>2023-07-14T17:06:35.000+02:00</time>
      </trkpt>
      <trkpt lat="43.19326" lon="-3.23928">
        <ele>565</ele>
        <time>2023-07-14T17:06:40.000+02:00</time>
      </trkpt>
      <trkpt lat="43.19321" lon="-3.23953">
        <ele>562.8</ele>
        <time>2023-07-14T17:06:43.000+02:00</time>
      </trkpt>
      <trkpt lat="43.19324" lon="-3.23978">
        <ele>563.5</ele>
        <time>2023-07-14T17:06:45.000+02:00</time>
      </trkpt>
      <trkpt lat="43.19335" lon="-3.24029">
        <ele>563.5</ele>
        <time>2023-07-14T17:06:51.000+02:00</time>
      </trkpt>
      <trkpt lat="43.19335" lon="-3.2405">
        <ele>561.5</ele>
        <time>2023-07-14T17:06:54.000+02:00</time>
      </trkpt>
      <trkpt lat="43.19331" lon="-3.24057">
        <ele>559.8</ele>
        <time>2023-07-14T17:06:55.000+02:00</time>
      </trkpt>
      <trkpt lat="43.19318" lon="-3.24074">
        <ele>555</ele>
        <time>2023-07-14T17:06:57.000+02:00</time>
      </trkpt>
      <trkpt lat="43.19311" lon="-3.24117">
        <ele>553.5</ele>
        <time>2023-07-14T17:07:02.000+02:00</time>
      </trkpt>
      <trkpt lat="43.193" lon="-3.24153">
        <ele>551.8</ele>
        <time>2023-07-14T17:07:07.000+02:00</time>
      </trkpt>
      <trkpt lat="43.19278" lon="-3.24196">
        <ele>547.8</ele>
        <time>2023-07-14T17:07:13.000+02:00</time>
      </trkpt>
      <trkpt lat="43.19272" lon="-3.24206">
        <ele>546.5</ele>
        <time>2023-07-14T17:07:14.000+02:00</time>
      </trkpt>
      <trkpt lat="43.19266" lon="-3.24205">
        <ele>545</ele>
        <time>2023-07-14T17:07:15.000+02:00</time>
      </trkpt>
      <trkpt lat="43.19261" lon="-3.24197">
        <ele>543.8</ele>
        <time>2023-07-14T17:07:16.000+02:00</time>
      </trkpt>
      <trkpt lat="43.19266" lon="-3.24179">
        <ele>544.8</ele>
        <time>2023-07-14T17:07:18.000+02:00</time>
      </trkpt>
      <trkpt lat="43.19271" lon="-3.24154">
        <ele>545.5</ele>
        <time>2023-07-14T17:07:21.000+02:00</time>
      </trkpt>
      <trkpt lat="43.19265" lon="-3.24127">
        <ele>543.3</ele>
        <time>2023-07-14T17:07:24.000+02:00</time>
      </trkpt>
      <trkpt lat="43.19238" lon="-3.24109">
        <ele>535.3</ele>
        <time>2023-07-14T17:07:29.000+02:00</time>
      </trkpt>
      <trkpt lat="43.19232" lon="-3.24101">
        <ele>533</ele>
        <time>2023-07-14T17:07:30.000+02:00</time>
      </trkpt>
      <trkpt lat="43.19224" lon="-3.24088">
        <ele>529.5</ele>
        <time>2023-07-14T17:07:32.000+02:00</time>
      </trkpt>
      <trkpt lat="43.19213" lon="-3.24078">
        <ele>525.5</ele>
        <time>2023-07-14T17:07:34.000+02:00</time>
      </trkpt>
      <trkpt lat="43.19209" lon="-3.24051">
        <ele>523</ele>
        <time>2023-07-14T17:07:37.000+02:00</time>
      </trkpt>
      <trkpt lat="43.19203" lon="-3.24009">
        <ele>519</ele>
        <time>2023-07-14T17:07:42.000+02:00</time>
      </trkpt>
      <trkpt lat="43.19199" lon="-3.23904">
        <ele>513.3</ele>
        <time>2023-07-14T17:07:54.000+02:00</time>
      </trkpt>
      <trkpt lat="43.19176" lon="-3.23846">
        <ele>502.8</ele>
        <time>2023-07-14T17:08:01.000+02:00</time>
      </trkpt>
      <trkpt lat="43.19142" lon="-3.23724">
        <ele>491.8</ele>
        <time>2023-07-14T17:08:16.000+02:00</time>
      </trkpt>
      <trkpt lat="43.19136" lon="-3.23688">
        <ele>490.8</ele>
        <time>2023-07-14T17:08:20.000+02:00</time>
      </trkpt>
      <trkpt lat="43.19127" lon="-3.23678">
        <ele>488</ele>
        <time>2023-07-14T17:08:21.000+02:00</time>
      </trkpt>
      <trkpt lat="43.19111" lon="-3.23678">
        <ele>482.5</ele>
        <time>2023-07-14T17:08:24.000+02:00</time>
      </trkpt>
      <trkpt lat="43.19095" lon="-3.23672">
        <ele>477.5</ele>
        <time>2023-07-14T17:08:26.000+02:00</time>
      </trkpt>
      <trkpt lat="43.19085" lon="-3.23666">
        <ele>474.8</ele>
        <time>2023-07-14T17:08:28.000+02:00</time>
      </trkpt>
      <trkpt lat="43.19076" lon="-3.23659">
        <ele>472.5</ele>
        <time>2023-07-14T17:08:30.000+02:00</time>
      </trkpt>
      <trkpt lat="43.19037" lon="-3.23613">
        <ele>465.8</ele>
        <time>2023-07-14T17:08:38.000+02:00</time>
      </trkpt>
      <trkpt lat="43.19022" lon="-3.2357">
        <ele>467</ele>
        <time>2023-07-14T17:08:43.000+02:00</time>
      </trkpt>
      <trkpt lat="43.1899" lon="-3.23532">
        <ele>462.8</ele>
        <time>2023-07-14T17:08:49.000+02:00</time>
      </trkpt>
      <trkpt lat="43.18975" lon="-3.23527">
        <ele>460</ele>
        <time>2023-07-14T17:08:52.000+02:00</time>
      </trkpt>
      <trkpt lat="43.18938" lon="-3.23543">
        <ele>449.5</ele>
        <time>2023-07-14T17:08:58.000+02:00</time>
      </trkpt>
      <trkpt lat="43.18904" lon="-3.23532">
        <ele>442.3</ele>
        <time>2023-07-14T17:09:03.000+02:00</time>
      </trkpt>
      <trkpt lat="43.18873" lon="-3.23513">
        <ele>434.5</ele>
        <time>2023-07-14T17:09:08.000+02:00</time>
      </trkpt>
      <trkpt lat="43.18833" lon="-3.23464">
        <ele>425.8</ele>
        <time>2023-07-14T17:09:16.000+02:00</time>
      </trkpt>
      <trkpt lat="43.18792" lon="-3.23386">
        <ele>423</ele>
        <time>2023-07-14T17:09:27.000+02:00</time>
      </trkpt>
      <trkpt lat="43.18773" lon="-3.2337">
        <ele>420.5</ele>
        <time>2023-07-14T17:09:30.000+02:00</time>
      </trkpt>
      <trkpt lat="43.18748" lon="-3.23347">
        <ele>418.3</ele>
        <time>2023-07-14T17:09:35.000+02:00</time>
      </trkpt>
      <trkpt lat="43.18659" lon="-3.23356">
        <ele>405</ele>
        <time>2023-07-14T17:09:49.000+02:00</time>
      </trkpt>
      <trkpt lat="43.18618" lon="-3.2337">
        <ele>396.5</ele>
        <time>2023-07-14T17:09:55.000+02:00</time>
      </trkpt>
      <trkpt lat="43.1861" lon="-3.23372">
        <ele>395</ele>
        <time>2023-07-14T17:09:56.000+02:00</time>
      </trkpt>
      <trkpt lat="43.18556" lon="-3.23368">
        <ele>384.3</ele>
        <time>2023-07-14T17:10:05.000+02:00</time>
      </trkpt>
      <trkpt lat="43.18544" lon="-3.23365">
        <ele>381.5</ele>
        <time>2023-07-14T17:10:06.000+02:00</time>
      </trkpt>
      <trkpt lat="43.18538" lon="-3.2336">
        <ele>380.5</ele>
        <time>2023-07-14T17:10:07.000+02:00</time>
      </trkpt>
      <trkpt lat="43.18533" lon="-3.23354">
        <ele>379.8</ele>
        <time>2023-07-14T17:10:09.000+02:00</time>
      </trkpt>
      <trkpt lat="43.18524" lon="-3.23326">
        <ele>381.5</ele>
        <time>2023-07-14T17:10:12.000+02:00</time>
      </trkpt>
      <trkpt lat="43.1852" lon="-3.23324">
        <ele>381</ele>
        <time>2023-07-14T17:10:13.000+02:00</time>
      </trkpt>
      <trkpt lat="43.18516" lon="-3.23323">
        <ele>380</ele>
        <time>2023-07-14T17:10:13.000+02:00</time>
      </trkpt>
      <trkpt lat="43.18512" lon="-3.23329">
        <ele>377.8</ele>
        <time>2023-07-14T17:10:14.000+02:00</time>
      </trkpt>
      <trkpt lat="43.18516" lon="-3.23362">
        <ele>374.3</ele>
        <time>2023-07-14T17:10:18.000+02:00</time>
      </trkpt>
      <trkpt lat="43.18517" lon="-3.23378">
        <ele>372.5</ele>
        <time>2023-07-14T17:10:20.000+02:00</time>
      </trkpt>
      <trkpt lat="43.18521" lon="-3.23386">
        <ele>372.5</ele>
        <time>2023-07-14T17:10:21.000+02:00</time>
      </trkpt>
      <trkpt lat="43.18532" lon="-3.23401">
        <ele>373.8</ele>
        <time>2023-07-14T17:10:23.000+02:00</time>
      </trkpt>
      <trkpt lat="43.18533" lon="-3.23408">
        <ele>373</ele>
        <time>2023-07-14T17:10:24.000+02:00</time>
      </trkpt>
      <trkpt lat="43.18531" lon="-3.23413">
        <ele>371.8</ele>
        <time>2023-07-14T17:10:25.000+02:00</time>
      </trkpt>
      <trkpt lat="43.18527" lon="-3.23413">
        <ele>370.8</ele>
        <time>2023-07-14T17:10:26.000+02:00</time>
      </trkpt>
      <trkpt lat="43.18522" lon="-3.23411">
        <ele>369.8</ele>
        <time>2023-07-14T17:10:27.000+02:00</time>
      </trkpt>
      <trkpt lat="43.18514" lon="-3.23403">
        <ele>368.5</ele>
        <time>2023-07-14T17:10:28.000+02:00</time>
      </trkpt>
      <trkpt lat="43.18486" lon="-3.23353">
        <ele>367.5</ele>
        <time>2023-07-14T17:10:35.000+02:00</time>
      </trkpt>
      <trkpt lat="43.18473" lon="-3.2334">
        <ele>366</ele>
        <time>2023-07-14T17:10:38.000+02:00</time>
      </trkpt>
      <trkpt lat="43.18466" lon="-3.23331">
        <ele>365.8</ele>
        <time>2023-07-14T17:10:39.000+02:00</time>
      </trkpt>
      <trkpt lat="43.18456" lon="-3.23313">
        <ele>366.3</ele>
        <time>2023-07-14T17:10:42.000+02:00</time>
      </trkpt>
      <trkpt lat="43.18451" lon="-3.23291">
        <ele>368.3</ele>
        <time>2023-07-14T17:10:44.000+02:00</time>
      </trkpt>
      <trkpt lat="43.18446" lon="-3.23267">
        <ele>371</ele>
        <time>2023-07-14T17:10:47.000+02:00</time>
      </trkpt>
      <trkpt lat="43.18442" lon="-3.23259">
        <ele>371</ele>
        <time>2023-07-14T17:10:48.000+02:00</time>
      </trkpt>
      <trkpt lat="43.18434" lon="-3.23252">
        <ele>370</ele>
        <time>2023-07-14T17:10:50.000+02:00</time>
      </trkpt>
      <trkpt lat="43.18423" lon="-3.23254">
        <ele>366.8</ele>
        <time>2023-07-14T17:10:52.000+02:00</time>
      </trkpt>
      <trkpt lat="43.18402" lon="-3.23266">
        <ele>362.8</ele>
        <time>2023-07-14T17:10:55.000+02:00</time>
      </trkpt>
      <trkpt lat="43.1835" lon="-3.23301">
        <ele>352.3</ele>
        <time>2023-07-14T17:11:04.000+02:00</time>
      </trkpt>
      <trkpt lat="43.18334" lon="-3.23313">
        <ele>347.5</ele>
        <time>2023-07-14T17:11:07.000+02:00</time>
      </trkpt>
      <trkpt lat="43.18294" lon="-3.23343">
        <ele>331.3</ele>
        <time>2023-07-14T17:11:14.000+02:00</time>
      </trkpt>
      <trkpt lat="43.18275" lon="-3.23347">
        <ele>326</ele>
        <time>2023-07-14T17:11:17.000+02:00</time>
      </trkpt>
      <trkpt lat="43.18235" lon="-3.23327">
        <ele>323.5</ele>
        <time>2023-07-14T17:11:23.000+02:00</time>
      </trkpt>
      <trkpt lat="43.18193" lon="-3.233">
        <ele>319.3</ele>
        <time>2023-07-14T17:11:30.000+02:00</time>
      </trkpt>
      <trkpt lat="43.18177" lon="-3.23287">
        <ele>318</ele>
        <time>2023-07-14T17:11:33.000+02:00</time>
      </trkpt>
      <trkpt lat="43.18167" lon="-3.23268">
        <ele>320.8</ele>
        <time>2023-07-14T17:11:36.000+02:00</time>
      </trkpt>
      <trkpt lat="43.18151" lon="-3.23257">
        <ele>317.8</ele>
        <time>2023-07-14T17:11:38.000+02:00</time>
      </trkpt>
      <trkpt lat="43.1814" lon="-3.23247">
        <ele>316.5</ele>
        <time>2023-07-14T17:11:40.000+02:00</time>
      </trkpt>
      <trkpt lat="43.18122" lon="-3.23216">
        <ele>315.5</ele>
        <time>2023-07-14T17:11:45.000+02:00</time>
      </trkpt>
      <trkpt lat="43.18109" lon="-3.23202">
        <ele>313</ele>
        <time>2023-07-14T17:11:47.000+02:00</time>
      </trkpt>
      <trkpt lat="43.18088" lon="-3.23188">
        <ele>306.8</ele>
        <time>2023-07-14T17:11:51.000+02:00</time>
      </trkpt>
      <trkpt lat="43.18078" lon="-3.23169">
        <ele>306.3</ele>
        <time>2023-07-14T17:11:53.000+02:00</time>
      </trkpt>
      <trkpt lat="43.18076" lon="-3.23122">
        <ele>304.8</ele>
        <time>2023-07-14T17:11:59.000+02:00</time>
      </trkpt>
      <trkpt lat="43.1808" lon="-3.23096">
        <ele>305.3</ele>
        <time>2023-07-14T17:12:02.000+02:00</time>
      </trkpt>
      <trkpt lat="43.18103" lon="-3.23078">
        <ele>314</ele>
        <time>2023-07-14T17:12:06.000+02:00</time>
      </trkpt>
      <trkpt lat="43.18123" lon="-3.23055">
        <ele>322.3</ele>
        <time>2023-07-14T17:12:10.000+02:00</time>
      </trkpt>
      <trkpt lat="43.18125" lon="-3.23042">
        <ele>323.3</ele>
        <time>2023-07-14T17:12:11.000+02:00</time>
      </trkpt>
      <trkpt lat="43.18117" lon="-3.23024">
        <ele>320.3</ele>
        <time>2023-07-14T17:12:13.000+02:00</time>
      </trkpt>
      <trkpt lat="43.18092" lon="-3.23006">
        <ele>311.3</ele>
        <time>2023-07-14T17:12:18.000+02:00</time>
      </trkpt>
      <trkpt lat="43.18038" lon="-3.22963">
        <ele>298.3</ele>
        <time>2023-07-14T17:12:27.000+02:00</time>
      </trkpt>
      <trkpt lat="43.18031" lon="-3.22947">
        <ele>297.5</ele>
        <time>2023-07-14T17:12:29.000+02:00</time>
      </trkpt>
      <trkpt lat="43.18025" lon="-3.22926">
        <ele>297.8</ele>
        <time>2023-07-14T17:12:32.000+02:00</time>
      </trkpt>
      <trkpt lat="43.18019" lon="-3.22913">
        <ele>297</ele>
        <time>2023-07-14T17:12:34.000+02:00</time>
      </trkpt>
      <trkpt lat="43.18016" lon="-3.22909">
        <ele>296</ele>
        <time>2023-07-14T17:12:35.000+02:00</time>
      </trkpt>
      <trkpt lat="43.18013" lon="-3.2291">
        <ele>295</ele>
        <time>2023-07-14T17:12:36.000+02:00</time>
      </trkpt>
      <trkpt lat="43.1801" lon="-3.22915">
        <ele>293.5</ele>
        <time>2023-07-14T17:12:37.000+02:00</time>
      </trkpt>
      <trkpt lat="43.18009" lon="-3.2292">
        <ele>292.8</ele>
        <time>2023-07-14T17:12:38.000+02:00</time>
      </trkpt>
      <trkpt lat="43.18012" lon="-3.22943">
        <ele>291.8</ele>
        <time>2023-07-14T17:12:41.000+02:00</time>
      </trkpt>
      <trkpt lat="43.18012" lon="-3.22964">
        <ele>289.8</ele>
        <time>2023-07-14T17:12:43.000+02:00</time>
      </trkpt>
      <trkpt lat="43.18014" lon="-3.2299">
        <ele>288</ele>
        <time>2023-07-14T17:12:46.000+02:00</time>
      </trkpt>
      <trkpt lat="43.18018" lon="-3.23004">
        <ele>288</ele>
        <time>2023-07-14T17:12:48.000+02:00</time>
      </trkpt>
      <trkpt lat="43.18023" lon="-3.23012">
        <ele>289.3</ele>
        <time>2023-07-14T17:12:49.000+02:00</time>
      </trkpt>
      <trkpt lat="43.18038" lon="-3.23028">
        <ele>293.3</ele>
        <time>2023-07-14T17:12:52.000+02:00</time>
      </trkpt>
      <trkpt lat="43.18044" lon="-3.23037">
        <ele>294.8</ele>
        <time>2023-07-14T17:12:53.000+02:00</time>
      </trkpt>
      <trkpt lat="43.18044" lon="-3.2305">
        <ele>294.3</ele>
        <time>2023-07-14T17:12:54.000+02:00</time>
      </trkpt>
      <trkpt lat="43.1804" lon="-3.23062">
        <ele>292.5</ele>
        <time>2023-07-14T17:12:56.000+02:00</time>
      </trkpt>
      <trkpt lat="43.18035" lon="-3.23067">
        <ele>290.8</ele>
        <time>2023-07-14T17:12:57.000+02:00</time>
      </trkpt>
      <trkpt lat="43.18011" lon="-3.23079">
        <ele>282.5</ele>
        <time>2023-07-14T17:13:01.000+02:00</time>
      </trkpt>
      <trkpt lat="43.18006" lon="-3.23085">
        <ele>280.8</ele>
        <time>2023-07-14T17:13:02.000+02:00</time>
      </trkpt>
      <trkpt lat="43.17986" lon="-3.23129">
        <ele>273.3</ele>
        <time>2023-07-14T17:13:08.000+02:00</time>
      </trkpt>
      <trkpt lat="43.17978" lon="-3.23149">
        <ele>270.3</ele>
        <time>2023-07-14T17:13:10.000+02:00</time>
      </trkpt>
      <trkpt lat="43.17974" lon="-3.23173">
        <ele>267.5</ele>
        <time>2023-07-14T17:13:13.000+02:00</time>
      </trkpt>
      <trkpt lat="43.17973" lon="-3.23193">
        <ele>264</ele>
        <time>2023-07-14T17:13:15.000+02:00</time>
      </trkpt>
      <trkpt lat="43.17968" lon="-3.23204">
        <ele>260.8</ele>
        <time>2023-07-14T17:13:17.000+02:00</time>
      </trkpt>
      <trkpt lat="43.17961" lon="-3.23204">
        <ele>258.8</ele>
        <time>2023-07-14T17:13:18.000+02:00</time>
      </trkpt>
      <trkpt lat="43.17955" lon="-3.23196">
        <ele>258.3</ele>
        <time>2023-07-14T17:13:19.000+02:00</time>
      </trkpt>
      <trkpt lat="43.17948" lon="-3.23163">
        <ele>260.8</ele>
        <time>2023-07-14T17:13:23.000+02:00</time>
      </trkpt>
      <trkpt lat="43.17942" lon="-3.23158">
        <ele>258.8</ele>
        <time>2023-07-14T17:13:24.000+02:00</time>
      </trkpt>
      <trkpt lat="43.17937" lon="-3.23162">
        <ele>257.3</ele>
        <time>2023-07-14T17:13:25.000+02:00</time>
      </trkpt>
      <trkpt lat="43.17935" lon="-3.23168">
        <ele>256.5</ele>
        <time>2023-07-14T17:13:25.000+02:00</time>
      </trkpt>
      <trkpt lat="43.17936" lon="-3.23184">
        <ele>254.5</ele>
        <time>2023-07-14T17:13:27.000+02:00</time>
      </trkpt>
      <trkpt lat="43.17935" lon="-3.23196">
        <ele>252.5</ele>
        <time>2023-07-14T17:13:29.000+02:00</time>
      </trkpt>
      <trkpt lat="43.17932" lon="-3.23202">
        <ele>250.8</ele>
        <time>2023-07-14T17:13:30.000+02:00</time>
      </trkpt>
      <trkpt lat="43.17927" lon="-3.232">
        <ele>249.5</ele>
        <time>2023-07-14T17:13:31.000+02:00</time>
      </trkpt>
      <trkpt lat="43.17914" lon="-3.23187">
        <ele>247.5</ele>
        <time>2023-07-14T17:13:34.000+02:00</time>
      </trkpt>
      <trkpt lat="43.17904" lon="-3.23166">
        <ele>247</ele>
        <time>2023-07-14T17:13:36.000+02:00</time>
      </trkpt>
      <trkpt lat="43.17903" lon="-3.23147">
        <ele>247.3</ele>
        <time>2023-07-14T17:13:39.000+02:00</time>
      </trkpt>
      <trkpt lat="43.17917" lon="-3.23124">
        <ele>251.3</ele>
        <time>2023-07-14T17:13:42.000+02:00</time>
      </trkpt>
      <trkpt lat="43.17918" lon="-3.23114">
        <ele>251.8</ele>
        <time>2023-07-14T17:13:43.000+02:00</time>
      </trkpt>
      <trkpt lat="43.17915" lon="-3.23107">
        <ele>251</ele>
        <time>2023-07-14T17:13:44.000+02:00</time>
      </trkpt>
      <trkpt lat="43.17909" lon="-3.23103">
        <ele>249.3</ele>
        <time>2023-07-14T17:13:45.000+02:00</time>
      </trkpt>
      <trkpt lat="43.17887" lon="-3.23093">
        <ele>243.3</ele>
        <time>2023-07-14T17:13:48.000+02:00</time>
      </trkpt>
      <trkpt lat="43.17884" lon="-3.23088">
        <ele>242.3</ele>
        <time>2023-07-14T17:13:49.000+02:00</time>
      </trkpt>
      <trkpt lat="43.17873" lon="-3.23063">
        <ele>240</ele>
        <time>2023-07-14T17:13:52.000+02:00</time>
      </trkpt>
      <trkpt lat="43.17858" lon="-3.23021">
        <ele>237</ele>
        <time>2023-07-14T17:13:58.000+02:00</time>
      </trkpt>
      <trkpt lat="43.17841" lon="-3.22981">
        <ele>233.5</ele>
        <time>2023-07-14T17:14:03.000+02:00</time>
      </trkpt>
      <trkpt lat="43.17831" lon="-3.22928">
        <ele>232</ele>
        <time>2023-07-14T17:14:09.000+02:00</time>
      </trkpt>
      <trkpt lat="43.17803" lon="-3.22855">
        <ele>224.8</ele>
        <time>2023-07-14T17:14:18.000+02:00</time>
      </trkpt>
      <trkpt lat="43.17778" lon="-3.22794">
        <ele>217.5</ele>
        <time>2023-07-14T17:14:26.000+02:00</time>
      </trkpt>
      <trkpt lat="43.17784" lon="-3.22771">
        <ele>219</ele>
        <time>2023-07-14T17:14:29.000+02:00</time>
      </trkpt>
      <trkpt lat="43.17785" lon="-3.22766">
        <ele>219.3</ele>
        <time>2023-07-14T17:14:30.000+02:00</time>
      </trkpt>
      <trkpt lat="43.17784" lon="-3.2274">
        <ele>218.8</ele>
        <time>2023-07-14T17:14:33.000+02:00</time>
      </trkpt>
      <trkpt lat="43.17782" lon="-3.22734">
        <ele>218</ele>
        <time>2023-07-14T17:14:34.000+02:00</time>
      </trkpt>
      <trkpt lat="43.17777" lon="-3.22712">
        <ele>215.8</ele>
        <time>2023-07-14T17:14:36.000+02:00</time>
      </trkpt>
      <trkpt lat="43.17774" lon="-3.22707">
        <ele>215</ele>
        <time>2023-07-14T17:14:37.000+02:00</time>
      </trkpt>
      <trkpt lat="43.17768" lon="-3.22685">
        <ele>212.3</ele>
        <time>2023-07-14T17:14:40.000+02:00</time>
      </trkpt>
      <trkpt lat="43.17765" lon="-3.22665">
        <ele>210.8</ele>
        <time>2023-07-14T17:14:42.000+02:00</time>
      </trkpt>
      <trkpt lat="43.17762" lon="-3.22657">
        <ele>210</ele>
        <time>2023-07-14T17:14:43.000+02:00</time>
      </trkpt>
      <trkpt lat="43.17758" lon="-3.22635">
        <ele>209</ele>
        <time>2023-07-14T17:14:45.000+02:00</time>
      </trkpt>
      <trkpt lat="43.17755" lon="-3.22619">
        <ele>208</ele>
        <time>2023-07-14T17:14:47.000+02:00</time>
      </trkpt>
      <trkpt lat="43.17753" lon="-3.22613">
        <ele>207.5</ele>
        <time>2023-07-14T17:14:48.000+02:00</time>
      </trkpt>
      <trkpt lat="43.17751" lon="-3.22608">
        <ele>206.8</ele>
        <time>2023-07-14T17:14:49.000+02:00</time>
      </trkpt>
      <trkpt lat="43.17749" lon="-3.22607">
        <ele>206.3</ele>
        <time>2023-07-14T17:14:49.000+02:00</time>
      </trkpt>
      <trkpt lat="43.17741" lon="-3.22604">
        <ele>205.3</ele>
        <time>2023-07-14T17:14:50.000+02:00</time>
      </trkpt>
      <trkpt lat="43.17737" lon="-3.22603">
        <ele>204.5</ele>
        <time>2023-07-14T17:14:51.000+02:00</time>
      </trkpt>
      <trkpt lat="43.1773" lon="-3.22597">
        <ele>203.3</ele>
        <time>2023-07-14T17:14:52.000+02:00</time>
      </trkpt>
      <trkpt lat="43.17726" lon="-3.22592">
        <ele>203</ele>
        <time>2023-07-14T17:14:53.000+02:00</time>
      </trkpt>
      <trkpt lat="43.1772" lon="-3.22578">
        <ele>203</ele>
        <time>2023-07-14T17:14:55.000+02:00</time>
      </trkpt>
      <trkpt lat="43.17715" lon="-3.22575">
        <ele>202.8</ele>
        <time>2023-07-14T17:14:56.000+02:00</time>
      </trkpt>
      <trkpt lat="43.17707" lon="-3.22567">
        <ele>203.3</ele>
        <time>2023-07-14T17:14:58.000+02:00</time>
      </trkpt>
      <trkpt lat="43.17678" lon="-3.22544">
        <ele>204</ele>
        <time>2023-07-14T17:15:03.000+02:00</time>
      </trkpt>
      <trkpt lat="43.17642" lon="-3.22518">
        <ele>205.3</ele>
        <time>2023-07-14T17:15:09.000+02:00</time>
      </trkpt>
      <trkpt lat="43.17628" lon="-3.22508">
        <ele>204.8</ele>
        <time>2023-07-14T17:15:12.000+02:00</time>
      </trkpt>
      <trkpt lat="43.17616" lon="-3.22496">
        <ele>205.5</ele>
        <time>2023-07-14T17:15:14.000+02:00</time>
      </trkpt>
      <trkpt lat="43.17588" lon="-3.22479">
        <ele>204.5</ele>
        <time>2023-07-14T17:15:19.000+02:00</time>
      </trkpt>
      <trkpt lat="43.17554" lon="-3.22449">
        <ele>204</ele>
        <time>2023-07-14T17:15:25.000+02:00</time>
      </trkpt>
      <trkpt lat="43.17536" lon="-3.22435">
        <ele>203</ele>
        <time>2023-07-14T17:15:28.000+02:00</time>
      </trkpt>
      <trkpt lat="43.17526" lon="-3.22426">
        <ele>202.3</ele>
        <time>2023-07-14T17:15:30.000+02:00</time>
      </trkpt>
      <trkpt lat="43.17501" lon="-3.22405">
        <ele>199.8</ele>
        <time>2023-07-14T17:15:34.000+02:00</time>
      </trkpt>
      <trkpt lat="43.17492" lon="-3.22396">
        <ele>200.3</ele>
        <time>2023-07-14T17:15:36.000+02:00</time>
      </trkpt>
      <trkpt lat="43.17483" lon="-3.22389">
        <ele>199.8</ele>
        <time>2023-07-14T17:15:38.000+02:00</time>
      </trkpt>
      <trkpt lat="43.17463" lon="-3.22384">
        <ele>197.8</ele>
        <time>2023-07-14T17:15:41.000+02:00</time>
      </trkpt>
      <trkpt lat="43.17447" lon="-3.22376">
        <ele>196.3</ele>
        <time>2023-07-14T17:15:43.000+02:00</time>
      </trkpt>
      <trkpt lat="43.17442" lon="-3.22372">
        <ele>195.8</ele>
        <time>2023-07-14T17:15:44.000+02:00</time>
      </trkpt>
      <trkpt lat="43.17433" lon="-3.22366">
        <ele>195</ele>
        <time>2023-07-14T17:15:46.000+02:00</time>
      </trkpt>
      <trkpt lat="43.17432" lon="-3.22365">
        <ele>195</ele>
        <time>2023-07-14T17:15:46.000+02:00</time>
      </trkpt>
      <trkpt lat="43.1743" lon="-3.22357">
        <ele>195.3</ele>
        <time>2023-07-14T17:15:47.000+02:00</time>
      </trkpt>
      <trkpt lat="43.17429" lon="-3.22343">
        <ele>196.3</ele>
        <time>2023-07-14T17:15:48.000+02:00</time>
      </trkpt>
      <trkpt lat="43.17437" lon="-3.22267">
        <ele>196.3</ele>
        <time>2023-07-14T17:15:57.000+02:00</time>
      </trkpt>
      <trkpt lat="43.17438" lon="-3.22266">
        <ele>196.3</ele>
        <time>2023-07-14T17:15:57.000+02:00</time>
      </trkpt>
      <trkpt lat="43.17442" lon="-3.2223">
        <ele>193.5</ele>
        <time>2023-07-14T17:16:01.000+02:00</time>
      </trkpt>
      <trkpt lat="43.17448" lon="-3.22208">
        <ele>191.5</ele>
        <time>2023-07-14T17:16:04.000+02:00</time>
      </trkpt>
      <trkpt lat="43.17458" lon="-3.22182">
        <ele>188.5</ele>
        <time>2023-07-14T17:16:07.000+02:00</time>
      </trkpt>
      <trkpt lat="43.17459" lon="-3.22172">
        <ele>187.3</ele>
        <time>2023-07-14T17:16:08.000+02:00</time>
      </trkpt>
      <trkpt lat="43.17458" lon="-3.22165">
        <ele>186.3</ele>
        <time>2023-07-14T17:16:09.000+02:00</time>
      </trkpt>
      <trkpt lat="43.17459" lon="-3.22161">
        <ele>186</ele>
        <time>2023-07-14T17:16:10.000+02:00</time>
      </trkpt>
      <trkpt lat="43.17458" lon="-3.22143">
        <ele>184</ele>
        <time>2023-07-14T17:16:12.000+02:00</time>
      </trkpt>
      <trkpt lat="43.1745" lon="-3.22124">
        <ele>181.8</ele>
        <time>2023-07-14T17:16:14.000+02:00</time>
      </trkpt>
      <trkpt lat="43.17441" lon="-3.22112">
        <ele>180.3</ele>
        <time>2023-07-14T17:16:16.000+02:00</time>
      </trkpt>
      <trkpt lat="43.17434" lon="-3.22105">
        <ele>179.3</ele>
        <time>2023-07-14T17:16:17.000+02:00</time>
      </trkpt>
      <trkpt lat="43.17427" lon="-3.22114">
        <ele>179.8</ele>
        <time>2023-07-14T17:16:19.000+02:00</time>
      </trkpt>
      <trkpt lat="43.17419" lon="-3.2213">
        <ele>181</ele>
        <time>2023-07-14T17:16:21.000+02:00</time>
      </trkpt>
      <trkpt lat="43.17404" lon="-3.22154">
        <ele>182.3</ele>
        <time>2023-07-14T17:16:24.000+02:00</time>
      </trkpt>
      <trkpt lat="43.174" lon="-3.22168">
        <ele>182.8</ele>
        <time>2023-07-14T17:16:26.000+02:00</time>
      </trkpt>
      <trkpt lat="43.17385" lon="-3.22193">
        <ele>183.5</ele>
        <time>2023-07-14T17:16:30.000+02:00</time>
      </trkpt>
      <trkpt lat="43.17369" lon="-3.2221">
        <ele>183.3</ele>
        <time>2023-07-14T17:16:33.000+02:00</time>
      </trkpt>
      <trkpt lat="43.17358" lon="-3.22218">
        <ele>182.5</ele>
        <time>2023-07-14T17:16:35.000+02:00</time>
      </trkpt>
      <trkpt lat="43.17345" lon="-3.22226">
        <ele>181.3</ele>
        <time>2023-07-14T17:16:37.000+02:00</time>
      </trkpt>
      <trkpt lat="43.1733" lon="-3.2223">
        <ele>180.3</ele>
        <time>2023-07-14T17:16:39.000+02:00</time>
      </trkpt>
      <trkpt lat="43.17322" lon="-3.22239">
        <ele>180.3</ele>
        <time>2023-07-14T17:16:41.000+02:00</time>
      </trkpt>
      <trkpt lat="43.17319" lon="-3.22246">
        <ele>180.5</ele>
        <time>2023-07-14T17:16:42.000+02:00</time>
      </trkpt>
      <trkpt lat="43.17316" lon="-3.22253">
        <ele>180.5</ele>
        <time>2023-07-14T17:16:43.000+02:00</time>
      </trkpt>
      <trkpt lat="43.17315" lon="-3.22261">
        <ele>180.3</ele>
        <time>2023-07-14T17:16:44.000+02:00</time>
      </trkpt>
      <trkpt lat="43.17316" lon="-3.22273">
        <ele>180.3</ele>
        <time>2023-07-14T17:16:45.000+02:00</time>
      </trkpt>
      <trkpt lat="43.17318" lon="-3.22275">
        <ele>180.3</ele>
        <time>2023-07-14T17:16:45.000+02:00</time>
      </trkpt>
      <trkpt lat="43.17321" lon="-3.22283">
        <ele>180.3</ele>
        <time>2023-07-14T17:16:46.000+02:00</time>
      </trkpt>
      <trkpt lat="43.17322" lon="-3.22292">
        <ele>180</ele>
        <time>2023-07-14T17:16:47.000+02:00</time>
      </trkpt>
      <trkpt lat="43.1732" lon="-3.22301">
        <ele>180</ele>
        <time>2023-07-14T17:16:48.000+02:00</time>
      </trkpt>
      <trkpt lat="43.17316" lon="-3.22309">
        <ele>179.8</ele>
        <time>2023-07-14T17:16:49.000+02:00</time>
      </trkpt>
      <trkpt lat="43.17311" lon="-3.22314">
        <ele>179.5</ele>
        <time>2023-07-14T17:16:50.000+02:00</time>
      </trkpt>
      <trkpt lat="43.17304" lon="-3.22316">
        <ele>179.5</ele>
        <time>2023-07-14T17:16:51.000+02:00</time>
      </trkpt>
      <trkpt lat="43.17298" lon="-3.22314">
        <ele>179.3</ele>
        <time>2023-07-14T17:16:52.000+02:00</time>
      </trkpt>
      <trkpt lat="43.17292" lon="-3.2231">
        <ele>179.3</ele>
        <time>2023-07-14T17:16:53.000+02:00</time>
      </trkpt>
      <trkpt lat="43.17282" lon="-3.22313">
        <ele>178.8</ele>
        <time>2023-07-14T17:16:55.000+02:00</time>
      </trkpt>
    </trkseg>
  </trk>
</gpx>